<?xml version="1.0" encoding="UTF-8" standalone="no" ?>
<gpx xmlns="http://www.topografix.com/GPX/1/1" xmlns:xsi="http://www.w3.org/2001/XMLSchema-instance" xsi:schemaLocation="http://www.topografix.com/GPX/1/1 http://www.topografix.com/GPX/1/1/gpx.xsd" version="1.1" creator="VisuGPX - https://www.visugpx.com">
  <metadata>
    <name>vtt taxenne</name>
    <desc><![CDATA[randonnée vtt avec un mixte foret et petit route,un passage délicat de 150m a partir du 2ème km sur un sentier avec des ronces.]]></desc>
  </metadata>
  <trk>
    <name><![CDATA[Tracé actuel: 21 AVR 2018 14:03]]></name>
    <trkseg>
      <trkpt lat="47.22449" lon="5.67643">
        <ele>230.85</ele>
        <time>2018-04-21T12:03:10Z</time>
      </trkpt>
      <trkpt lat="47.22449" lon="5.67642">
        <ele>232.3</ele>
        <time>2018-04-21T12:03:15Z</time>
      </trkpt>
      <trkpt lat="47.22443" lon="5.67648">
        <ele>232.78</ele>
        <time>2018-04-21T12:03:24Z</time>
      </trkpt>
      <trkpt lat="47.22437" lon="5.67653">
        <ele>233.74</ele>
        <time>2018-04-21T12:03:33Z</time>
      </trkpt>
      <trkpt lat="47.22439" lon="5.67686">
        <ele>232.3</ele>
        <time>2018-04-21T12:03:46Z</time>
      </trkpt>
      <trkpt lat="47.22447" lon="5.67724">
        <ele>229.41</ele>
        <time>2018-04-21T12:03:58Z</time>
      </trkpt>
      <trkpt lat="47.22447" lon="5.67727">
        <ele>229.41</ele>
        <time>2018-04-21T12:04:00Z</time>
      </trkpt>
      <trkpt lat="47.22441" lon="5.67733">
        <ele>229.41</ele>
        <time>2018-04-21T12:04:04Z</time>
      </trkpt>
      <trkpt lat="47.22398" lon="5.6775">
        <ele>228.45</ele>
        <time>2018-04-21T12:04:17Z</time>
      </trkpt>
      <trkpt lat="47.22365" lon="5.67749">
        <ele>225.09</ele>
        <time>2018-04-21T12:04:24Z</time>
      </trkpt>
      <trkpt lat="47.22355" lon="5.67763">
        <ele>222.2</ele>
        <time>2018-04-21T12:04:28Z</time>
      </trkpt>
      <trkpt lat="47.22359" lon="5.67795">
        <ele>219.8</ele>
        <time>2018-04-21T12:04:32Z</time>
      </trkpt>
      <trkpt lat="47.22362" lon="5.67828">
        <ele>216.91</ele>
        <time>2018-04-21T12:04:35Z</time>
      </trkpt>
      <trkpt lat="47.2236" lon="5.67852">
        <ele>215.95</ele>
        <time>2018-04-21T12:04:37Z</time>
      </trkpt>
      <trkpt lat="47.22358" lon="5.67915">
        <ele>216.43</ele>
        <time>2018-04-21T12:04:43Z</time>
      </trkpt>
      <trkpt lat="47.22333" lon="5.6795">
        <ele>216.43</ele>
        <time>2018-04-21T12:04:49Z</time>
      </trkpt>
      <trkpt lat="47.22327" lon="5.67952">
        <ele>216.43</ele>
        <time>2018-04-21T12:04:50Z</time>
      </trkpt>
      <trkpt lat="47.22312" lon="5.67961">
        <ele>216.91</ele>
        <time>2018-04-21T12:04:53Z</time>
      </trkpt>
      <trkpt lat="47.22301" lon="5.67966">
        <ele>217.4</ele>
        <time>2018-04-21T12:04:55Z</time>
      </trkpt>
      <trkpt lat="47.22286" lon="5.67991">
        <ele>217.88</ele>
        <time>2018-04-21T12:05:00Z</time>
      </trkpt>
      <trkpt lat="47.22274" lon="5.68011">
        <ele>219.8</ele>
        <time>2018-04-21T12:05:05Z</time>
      </trkpt>
      <trkpt lat="47.22269" lon="5.68019">
        <ele>220.76</ele>
        <time>2018-04-21T12:05:08Z</time>
      </trkpt>
      <trkpt lat="47.22243" lon="5.68007">
        <ele>222.68</ele>
        <time>2018-04-21T12:05:20Z</time>
      </trkpt>
      <trkpt lat="47.2221" lon="5.67983">
        <ele>222.68</ele>
        <time>2018-04-21T12:05:32Z</time>
      </trkpt>
      <trkpt lat="47.22158" lon="5.6796">
        <ele>222.68</ele>
        <time>2018-04-21T12:05:47Z</time>
      </trkpt>
      <trkpt lat="47.22088" lon="5.67946">
        <ele>223.16</ele>
        <time>2018-04-21T12:06:03Z</time>
      </trkpt>
      <trkpt lat="47.22075" lon="5.67946">
        <ele>223.64</ele>
        <time>2018-04-21T12:06:06Z</time>
      </trkpt>
      <trkpt lat="47.22013" lon="5.67972">
        <ele>223.16</ele>
        <time>2018-04-21T12:06:19Z</time>
      </trkpt>
      <trkpt lat="47.21958" lon="5.68021">
        <ele>222.68</ele>
        <time>2018-04-21T12:06:30Z</time>
      </trkpt>
      <trkpt lat="47.21937" lon="5.68047">
        <ele>222.68</ele>
        <time>2018-04-21T12:06:36Z</time>
      </trkpt>
      <trkpt lat="47.21926" lon="5.68067">
        <ele>222.68</ele>
        <time>2018-04-21T12:06:40Z</time>
      </trkpt>
      <trkpt lat="47.21915" lon="5.68102">
        <ele>222.68</ele>
        <time>2018-04-21T12:06:46Z</time>
      </trkpt>
      <trkpt lat="47.2191" lon="5.68119">
        <ele>223.16</ele>
        <time>2018-04-21T12:06:49Z</time>
      </trkpt>
      <trkpt lat="47.21901" lon="5.68147">
        <ele>223.16</ele>
        <time>2018-04-21T12:06:54Z</time>
      </trkpt>
      <trkpt lat="47.21896" lon="5.6817">
        <ele>223.64</ele>
        <time>2018-04-21T12:06:58Z</time>
      </trkpt>
      <trkpt lat="47.21893" lon="5.68189">
        <ele>223.64</ele>
        <time>2018-04-21T12:07:01Z</time>
      </trkpt>
      <trkpt lat="47.21893" lon="5.68207">
        <ele>223.64</ele>
        <time>2018-04-21T12:07:04Z</time>
      </trkpt>
      <trkpt lat="47.21902" lon="5.68271">
        <ele>223.64</ele>
        <time>2018-04-21T12:07:15Z</time>
      </trkpt>
      <trkpt lat="47.2192" lon="5.68349">
        <ele>224.12</ele>
        <time>2018-04-21T12:07:29Z</time>
      </trkpt>
      <trkpt lat="47.21937" lon="5.68424">
        <ele>224.12</ele>
        <time>2018-04-21T12:07:44Z</time>
      </trkpt>
      <trkpt lat="47.21921" lon="5.68481">
        <ele>224.12</ele>
        <time>2018-04-21T12:07:57Z</time>
      </trkpt>
      <trkpt lat="47.2188" lon="5.68514">
        <ele>224.12</ele>
        <time>2018-04-21T12:08:12Z</time>
      </trkpt>
      <trkpt lat="47.21849" lon="5.68535">
        <ele>224.61</ele>
        <time>2018-04-21T12:08:25Z</time>
      </trkpt>
      <trkpt lat="47.21822" lon="5.68555">
        <ele>226.05</ele>
        <time>2018-04-21T12:08:38Z</time>
      </trkpt>
      <trkpt lat="47.21798" lon="5.68584">
        <ele>227.49</ele>
        <time>2018-04-21T12:08:53Z</time>
      </trkpt>
      <trkpt lat="47.21782" lon="5.68619">
        <ele>229.41</ele>
        <time>2018-04-21T12:09:07Z</time>
      </trkpt>
      <trkpt lat="47.21767" lon="5.68658">
        <ele>230.37</ele>
        <time>2018-04-21T12:09:21Z</time>
      </trkpt>
      <trkpt lat="47.21751" lon="5.68713">
        <ele>231.33</ele>
        <time>2018-04-21T12:09:38Z</time>
      </trkpt>
      <trkpt lat="47.21722" lon="5.68762">
        <ele>231.33</ele>
        <time>2018-04-21T12:09:55Z</time>
      </trkpt>
      <trkpt lat="47.2169" lon="5.68804">
        <ele>231.33</ele>
        <time>2018-04-21T12:10:09Z</time>
      </trkpt>
      <trkpt lat="47.21662" lon="5.68846">
        <ele>231.33</ele>
        <time>2018-04-21T12:10:22Z</time>
      </trkpt>
      <trkpt lat="47.21633" lon="5.68906">
        <ele>231.81</ele>
        <time>2018-04-21T12:10:39Z</time>
      </trkpt>
      <trkpt lat="47.21609" lon="5.6897">
        <ele>232.3</ele>
        <time>2018-04-21T12:10:56Z</time>
      </trkpt>
      <trkpt lat="47.21578" lon="5.69001">
        <ele>233.26</ele>
        <time>2018-04-21T12:11:09Z</time>
      </trkpt>
      <trkpt lat="47.21528" lon="5.69029">
        <ele>235.18</ele>
        <time>2018-04-21T12:11:29Z</time>
      </trkpt>
      <trkpt lat="47.21496" lon="5.69061">
        <ele>236.14</ele>
        <time>2018-04-21T12:11:44Z</time>
      </trkpt>
      <trkpt lat="47.21468" lon="5.69096">
        <ele>236.62</ele>
        <time>2018-04-21T12:11:58Z</time>
      </trkpt>
      <trkpt lat="47.21437" lon="5.69145">
        <ele>238.54</ele>
        <time>2018-04-21T12:12:16Z</time>
      </trkpt>
      <trkpt lat="47.21425" lon="5.69179">
        <ele>240.47</ele>
        <time>2018-04-21T12:12:28Z</time>
      </trkpt>
      <trkpt lat="47.21416" lon="5.6921">
        <ele>242.39</ele>
        <time>2018-04-21T12:12:39Z</time>
      </trkpt>
      <trkpt lat="47.21408" lon="5.69235">
        <ele>243.83</ele>
        <time>2018-04-21T12:12:49Z</time>
      </trkpt>
      <trkpt lat="47.21393" lon="5.69276">
        <ele>244.31</ele>
        <time>2018-04-21T12:13:03Z</time>
      </trkpt>
      <trkpt lat="47.21386" lon="5.69292">
        <ele>244.79</ele>
        <time>2018-04-21T12:13:08Z</time>
      </trkpt>
      <trkpt lat="47.21393" lon="5.69307">
        <ele>246.72</ele>
        <time>2018-04-21T12:13:17Z</time>
      </trkpt>
      <trkpt lat="47.214" lon="5.69315">
        <ele>249.6</ele>
        <time>2018-04-21T12:13:26Z</time>
      </trkpt>
      <trkpt lat="47.21408" lon="5.6932">
        <ele>252</ele>
        <time>2018-04-21T12:13:33Z</time>
      </trkpt>
      <trkpt lat="47.21413" lon="5.69323">
        <ele>254.89</ele>
        <time>2018-04-21T12:13:39Z</time>
      </trkpt>
      <trkpt lat="47.21418" lon="5.69322">
        <ele>255.85</ele>
        <time>2018-04-21T12:13:44Z</time>
      </trkpt>
      <trkpt lat="47.2143" lon="5.69325">
        <ele>257.29</ele>
        <time>2018-04-21T12:13:56Z</time>
      </trkpt>
      <trkpt lat="47.2144" lon="5.6933">
        <ele>258.73</ele>
        <time>2018-04-21T12:14:06Z</time>
      </trkpt>
      <trkpt lat="47.21447" lon="5.69339">
        <ele>259.69</ele>
        <time>2018-04-21T12:14:18Z</time>
      </trkpt>
      <trkpt lat="47.21451" lon="5.69346">
        <ele>260.17</ele>
        <time>2018-04-21T12:14:24Z</time>
      </trkpt>
      <trkpt lat="47.21449" lon="5.69347">
        <ele>260.65</ele>
        <time>2018-04-21T12:14:28Z</time>
      </trkpt>
      <trkpt lat="47.21452" lon="5.69353">
        <ele>261.14</ele>
        <time>2018-04-21T12:14:31Z</time>
      </trkpt>
      <trkpt lat="47.21462" lon="5.69375">
        <ele>262.1</ele>
        <time>2018-04-21T12:14:41Z</time>
      </trkpt>
      <trkpt lat="47.21471" lon="5.69395">
        <ele>264.02</ele>
        <time>2018-04-21T12:14:52Z</time>
      </trkpt>
      <trkpt lat="47.21473" lon="5.694">
        <ele>264.5</ele>
        <time>2018-04-21T12:14:54Z</time>
      </trkpt>
      <trkpt lat="47.21473" lon="5.69418">
        <ele>264.98</ele>
        <time>2018-04-21T12:15:02Z</time>
      </trkpt>
      <trkpt lat="47.21474" lon="5.69427">
        <ele>265.94</ele>
        <time>2018-04-21T12:15:06Z</time>
      </trkpt>
      <trkpt lat="47.21474" lon="5.69432">
        <ele>265.94</ele>
        <time>2018-04-21T12:15:08Z</time>
      </trkpt>
      <trkpt lat="47.21477" lon="5.6945">
        <ele>267.38</ele>
        <time>2018-04-21T12:15:20Z</time>
      </trkpt>
      <trkpt lat="47.2148" lon="5.69455">
        <ele>267.86</ele>
        <time>2018-04-21T12:15:22Z</time>
      </trkpt>
      <trkpt lat="47.21489" lon="5.69466">
        <ele>268.35</ele>
        <time>2018-04-21T12:15:27Z</time>
      </trkpt>
      <trkpt lat="47.21499" lon="5.69476">
        <ele>269.31</ele>
        <time>2018-04-21T12:15:38Z</time>
      </trkpt>
      <trkpt lat="47.21502" lon="5.69479">
        <ele>269.79</ele>
        <time>2018-04-21T12:15:40Z</time>
      </trkpt>
      <trkpt lat="47.21506" lon="5.69483">
        <ele>269.79</ele>
        <time>2018-04-21T12:15:43Z</time>
      </trkpt>
      <trkpt lat="47.21518" lon="5.69491">
        <ele>270.27</ele>
        <time>2018-04-21T12:15:49Z</time>
      </trkpt>
      <trkpt lat="47.21521" lon="5.69495">
        <ele>270.75</ele>
        <time>2018-04-21T12:15:51Z</time>
      </trkpt>
      <trkpt lat="47.21525" lon="5.69501">
        <ele>270.75</ele>
        <time>2018-04-21T12:15:54Z</time>
      </trkpt>
      <trkpt lat="47.21536" lon="5.69518">
        <ele>271.71</ele>
        <time>2018-04-21T12:16:03Z</time>
      </trkpt>
      <trkpt lat="47.21548" lon="5.69535">
        <ele>272.67</ele>
        <time>2018-04-21T12:16:12Z</time>
      </trkpt>
      <trkpt lat="47.2155" lon="5.69542">
        <ele>273.15</ele>
        <time>2018-04-21T12:16:15Z</time>
      </trkpt>
      <trkpt lat="47.21556" lon="5.69553">
        <ele>273.63</ele>
        <time>2018-04-21T12:16:19Z</time>
      </trkpt>
      <trkpt lat="47.21566" lon="5.69562">
        <ele>274.11</ele>
        <time>2018-04-21T12:16:24Z</time>
      </trkpt>
      <trkpt lat="47.21578" lon="5.69576">
        <ele>274.59</ele>
        <time>2018-04-21T12:16:33Z</time>
      </trkpt>
      <trkpt lat="47.21581" lon="5.696">
        <ele>275.07</ele>
        <time>2018-04-21T12:16:44Z</time>
      </trkpt>
      <trkpt lat="47.21582" lon="5.69605">
        <ele>275.56</ele>
        <time>2018-04-21T12:16:46Z</time>
      </trkpt>
      <trkpt lat="47.21585" lon="5.69617">
        <ele>276.04</ele>
        <time>2018-04-21T12:16:51Z</time>
      </trkpt>
      <trkpt lat="47.21584" lon="5.6962">
        <ele>276.04</ele>
        <time>2018-04-21T12:16:53Z</time>
      </trkpt>
      <trkpt lat="47.21589" lon="5.69634">
        <ele>276.52</ele>
        <time>2018-04-21T12:16:59Z</time>
      </trkpt>
      <trkpt lat="47.21591" lon="5.69642">
        <ele>276.52</ele>
        <time>2018-04-21T12:17:02Z</time>
      </trkpt>
      <trkpt lat="47.21593" lon="5.69656">
        <ele>277</ele>
        <time>2018-04-21T12:17:09Z</time>
      </trkpt>
      <trkpt lat="47.21597" lon="5.69665">
        <ele>277</ele>
        <time>2018-04-21T12:17:12Z</time>
      </trkpt>
      <trkpt lat="47.21601" lon="5.69675">
        <ele>277.48</ele>
        <time>2018-04-21T12:17:15Z</time>
      </trkpt>
      <trkpt lat="47.21605" lon="5.69681">
        <ele>277.48</ele>
        <time>2018-04-21T12:17:17Z</time>
      </trkpt>
      <trkpt lat="47.21611" lon="5.69706">
        <ele>277.96</ele>
        <time>2018-04-21T12:17:28Z</time>
      </trkpt>
      <trkpt lat="47.21619" lon="5.69736">
        <ele>278.44</ele>
        <time>2018-04-21T12:17:38Z</time>
      </trkpt>
      <trkpt lat="47.21622" lon="5.69741">
        <ele>278.92</ele>
        <time>2018-04-21T12:17:40Z</time>
      </trkpt>
      <trkpt lat="47.21626" lon="5.69752">
        <ele>278.92</ele>
        <time>2018-04-21T12:17:44Z</time>
      </trkpt>
      <trkpt lat="47.21631" lon="5.69761">
        <ele>279.4</ele>
        <time>2018-04-21T12:17:48Z</time>
      </trkpt>
      <trkpt lat="47.21637" lon="5.69776">
        <ele>279.88</ele>
        <time>2018-04-21T12:17:53Z</time>
      </trkpt>
      <trkpt lat="47.2164" lon="5.69784">
        <ele>279.88</ele>
        <time>2018-04-21T12:17:56Z</time>
      </trkpt>
      <trkpt lat="47.21641" lon="5.69788">
        <ele>280.36</ele>
        <time>2018-04-21T12:17:58Z</time>
      </trkpt>
      <trkpt lat="47.21645" lon="5.69796">
        <ele>280.36</ele>
        <time>2018-04-21T12:18:02Z</time>
      </trkpt>
      <trkpt lat="47.21647" lon="5.69802">
        <ele>280.36</ele>
        <time>2018-04-21T12:18:04Z</time>
      </trkpt>
      <trkpt lat="47.21655" lon="5.69834">
        <ele>280.84</ele>
        <time>2018-04-21T12:18:15Z</time>
      </trkpt>
      <trkpt lat="47.21655" lon="5.69837">
        <ele>280.84</ele>
        <time>2018-04-21T12:18:16Z</time>
      </trkpt>
      <trkpt lat="47.21661" lon="5.69858">
        <ele>281.32</ele>
        <time>2018-04-21T12:18:23Z</time>
      </trkpt>
      <trkpt lat="47.2166" lon="5.69869">
        <ele>281.8</ele>
        <time>2018-04-21T12:18:27Z</time>
      </trkpt>
      <trkpt lat="47.21662" lon="5.69882">
        <ele>282.28</ele>
        <time>2018-04-21T12:18:32Z</time>
      </trkpt>
      <trkpt lat="47.21664" lon="5.69897">
        <ele>282.77</ele>
        <time>2018-04-21T12:18:38Z</time>
      </trkpt>
      <trkpt lat="47.21668" lon="5.69919">
        <ele>284.21</ele>
        <time>2018-04-21T12:18:47Z</time>
      </trkpt>
      <trkpt lat="47.21669" lon="5.69925">
        <ele>284.21</ele>
        <time>2018-04-21T12:18:49Z</time>
      </trkpt>
      <trkpt lat="47.21673" lon="5.69933">
        <ele>284.69</ele>
        <time>2018-04-21T12:19:03Z</time>
      </trkpt>
      <trkpt lat="47.21679" lon="5.69947">
        <ele>285.17</ele>
        <time>2018-04-21T12:19:15Z</time>
      </trkpt>
      <trkpt lat="47.21681" lon="5.6995">
        <ele>285.17</ele>
        <time>2018-04-21T12:19:17Z</time>
      </trkpt>
      <trkpt lat="47.21684" lon="5.6996">
        <ele>285.65</ele>
        <time>2018-04-21T12:19:30Z</time>
      </trkpt>
      <trkpt lat="47.21684" lon="5.69962">
        <ele>286.13</ele>
        <time>2018-04-21T12:19:45Z</time>
      </trkpt>
      <trkpt lat="47.21686" lon="5.69967">
        <ele>286.13</ele>
        <time>2018-04-21T12:19:58Z</time>
      </trkpt>
      <trkpt lat="47.21691" lon="5.69971">
        <ele>286.61</ele>
        <time>2018-04-21T12:20:11Z</time>
      </trkpt>
      <trkpt lat="47.21694" lon="5.69973">
        <ele>286.61</ele>
        <time>2018-04-21T12:20:14Z</time>
      </trkpt>
      <trkpt lat="47.21702" lon="5.69974">
        <ele>286.61</ele>
        <time>2018-04-21T12:20:24Z</time>
      </trkpt>
      <trkpt lat="47.21705" lon="5.69976">
        <ele>286.61</ele>
        <time>2018-04-21T12:20:28Z</time>
      </trkpt>
      <trkpt lat="47.21708" lon="5.69975">
        <ele>286.61</ele>
        <time>2018-04-21T12:20:30Z</time>
      </trkpt>
      <trkpt lat="47.21714" lon="5.69979">
        <ele>286.61</ele>
        <time>2018-04-21T12:20:40Z</time>
      </trkpt>
      <trkpt lat="47.21721" lon="5.69983">
        <ele>286.13</ele>
        <time>2018-04-21T12:20:45Z</time>
      </trkpt>
      <trkpt lat="47.21723" lon="5.69985">
        <ele>286.13</ele>
        <time>2018-04-21T12:20:47Z</time>
      </trkpt>
      <trkpt lat="47.21726" lon="5.69989">
        <ele>286.13</ele>
        <time>2018-04-21T12:20:50Z</time>
      </trkpt>
      <trkpt lat="47.21727" lon="5.69992">
        <ele>286.13</ele>
        <time>2018-04-21T12:20:52Z</time>
      </trkpt>
      <trkpt lat="47.2173" lon="5.69997">
        <ele>286.13</ele>
        <time>2018-04-21T12:20:57Z</time>
      </trkpt>
      <trkpt lat="47.21734" lon="5.69999">
        <ele>286.13</ele>
        <time>2018-04-21T12:21:02Z</time>
      </trkpt>
      <trkpt lat="47.21735" lon="5.70001">
        <ele>286.13</ele>
        <time>2018-04-21T12:21:03Z</time>
      </trkpt>
      <trkpt lat="47.21736" lon="5.70009">
        <ele>286.61</ele>
        <time>2018-04-21T12:21:08Z</time>
      </trkpt>
      <trkpt lat="47.21738" lon="5.70017">
        <ele>286.13</ele>
        <time>2018-04-21T12:21:11Z</time>
      </trkpt>
      <trkpt lat="47.21743" lon="5.70027">
        <ele>286.61</ele>
        <time>2018-04-21T12:21:18Z</time>
      </trkpt>
      <trkpt lat="47.21749" lon="5.70034">
        <ele>286.13</ele>
        <time>2018-04-21T12:21:22Z</time>
      </trkpt>
      <trkpt lat="47.21754" lon="5.70043">
        <ele>286.13</ele>
        <time>2018-04-21T12:21:35Z</time>
      </trkpt>
      <trkpt lat="47.21763" lon="5.70062">
        <ele>286.61</ele>
        <time>2018-04-21T12:21:50Z</time>
      </trkpt>
      <trkpt lat="47.21768" lon="5.70072">
        <ele>286.61</ele>
        <time>2018-04-21T12:21:54Z</time>
      </trkpt>
      <trkpt lat="47.21774" lon="5.70086">
        <ele>286.61</ele>
        <time>2018-04-21T12:22:00Z</time>
      </trkpt>
      <trkpt lat="47.21787" lon="5.70125">
        <ele>286.61</ele>
        <time>2018-04-21T12:22:13Z</time>
      </trkpt>
      <trkpt lat="47.21797" lon="5.70153">
        <ele>285.17</ele>
        <time>2018-04-21T12:22:20Z</time>
      </trkpt>
      <trkpt lat="47.21803" lon="5.70171">
        <ele>284.21</ele>
        <time>2018-04-21T12:22:23Z</time>
      </trkpt>
      <trkpt lat="47.21812" lon="5.70219">
        <ele>280.84</ele>
        <time>2018-04-21T12:22:28Z</time>
      </trkpt>
      <trkpt lat="47.21816" lon="5.70263">
        <ele>279.88</ele>
        <time>2018-04-21T12:22:32Z</time>
      </trkpt>
      <trkpt lat="47.21829" lon="5.70331">
        <ele>280.84</ele>
        <time>2018-04-21T12:22:40Z</time>
      </trkpt>
      <trkpt lat="47.21834" lon="5.70349">
        <ele>282.28</ele>
        <time>2018-04-21T12:22:43Z</time>
      </trkpt>
      <trkpt lat="47.21853" lon="5.70419">
        <ele>284.21</ele>
        <time>2018-04-21T12:22:57Z</time>
      </trkpt>
      <trkpt lat="47.21864" lon="5.70488">
        <ele>285.17</ele>
        <time>2018-04-21T12:23:11Z</time>
      </trkpt>
      <trkpt lat="47.21869" lon="5.70514">
        <ele>283.73</ele>
        <time>2018-04-21T12:23:15Z</time>
      </trkpt>
      <trkpt lat="47.21875" lon="5.70552">
        <ele>280.84</ele>
        <time>2018-04-21T12:23:20Z</time>
      </trkpt>
      <trkpt lat="47.21879" lon="5.70568">
        <ele>280.36</ele>
        <time>2018-04-21T12:23:22Z</time>
      </trkpt>
      <trkpt lat="47.21888" lon="5.70607">
        <ele>278.92</ele>
        <time>2018-04-21T12:23:27Z</time>
      </trkpt>
      <trkpt lat="47.21887" lon="5.70634">
        <ele>278.92</ele>
        <time>2018-04-21T12:23:31Z</time>
      </trkpt>
      <trkpt lat="47.2188" lon="5.7068">
        <ele>280.36</ele>
        <time>2018-04-21T12:23:41Z</time>
      </trkpt>
      <trkpt lat="47.21881" lon="5.70686">
        <ele>280.36</ele>
        <time>2018-04-21T12:23:42Z</time>
      </trkpt>
      <trkpt lat="47.21888" lon="5.70701">
        <ele>280.36</ele>
        <time>2018-04-21T12:23:45Z</time>
      </trkpt>
      <trkpt lat="47.21898" lon="5.70723">
        <ele>280.36</ele>
        <time>2018-04-21T12:23:49Z</time>
      </trkpt>
      <trkpt lat="47.21915" lon="5.70755">
        <ele>279.88</ele>
        <time>2018-04-21T12:23:55Z</time>
      </trkpt>
      <trkpt lat="47.21926" lon="5.70804">
        <ele>280.84</ele>
        <time>2018-04-21T12:24:04Z</time>
      </trkpt>
      <trkpt lat="47.21937" lon="5.70841">
        <ele>281.32</ele>
        <time>2018-04-21T12:24:13Z</time>
      </trkpt>
      <trkpt lat="47.21937" lon="5.70845">
        <ele>281.32</ele>
        <time>2018-04-21T12:24:14Z</time>
      </trkpt>
      <trkpt lat="47.21948" lon="5.70873">
        <ele>280.84</ele>
        <time>2018-04-21T12:24:22Z</time>
      </trkpt>
      <trkpt lat="47.21961" lon="5.70906">
        <ele>281.32</ele>
        <time>2018-04-21T12:24:31Z</time>
      </trkpt>
      <trkpt lat="47.21972" lon="5.70937">
        <ele>280.36</ele>
        <time>2018-04-21T12:24:38Z</time>
      </trkpt>
      <trkpt lat="47.21978" lon="5.70969">
        <ele>279.88</ele>
        <time>2018-04-21T12:24:46Z</time>
      </trkpt>
      <trkpt lat="47.21997" lon="5.7101">
        <ele>278.44</ele>
        <time>2018-04-21T12:24:56Z</time>
      </trkpt>
      <trkpt lat="47.21993" lon="5.71017">
        <ele>278.44</ele>
        <time>2018-04-21T12:25:00Z</time>
      </trkpt>
      <trkpt lat="47.22004" lon="5.7106">
        <ele>276.52</ele>
        <time>2018-04-21T12:25:12Z</time>
      </trkpt>
      <trkpt lat="47.22007" lon="5.71069">
        <ele>276.52</ele>
        <time>2018-04-21T12:25:14Z</time>
      </trkpt>
      <trkpt lat="47.22014" lon="5.71093">
        <ele>275.07</ele>
        <time>2018-04-21T12:25:18Z</time>
      </trkpt>
      <trkpt lat="47.22033" lon="5.71137">
        <ele>274.11</ele>
        <time>2018-04-21T12:25:24Z</time>
      </trkpt>
      <trkpt lat="47.22057" lon="5.71189">
        <ele>273.63</ele>
        <time>2018-04-21T12:25:35Z</time>
      </trkpt>
      <trkpt lat="47.22079" lon="5.71228">
        <ele>272.67</ele>
        <time>2018-04-21T12:25:44Z</time>
      </trkpt>
      <trkpt lat="47.22088" lon="5.71246">
        <ele>272.67</ele>
        <time>2018-04-21T12:25:49Z</time>
      </trkpt>
      <trkpt lat="47.22101" lon="5.71289">
        <ele>272.67</ele>
        <time>2018-04-21T12:26:00Z</time>
      </trkpt>
      <trkpt lat="47.22102" lon="5.71293">
        <ele>272.67</ele>
        <time>2018-04-21T12:26:01Z</time>
      </trkpt>
      <trkpt lat="47.22109" lon="5.71308">
        <ele>272.67</ele>
        <time>2018-04-21T12:26:05Z</time>
      </trkpt>
      <trkpt lat="47.22116" lon="5.71332">
        <ele>272.67</ele>
        <time>2018-04-21T12:26:18Z</time>
      </trkpt>
      <trkpt lat="47.22117" lon="5.71335">
        <ele>272.67</ele>
        <time>2018-04-21T12:26:21Z</time>
      </trkpt>
      <trkpt lat="47.22134" lon="5.71362">
        <ele>273.63</ele>
        <time>2018-04-21T12:26:33Z</time>
      </trkpt>
      <trkpt lat="47.22135" lon="5.71366">
        <ele>273.63</ele>
        <time>2018-04-21T12:26:35Z</time>
      </trkpt>
      <trkpt lat="47.22147" lon="5.71391">
        <ele>274.11</ele>
        <time>2018-04-21T12:26:45Z</time>
      </trkpt>
      <trkpt lat="47.22159" lon="5.71413">
        <ele>274.59</ele>
        <time>2018-04-21T12:26:55Z</time>
      </trkpt>
      <trkpt lat="47.22171" lon="5.71442">
        <ele>275.07</ele>
        <time>2018-04-21T12:27:06Z</time>
      </trkpt>
      <trkpt lat="47.22179" lon="5.71463">
        <ele>275.07</ele>
        <time>2018-04-21T12:27:14Z</time>
      </trkpt>
      <trkpt lat="47.22197" lon="5.71504">
        <ele>273.15</ele>
        <time>2018-04-21T12:27:26Z</time>
      </trkpt>
      <trkpt lat="47.22202" lon="5.71553">
        <ele>271.71</ele>
        <time>2018-04-21T12:27:38Z</time>
      </trkpt>
      <trkpt lat="47.22207" lon="5.71597">
        <ele>271.71</ele>
        <time>2018-04-21T12:27:51Z</time>
      </trkpt>
      <trkpt lat="47.22215" lon="5.71629">
        <ele>270.75</ele>
        <time>2018-04-21T12:28:00Z</time>
      </trkpt>
      <trkpt lat="47.22216" lon="5.71646">
        <ele>270.75</ele>
        <time>2018-04-21T12:28:05Z</time>
      </trkpt>
      <trkpt lat="47.22215" lon="5.71652">
        <ele>270.27</ele>
        <time>2018-04-21T12:28:07Z</time>
      </trkpt>
      <trkpt lat="47.22224" lon="5.71685">
        <ele>269.79</ele>
        <time>2018-04-21T12:28:17Z</time>
      </trkpt>
      <trkpt lat="47.22232" lon="5.71692">
        <ele>268.83</ele>
        <time>2018-04-21T12:28:21Z</time>
      </trkpt>
      <trkpt lat="47.22251" lon="5.71702">
        <ele>266.9</ele>
        <time>2018-04-21T12:28:26Z</time>
      </trkpt>
      <trkpt lat="47.22266" lon="5.71711">
        <ele>264.98</ele>
        <time>2018-04-21T12:28:29Z</time>
      </trkpt>
      <trkpt lat="47.22279" lon="5.7172">
        <ele>263.54</ele>
        <time>2018-04-21T12:28:32Z</time>
      </trkpt>
      <trkpt lat="47.22293" lon="5.7173">
        <ele>262.1</ele>
        <time>2018-04-21T12:28:35Z</time>
      </trkpt>
      <trkpt lat="47.22321" lon="5.71754">
        <ele>258.25</ele>
        <time>2018-04-21T12:28:44Z</time>
      </trkpt>
      <trkpt lat="47.22325" lon="5.71757">
        <ele>258.25</ele>
        <time>2018-04-21T12:28:45Z</time>
      </trkpt>
      <trkpt lat="47.22348" lon="5.71786">
        <ele>255.37</ele>
        <time>2018-04-21T12:28:53Z</time>
      </trkpt>
      <trkpt lat="47.2235" lon="5.71791">
        <ele>254.89</ele>
        <time>2018-04-21T12:28:54Z</time>
      </trkpt>
      <trkpt lat="47.2237" lon="5.71832">
        <ele>252</ele>
        <time>2018-04-21T12:29:03Z</time>
      </trkpt>
      <trkpt lat="47.22385" lon="5.71861">
        <ele>248.64</ele>
        <time>2018-04-21T12:29:10Z</time>
      </trkpt>
      <trkpt lat="47.22387" lon="5.71866">
        <ele>248.64</ele>
        <time>2018-04-21T12:29:12Z</time>
      </trkpt>
      <trkpt lat="47.22396" lon="5.71895">
        <ele>245.27</ele>
        <time>2018-04-21T12:29:21Z</time>
      </trkpt>
      <trkpt lat="47.22403" lon="5.71907">
        <ele>244.31</ele>
        <time>2018-04-21T12:29:31Z</time>
      </trkpt>
      <trkpt lat="47.22416" lon="5.7191">
        <ele>243.35</ele>
        <time>2018-04-21T12:29:38Z</time>
      </trkpt>
      <trkpt lat="47.22441" lon="5.71909">
        <ele>242.39</ele>
        <time>2018-04-21T12:29:49Z</time>
      </trkpt>
      <trkpt lat="47.22471" lon="5.71907">
        <ele>240.95</ele>
        <time>2018-04-21T12:30:02Z</time>
      </trkpt>
      <trkpt lat="47.22499" lon="5.71907">
        <ele>240.47</ele>
        <time>2018-04-21T12:30:14Z</time>
      </trkpt>
      <trkpt lat="47.2253" lon="5.71906">
        <ele>240.47</ele>
        <time>2018-04-21T12:30:26Z</time>
      </trkpt>
      <trkpt lat="47.22554" lon="5.71878">
        <ele>240.95</ele>
        <time>2018-04-21T12:30:38Z</time>
      </trkpt>
      <trkpt lat="47.22578" lon="5.7183">
        <ele>241.43</ele>
        <time>2018-04-21T12:30:53Z</time>
      </trkpt>
      <trkpt lat="47.22595" lon="5.71787">
        <ele>241.91</ele>
        <time>2018-04-21T12:31:07Z</time>
      </trkpt>
      <trkpt lat="47.22598" lon="5.71724">
        <ele>240.95</ele>
        <time>2018-04-21T12:31:21Z</time>
      </trkpt>
      <trkpt lat="47.22599" lon="5.71653">
        <ele>242.39</ele>
        <time>2018-04-21T12:31:36Z</time>
      </trkpt>
      <trkpt lat="47.226" lon="5.71581">
        <ele>242.39</ele>
        <time>2018-04-21T12:31:50Z</time>
      </trkpt>
      <trkpt lat="47.22598" lon="5.71503">
        <ele>240.95</ele>
        <time>2018-04-21T12:32:04Z</time>
      </trkpt>
      <trkpt lat="47.22596" lon="5.71433">
        <ele>240.95</ele>
        <time>2018-04-21T12:32:18Z</time>
      </trkpt>
      <trkpt lat="47.22593" lon="5.71355">
        <ele>243.83</ele>
        <time>2018-04-21T12:32:35Z</time>
      </trkpt>
      <trkpt lat="47.22593" lon="5.71338">
        <ele>243.83</ele>
        <time>2018-04-21T12:32:39Z</time>
      </trkpt>
      <trkpt lat="47.226" lon="5.71303">
        <ele>245.27</ele>
        <time>2018-04-21T12:32:50Z</time>
      </trkpt>
      <trkpt lat="47.22598" lon="5.71246">
        <ele>246.23</ele>
        <time>2018-04-21T12:33:04Z</time>
      </trkpt>
      <trkpt lat="47.22597" lon="5.71196">
        <ele>246.72</ele>
        <time>2018-04-21T12:33:17Z</time>
      </trkpt>
      <trkpt lat="47.22596" lon="5.71188">
        <ele>247.2</ele>
        <time>2018-04-21T12:33:19Z</time>
      </trkpt>
      <trkpt lat="47.22594" lon="5.71124">
        <ele>248.16</ele>
        <time>2018-04-21T12:33:33Z</time>
      </trkpt>
      <trkpt lat="47.2259" lon="5.71052">
        <ele>249.12</ele>
        <time>2018-04-21T12:33:47Z</time>
      </trkpt>
      <trkpt lat="47.22585" lon="5.70979">
        <ele>246.23</ele>
        <time>2018-04-21T12:33:58Z</time>
      </trkpt>
      <trkpt lat="47.22576" lon="5.70842">
        <ele>243.83</ele>
        <time>2018-04-21T12:34:14Z</time>
      </trkpt>
      <trkpt lat="47.2257" lon="5.70782">
        <ele>245.27</ele>
        <time>2018-04-21T12:34:23Z</time>
      </trkpt>
      <trkpt lat="47.22565" lon="5.7072">
        <ele>246.72</ele>
        <time>2018-04-21T12:34:33Z</time>
      </trkpt>
      <trkpt lat="47.22559" lon="5.70672">
        <ele>248.16</ele>
        <time>2018-04-21T12:34:41Z</time>
      </trkpt>
      <trkpt lat="47.22552" lon="5.70583">
        <ele>249.6</ele>
        <time>2018-04-21T12:34:57Z</time>
      </trkpt>
      <trkpt lat="47.22544" lon="5.70515">
        <ele>249.6</ele>
        <time>2018-04-21T12:35:10Z</time>
      </trkpt>
      <trkpt lat="47.22529" lon="5.70396">
        <ele>246.72</ele>
        <time>2018-04-21T12:35:25Z</time>
      </trkpt>
      <trkpt lat="47.22524" lon="5.70359">
        <ele>247.2</ele>
        <time>2018-04-21T12:35:30Z</time>
      </trkpt>
      <trkpt lat="47.22533" lon="5.70339">
        <ele>246.72</ele>
        <time>2018-04-21T12:35:34Z</time>
      </trkpt>
      <trkpt lat="47.22568" lon="5.70319">
        <ele>249.6</ele>
        <time>2018-04-21T12:35:47Z</time>
      </trkpt>
      <trkpt lat="47.22601" lon="5.703">
        <ele>252</ele>
        <time>2018-04-21T12:36:02Z</time>
      </trkpt>
      <trkpt lat="47.22628" lon="5.70288">
        <ele>254.41</ele>
        <time>2018-04-21T12:36:16Z</time>
      </trkpt>
      <trkpt lat="47.22653" lon="5.70276">
        <ele>257.29</ele>
        <time>2018-04-21T12:36:29Z</time>
      </trkpt>
      <trkpt lat="47.22677" lon="5.7026">
        <ele>260.17</ele>
        <time>2018-04-21T12:36:43Z</time>
      </trkpt>
      <trkpt lat="47.2268" lon="5.70258">
        <ele>260.65</ele>
        <time>2018-04-21T12:36:45Z</time>
      </trkpt>
      <trkpt lat="47.22703" lon="5.70246">
        <ele>263.54</ele>
        <time>2018-04-21T12:36:58Z</time>
      </trkpt>
      <trkpt lat="47.22704" lon="5.70245">
        <ele>263.54</ele>
        <time>2018-04-21T12:36:59Z</time>
      </trkpt>
      <trkpt lat="47.22707" lon="5.70234">
        <ele>264.98</ele>
        <time>2018-04-21T12:37:04Z</time>
      </trkpt>
      <trkpt lat="47.22699" lon="5.70194">
        <ele>266.42</ele>
        <time>2018-04-21T12:37:18Z</time>
      </trkpt>
      <trkpt lat="47.2269" lon="5.70146">
        <ele>268.35</ele>
        <time>2018-04-21T12:37:34Z</time>
      </trkpt>
      <trkpt lat="47.22688" lon="5.70132">
        <ele>269.31</ele>
        <time>2018-04-21T12:37:39Z</time>
      </trkpt>
      <trkpt lat="47.22693" lon="5.70096">
        <ele>272.19</ele>
        <time>2018-04-21T12:37:56Z</time>
      </trkpt>
      <trkpt lat="47.22698" lon="5.70074">
        <ele>275.07</ele>
        <time>2018-04-21T12:38:08Z</time>
      </trkpt>
      <trkpt lat="47.22699" lon="5.70068">
        <ele>275.56</ele>
        <time>2018-04-21T12:38:11Z</time>
      </trkpt>
      <trkpt lat="47.22702" lon="5.7006">
        <ele>276.04</ele>
        <time>2018-04-21T12:38:15Z</time>
      </trkpt>
      <trkpt lat="47.22708" lon="5.70044">
        <ele>277.96</ele>
        <time>2018-04-21T12:38:23Z</time>
      </trkpt>
      <trkpt lat="47.2271" lon="5.70038">
        <ele>278.44</ele>
        <time>2018-04-21T12:38:26Z</time>
      </trkpt>
      <trkpt lat="47.22711" lon="5.70033">
        <ele>279.4</ele>
        <time>2018-04-21T12:38:29Z</time>
      </trkpt>
      <trkpt lat="47.22716" lon="5.70018">
        <ele>280.36</ele>
        <time>2018-04-21T12:38:38Z</time>
      </trkpt>
      <trkpt lat="47.22718" lon="5.70009">
        <ele>280.84</ele>
        <time>2018-04-21T12:38:43Z</time>
      </trkpt>
      <trkpt lat="47.22722" lon="5.69992">
        <ele>282.28</ele>
        <time>2018-04-21T12:38:51Z</time>
      </trkpt>
      <trkpt lat="47.22734" lon="5.69961">
        <ele>284.69</ele>
        <time>2018-04-21T12:39:07Z</time>
      </trkpt>
      <trkpt lat="47.22751" lon="5.69945">
        <ele>288.05</ele>
        <time>2018-04-21T12:39:20Z</time>
      </trkpt>
      <trkpt lat="47.22756" lon="5.69943">
        <ele>288.53</ele>
        <time>2018-04-21T12:39:23Z</time>
      </trkpt>
      <trkpt lat="47.22763" lon="5.69941">
        <ele>289.49</ele>
        <time>2018-04-21T12:39:28Z</time>
      </trkpt>
      <trkpt lat="47.2278" lon="5.69935">
        <ele>292.38</ele>
        <time>2018-04-21T12:39:41Z</time>
      </trkpt>
      <trkpt lat="47.22782" lon="5.69933">
        <ele>292.86</ele>
        <time>2018-04-21T12:39:43Z</time>
      </trkpt>
      <trkpt lat="47.22796" lon="5.69932">
        <ele>295.26</ele>
        <time>2018-04-21T12:39:52Z</time>
      </trkpt>
      <trkpt lat="47.22803" lon="5.69928">
        <ele>296.22</ele>
        <time>2018-04-21T12:39:57Z</time>
      </trkpt>
      <trkpt lat="47.2282" lon="5.69918">
        <ele>299.11</ele>
        <time>2018-04-21T12:40:09Z</time>
      </trkpt>
      <trkpt lat="47.22834" lon="5.69911">
        <ele>301.99</ele>
        <time>2018-04-21T12:40:19Z</time>
      </trkpt>
      <trkpt lat="47.22839" lon="5.69908">
        <ele>302.95</ele>
        <time>2018-04-21T12:40:24Z</time>
      </trkpt>
      <trkpt lat="47.22851" lon="5.69903">
        <ele>305.84</ele>
        <time>2018-04-21T12:40:33Z</time>
      </trkpt>
      <trkpt lat="47.22854" lon="5.69903">
        <ele>305.84</ele>
        <time>2018-04-21T12:40:35Z</time>
      </trkpt>
      <trkpt lat="47.22869" lon="5.69897">
        <ele>308.72</ele>
        <time>2018-04-21T12:40:48Z</time>
      </trkpt>
      <trkpt lat="47.22874" lon="5.69895">
        <ele>309.68</ele>
        <time>2018-04-21T12:40:52Z</time>
      </trkpt>
      <trkpt lat="47.22885" lon="5.6989">
        <ele>311.6</ele>
        <time>2018-04-21T12:41:01Z</time>
      </trkpt>
      <trkpt lat="47.22905" lon="5.69884">
        <ele>314.97</ele>
        <time>2018-04-21T12:41:16Z</time>
      </trkpt>
      <trkpt lat="47.22921" lon="5.69877">
        <ele>317.85</ele>
        <time>2018-04-21T12:41:29Z</time>
      </trkpt>
      <trkpt lat="47.22938" lon="5.69868">
        <ele>321.22</ele>
        <time>2018-04-21T12:41:43Z</time>
      </trkpt>
      <trkpt lat="47.22947" lon="5.69862">
        <ele>322.66</ele>
        <time>2018-04-21T12:41:51Z</time>
      </trkpt>
      <trkpt lat="47.22956" lon="5.69854">
        <ele>324.58</ele>
        <time>2018-04-21T12:41:59Z</time>
      </trkpt>
      <trkpt lat="47.22965" lon="5.69836">
        <ele>326.5</ele>
        <time>2018-04-21T12:42:11Z</time>
      </trkpt>
      <trkpt lat="47.22969" lon="5.69826">
        <ele>327.47</ele>
        <time>2018-04-21T12:42:17Z</time>
      </trkpt>
      <trkpt lat="47.22971" lon="5.69822">
        <ele>327.95</ele>
        <time>2018-04-21T12:42:20Z</time>
      </trkpt>
      <trkpt lat="47.22973" lon="5.69814">
        <ele>328.91</ele>
        <time>2018-04-21T12:42:25Z</time>
      </trkpt>
      <trkpt lat="47.22981" lon="5.69802">
        <ele>329.87</ele>
        <time>2018-04-21T12:42:35Z</time>
      </trkpt>
      <trkpt lat="47.22982" lon="5.69799">
        <ele>330.83</ele>
        <time>2018-04-21T12:42:45Z</time>
      </trkpt>
      <trkpt lat="47.22983" lon="5.698">
        <ele>331.31</ele>
        <time>2018-04-21T12:43:10Z</time>
      </trkpt>
      <trkpt lat="47.22986" lon="5.69802">
        <ele>330.83</ele>
        <time>2018-04-21T12:43:40Z</time>
      </trkpt>
      <trkpt lat="47.22986" lon="5.69802">
        <ele>330.83</ele>
        <time>2018-04-21T12:43:45Z</time>
      </trkpt>
      <trkpt lat="47.22986" lon="5.698">
        <ele>331.31</ele>
        <time>2018-04-21T12:43:47Z</time>
      </trkpt>
      <trkpt lat="47.22985" lon="5.69778">
        <ele>331.79</ele>
        <time>2018-04-21T12:43:55Z</time>
      </trkpt>
      <trkpt lat="47.22983" lon="5.69761">
        <ele>331.31</ele>
        <time>2018-04-21T12:44:00Z</time>
      </trkpt>
      <trkpt lat="47.22981" lon="5.69727">
        <ele>332.27</ele>
        <time>2018-04-21T12:44:11Z</time>
      </trkpt>
      <trkpt lat="47.22973" lon="5.69704">
        <ele>331.79</ele>
        <time>2018-04-21T12:44:20Z</time>
      </trkpt>
      <trkpt lat="47.22971" lon="5.69696">
        <ele>331.79</ele>
        <time>2018-04-21T12:44:23Z</time>
      </trkpt>
      <trkpt lat="47.22969" lon="5.6968">
        <ele>332.27</ele>
        <time>2018-04-21T12:44:28Z</time>
      </trkpt>
      <trkpt lat="47.22965" lon="5.69656">
        <ele>332.75</ele>
        <time>2018-04-21T12:44:36Z</time>
      </trkpt>
      <trkpt lat="47.22965" lon="5.69618">
        <ele>334.2</ele>
        <time>2018-04-21T12:44:50Z</time>
      </trkpt>
      <trkpt lat="47.22965" lon="5.69616">
        <ele>334.68</ele>
        <time>2018-04-21T12:44:51Z</time>
      </trkpt>
      <trkpt lat="47.22966" lon="5.69599">
        <ele>335.16</ele>
        <time>2018-04-21T12:44:57Z</time>
      </trkpt>
      <trkpt lat="47.22966" lon="5.6959">
        <ele>335.16</ele>
        <time>2018-04-21T12:45:00Z</time>
      </trkpt>
      <trkpt lat="47.22945" lon="5.69577">
        <ele>332.75</ele>
        <time>2018-04-21T12:45:09Z</time>
      </trkpt>
      <trkpt lat="47.22931" lon="5.69563">
        <ele>331.31</ele>
        <time>2018-04-21T12:45:13Z</time>
      </trkpt>
      <trkpt lat="47.22909" lon="5.6954">
        <ele>328.91</ele>
        <time>2018-04-21T12:45:21Z</time>
      </trkpt>
      <trkpt lat="47.22884" lon="5.69522">
        <ele>325.54</ele>
        <time>2018-04-21T12:45:29Z</time>
      </trkpt>
      <trkpt lat="47.22854" lon="5.69527">
        <ele>321.22</ele>
        <time>2018-04-21T12:45:34Z</time>
      </trkpt>
      <trkpt lat="47.22842" lon="5.69528">
        <ele>318.33</ele>
        <time>2018-04-21T12:45:37Z</time>
      </trkpt>
      <trkpt lat="47.22831" lon="5.6953">
        <ele>316.41</ele>
        <time>2018-04-21T12:45:40Z</time>
      </trkpt>
      <trkpt lat="47.22819" lon="5.69526">
        <ele>314.49</ele>
        <time>2018-04-21T12:45:44Z</time>
      </trkpt>
      <trkpt lat="47.22815" lon="5.69522">
        <ele>314.01</ele>
        <time>2018-04-21T12:45:45Z</time>
      </trkpt>
      <trkpt lat="47.22802" lon="5.69502">
        <ele>312.09</ele>
        <time>2018-04-21T12:45:49Z</time>
      </trkpt>
      <trkpt lat="47.22786" lon="5.69472">
        <ele>310.16</ele>
        <time>2018-04-21T12:45:54Z</time>
      </trkpt>
      <trkpt lat="47.22778" lon="5.6945">
        <ele>309.68</ele>
        <time>2018-04-21T12:45:57Z</time>
      </trkpt>
      <trkpt lat="47.2276" lon="5.69417">
        <ele>307.76</ele>
        <time>2018-04-21T12:46:03Z</time>
      </trkpt>
      <trkpt lat="47.22746" lon="5.69372">
        <ele>307.28</ele>
        <time>2018-04-21T12:46:11Z</time>
      </trkpt>
      <trkpt lat="47.22736" lon="5.69349">
        <ele>305.36</ele>
        <time>2018-04-21T12:46:17Z</time>
      </trkpt>
      <trkpt lat="47.22712" lon="5.69307">
        <ele>301.51</ele>
        <time>2018-04-21T12:46:24Z</time>
      </trkpt>
      <trkpt lat="47.22704" lon="5.69294">
        <ele>301.03</ele>
        <time>2018-04-21T12:46:26Z</time>
      </trkpt>
      <trkpt lat="47.22692" lon="5.69274">
        <ele>299.11</ele>
        <time>2018-04-21T12:46:29Z</time>
      </trkpt>
      <trkpt lat="47.2267" lon="5.69235">
        <ele>296.7</ele>
        <time>2018-04-21T12:46:34Z</time>
      </trkpt>
      <trkpt lat="47.22658" lon="5.69204">
        <ele>294.78</ele>
        <time>2018-04-21T12:46:38Z</time>
      </trkpt>
      <trkpt lat="47.22644" lon="5.69182">
        <ele>293.34</ele>
        <time>2018-04-21T12:46:42Z</time>
      </trkpt>
      <trkpt lat="47.22631" lon="5.69164">
        <ele>291.42</ele>
        <time>2018-04-21T12:46:46Z</time>
      </trkpt>
      <trkpt lat="47.22624" lon="5.69154">
        <ele>290.94</ele>
        <time>2018-04-21T12:46:48Z</time>
      </trkpt>
      <trkpt lat="47.22621" lon="5.6915">
        <ele>290.46</ele>
        <time>2018-04-21T12:46:49Z</time>
      </trkpt>
      <trkpt lat="47.22614" lon="5.69134">
        <ele>289.01</ele>
        <time>2018-04-21T12:46:52Z</time>
      </trkpt>
      <trkpt lat="47.2261" lon="5.69115">
        <ele>288.53</ele>
        <time>2018-04-21T12:46:55Z</time>
      </trkpt>
      <trkpt lat="47.22594" lon="5.6907">
        <ele>289.97</ele>
        <time>2018-04-21T12:47:06Z</time>
      </trkpt>
      <trkpt lat="47.22585" lon="5.6904">
        <ele>287.57</ele>
        <time>2018-04-21T12:47:12Z</time>
      </trkpt>
      <trkpt lat="47.22574" lon="5.69012">
        <ele>283.73</ele>
        <time>2018-04-21T12:47:16Z</time>
      </trkpt>
      <trkpt lat="47.22562" lon="5.6897">
        <ele>281.32</ele>
        <time>2018-04-21T12:47:20Z</time>
      </trkpt>
      <trkpt lat="47.22523" lon="5.68854">
        <ele>277.48</ele>
        <time>2018-04-21T12:47:32Z</time>
      </trkpt>
      <trkpt lat="47.22519" lon="5.68846">
        <ele>277.48</ele>
        <time>2018-04-21T12:47:33Z</time>
      </trkpt>
      <trkpt lat="47.2251" lon="5.68824">
        <ele>276.04</ele>
        <time>2018-04-21T12:47:36Z</time>
      </trkpt>
      <trkpt lat="47.22492" lon="5.68763">
        <ele>272.67</ele>
        <time>2018-04-21T12:47:44Z</time>
      </trkpt>
      <trkpt lat="47.22485" lon="5.68736">
        <ele>271.23</ele>
        <time>2018-04-21T12:47:49Z</time>
      </trkpt>
      <trkpt lat="47.22495" lon="5.6873">
        <ele>272.19</ele>
        <time>2018-04-21T12:47:57Z</time>
      </trkpt>
      <trkpt lat="47.2251" lon="5.68734">
        <ele>275.07</ele>
        <time>2018-04-21T12:48:10Z</time>
      </trkpt>
      <trkpt lat="47.22523" lon="5.68733">
        <ele>277</ele>
        <time>2018-04-21T12:48:20Z</time>
      </trkpt>
      <trkpt lat="47.22535" lon="5.68731">
        <ele>278.92</ele>
        <time>2018-04-21T12:48:30Z</time>
      </trkpt>
      <trkpt lat="47.2255" lon="5.68713">
        <ele>281.8</ele>
        <time>2018-04-21T12:48:44Z</time>
      </trkpt>
      <trkpt lat="47.22555" lon="5.68703">
        <ele>282.28</ele>
        <time>2018-04-21T12:48:50Z</time>
      </trkpt>
      <trkpt lat="47.22564" lon="5.6869">
        <ele>283.73</ele>
        <time>2018-04-21T12:48:59Z</time>
      </trkpt>
      <trkpt lat="47.22574" lon="5.68682">
        <ele>285.65</ele>
        <time>2018-04-21T12:49:08Z</time>
      </trkpt>
      <trkpt lat="47.22584" lon="5.6868">
        <ele>287.09</ele>
        <time>2018-04-21T12:49:14Z</time>
      </trkpt>
      <trkpt lat="47.22597" lon="5.68693">
        <ele>289.49</ele>
        <time>2018-04-21T12:49:26Z</time>
      </trkpt>
      <trkpt lat="47.22598" lon="5.68697">
        <ele>289.97</ele>
        <time>2018-04-21T12:49:28Z</time>
      </trkpt>
      <trkpt lat="47.22602" lon="5.68709">
        <ele>291.42</ele>
        <time>2018-04-21T12:49:36Z</time>
      </trkpt>
      <trkpt lat="47.2261" lon="5.68716">
        <ele>293.34</ele>
        <time>2018-04-21T12:49:44Z</time>
      </trkpt>
      <trkpt lat="47.22612" lon="5.6872">
        <ele>293.34</ele>
        <time>2018-04-21T12:49:47Z</time>
      </trkpt>
      <trkpt lat="47.2262" lon="5.68728">
        <ele>294.78</ele>
        <time>2018-04-21T12:49:54Z</time>
      </trkpt>
      <trkpt lat="47.22631" lon="5.68736">
        <ele>296.7</ele>
        <time>2018-04-21T12:50:05Z</time>
      </trkpt>
      <trkpt lat="47.22645" lon="5.68741">
        <ele>299.11</ele>
        <time>2018-04-21T12:50:17Z</time>
      </trkpt>
      <trkpt lat="47.22649" lon="5.6874">
        <ele>300.07</ele>
        <time>2018-04-21T12:50:20Z</time>
      </trkpt>
      <trkpt lat="47.22664" lon="5.6874">
        <ele>302.47</ele>
        <time>2018-04-21T12:50:32Z</time>
      </trkpt>
      <trkpt lat="47.22666" lon="5.6874">
        <ele>302.47</ele>
        <time>2018-04-21T12:50:34Z</time>
      </trkpt>
      <trkpt lat="47.2268" lon="5.68742">
        <ele>304.88</ele>
        <time>2018-04-21T12:50:47Z</time>
      </trkpt>
      <trkpt lat="47.22681" lon="5.68743">
        <ele>305.36</ele>
        <time>2018-04-21T12:50:48Z</time>
      </trkpt>
      <trkpt lat="47.22686" lon="5.68746">
        <ele>306.32</ele>
        <time>2018-04-21T12:50:52Z</time>
      </trkpt>
      <trkpt lat="47.2269" lon="5.68747">
        <ele>307.28</ele>
        <time>2018-04-21T12:50:57Z</time>
      </trkpt>
      <trkpt lat="47.22698" lon="5.68751">
        <ele>308.72</ele>
        <time>2018-04-21T12:51:05Z</time>
      </trkpt>
      <trkpt lat="47.22714" lon="5.68756">
        <ele>312.09</ele>
        <time>2018-04-21T12:51:16Z</time>
      </trkpt>
      <trkpt lat="47.22725" lon="5.68757">
        <ele>313.53</ele>
        <time>2018-04-21T12:51:26Z</time>
      </trkpt>
      <trkpt lat="47.22733" lon="5.68758">
        <ele>314.97</ele>
        <time>2018-04-21T12:51:34Z</time>
      </trkpt>
      <trkpt lat="47.22736" lon="5.68756">
        <ele>314.97</ele>
        <time>2018-04-21T12:51:36Z</time>
      </trkpt>
      <trkpt lat="47.22745" lon="5.68758">
        <ele>316.41</ele>
        <time>2018-04-21T12:51:43Z</time>
      </trkpt>
      <trkpt lat="47.22761" lon="5.68756">
        <ele>318.81</ele>
        <time>2018-04-21T12:51:56Z</time>
      </trkpt>
      <trkpt lat="47.22771" lon="5.68761">
        <ele>320.74</ele>
        <time>2018-04-21T12:52:06Z</time>
      </trkpt>
      <trkpt lat="47.22777" lon="5.68765">
        <ele>322.18</ele>
        <time>2018-04-21T12:52:16Z</time>
      </trkpt>
      <trkpt lat="47.22787" lon="5.68767">
        <ele>324.1</ele>
        <time>2018-04-21T12:52:28Z</time>
      </trkpt>
      <trkpt lat="47.22788" lon="5.68766">
        <ele>324.58</ele>
        <time>2018-04-21T12:52:29Z</time>
      </trkpt>
      <trkpt lat="47.22792" lon="5.68766">
        <ele>325.06</ele>
        <time>2018-04-21T12:52:34Z</time>
      </trkpt>
      <trkpt lat="47.22803" lon="5.68767">
        <ele>327.47</ele>
        <time>2018-04-21T12:52:43Z</time>
      </trkpt>
      <trkpt lat="47.22819" lon="5.68767">
        <ele>328.91</ele>
        <time>2018-04-21T12:52:53Z</time>
      </trkpt>
      <trkpt lat="47.22837" lon="5.6877">
        <ele>330.83</ele>
        <time>2018-04-21T12:53:05Z</time>
      </trkpt>
      <trkpt lat="47.22852" lon="5.68773">
        <ele>331.79</ele>
        <time>2018-04-21T12:53:13Z</time>
      </trkpt>
      <trkpt lat="47.22874" lon="5.68776">
        <ele>333.71</ele>
        <time>2018-04-21T12:53:25Z</time>
      </trkpt>
      <trkpt lat="47.22894" lon="5.68781">
        <ele>336.6</ele>
        <time>2018-04-21T12:53:37Z</time>
      </trkpt>
      <trkpt lat="47.22911" lon="5.68782">
        <ele>338.52</ele>
        <time>2018-04-21T12:53:49Z</time>
      </trkpt>
      <trkpt lat="47.2292" lon="5.68783">
        <ele>339</ele>
        <time>2018-04-21T12:53:53Z</time>
      </trkpt>
      <trkpt lat="47.22923" lon="5.68784">
        <ele>339</ele>
        <time>2018-04-21T12:53:55Z</time>
      </trkpt>
      <trkpt lat="47.22932" lon="5.68786">
        <ele>340.44</ele>
        <time>2018-04-21T12:54:02Z</time>
      </trkpt>
      <trkpt lat="47.22955" lon="5.6879">
        <ele>343.33</ele>
        <time>2018-04-21T12:54:17Z</time>
      </trkpt>
      <trkpt lat="47.22965" lon="5.68792">
        <ele>344.29</ele>
        <time>2018-04-21T12:54:23Z</time>
      </trkpt>
      <trkpt lat="47.22967" lon="5.68789">
        <ele>344.29</ele>
        <time>2018-04-21T12:54:25Z</time>
      </trkpt>
      <trkpt lat="47.22982" lon="5.68792">
        <ele>346.21</ele>
        <time>2018-04-21T12:54:36Z</time>
      </trkpt>
      <trkpt lat="47.2299" lon="5.68805">
        <ele>348.13</ele>
        <time>2018-04-21T12:54:44Z</time>
      </trkpt>
      <trkpt lat="47.2299" lon="5.68809">
        <ele>348.62</ele>
        <time>2018-04-21T12:54:46Z</time>
      </trkpt>
      <trkpt lat="47.22991" lon="5.68817">
        <ele>348.62</ele>
        <time>2018-04-21T12:54:59Z</time>
      </trkpt>
      <trkpt lat="47.22991" lon="5.68824">
        <ele>349.1</ele>
        <time>2018-04-21T12:55:11Z</time>
      </trkpt>
      <trkpt lat="47.22991" lon="5.68826">
        <ele>349.1</ele>
        <time>2018-04-21T12:55:12Z</time>
      </trkpt>
      <trkpt lat="47.22994" lon="5.68858">
        <ele>351.02</ele>
        <time>2018-04-21T12:55:26Z</time>
      </trkpt>
      <trkpt lat="47.22996" lon="5.68873">
        <ele>351.5</ele>
        <time>2018-04-21T12:55:32Z</time>
      </trkpt>
      <trkpt lat="47.22999" lon="5.68891">
        <ele>352.46</ele>
        <time>2018-04-21T12:55:40Z</time>
      </trkpt>
      <trkpt lat="47.23" lon="5.68904">
        <ele>352.94</ele>
        <time>2018-04-21T12:55:45Z</time>
      </trkpt>
      <trkpt lat="47.22998" lon="5.68934">
        <ele>354.38</ele>
        <time>2018-04-21T12:55:59Z</time>
      </trkpt>
      <trkpt lat="47.23" lon="5.68962">
        <ele>355.34</ele>
        <time>2018-04-21T12:56:10Z</time>
      </trkpt>
      <trkpt lat="47.23" lon="5.68967">
        <ele>355.34</ele>
        <time>2018-04-21T12:56:12Z</time>
      </trkpt>
      <trkpt lat="47.23" lon="5.68986">
        <ele>355.34</ele>
        <time>2018-04-21T12:56:19Z</time>
      </trkpt>
      <trkpt lat="47.23002" lon="5.69026">
        <ele>356.31</ele>
        <time>2018-04-21T12:56:32Z</time>
      </trkpt>
      <trkpt lat="47.23004" lon="5.69046">
        <ele>356.31</ele>
        <time>2018-04-21T12:56:39Z</time>
      </trkpt>
      <trkpt lat="47.23011" lon="5.69061">
        <ele>356.31</ele>
        <time>2018-04-21T12:56:45Z</time>
      </trkpt>
      <trkpt lat="47.23018" lon="5.69063">
        <ele>357.27</ele>
        <time>2018-04-21T12:56:49Z</time>
      </trkpt>
      <trkpt lat="47.23043" lon="5.69061">
        <ele>359.19</ele>
        <time>2018-04-21T12:57:03Z</time>
      </trkpt>
      <trkpt lat="47.23066" lon="5.69056">
        <ele>360.15</ele>
        <time>2018-04-21T12:57:16Z</time>
      </trkpt>
      <trkpt lat="47.23101" lon="5.69056">
        <ele>361.11</ele>
        <time>2018-04-21T12:57:31Z</time>
      </trkpt>
      <trkpt lat="47.23135" lon="5.69054">
        <ele>361.11</ele>
        <time>2018-04-21T12:57:45Z</time>
      </trkpt>
      <trkpt lat="47.23162" lon="5.69051">
        <ele>361.11</ele>
        <time>2018-04-21T12:57:57Z</time>
      </trkpt>
      <trkpt lat="47.23189" lon="5.6905">
        <ele>360.63</ele>
        <time>2018-04-21T12:58:09Z</time>
      </trkpt>
      <trkpt lat="47.23193" lon="5.69049">
        <ele>360.63</ele>
        <time>2018-04-21T12:58:11Z</time>
      </trkpt>
      <trkpt lat="47.232" lon="5.69049">
        <ele>360.63</ele>
        <time>2018-04-21T12:58:14Z</time>
      </trkpt>
      <trkpt lat="47.23216" lon="5.69047">
        <ele>360.15</ele>
        <time>2018-04-21T12:58:25Z</time>
      </trkpt>
      <trkpt lat="47.23222" lon="5.69047">
        <ele>358.71</ele>
        <time>2018-04-21T12:58:37Z</time>
      </trkpt>
      <trkpt lat="47.23249" lon="5.69045">
        <ele>355.83</ele>
        <time>2018-04-21T12:58:47Z</time>
      </trkpt>
      <trkpt lat="47.2327" lon="5.69042">
        <ele>353.42</ele>
        <time>2018-04-21T12:58:53Z</time>
      </trkpt>
      <trkpt lat="47.23297" lon="5.69044">
        <ele>349.1</ele>
        <time>2018-04-21T12:59:00Z</time>
      </trkpt>
      <trkpt lat="47.23309" lon="5.69042">
        <ele>346.69</ele>
        <time>2018-04-21T12:59:03Z</time>
      </trkpt>
      <trkpt lat="47.2333" lon="5.6904">
        <ele>343.33</ele>
        <time>2018-04-21T12:59:07Z</time>
      </trkpt>
      <trkpt lat="47.23362" lon="5.69034">
        <ele>339</ele>
        <time>2018-04-21T12:59:13Z</time>
      </trkpt>
      <trkpt lat="47.23367" lon="5.69033">
        <ele>339</ele>
        <time>2018-04-21T12:59:14Z</time>
      </trkpt>
      <trkpt lat="47.23387" lon="5.69031">
        <ele>338.04</ele>
        <time>2018-04-21T12:59:18Z</time>
      </trkpt>
      <trkpt lat="47.23427" lon="5.69033">
        <ele>335.64</ele>
        <time>2018-04-21T12:59:29Z</time>
      </trkpt>
      <trkpt lat="47.23436" lon="5.69031">
        <ele>335.64</ele>
        <time>2018-04-21T12:59:35Z</time>
      </trkpt>
      <trkpt lat="47.23444" lon="5.69007">
        <ele>336.12</ele>
        <time>2018-04-21T12:59:48Z</time>
      </trkpt>
      <trkpt lat="47.23446" lon="5.68995">
        <ele>336.12</ele>
        <time>2018-04-21T12:59:53Z</time>
      </trkpt>
      <trkpt lat="47.23448" lon="5.68978">
        <ele>337.56</ele>
        <time>2018-04-21T13:00:01Z</time>
      </trkpt>
      <trkpt lat="47.23448" lon="5.68973">
        <ele>337.56</ele>
        <time>2018-04-21T13:00:03Z</time>
      </trkpt>
      <trkpt lat="47.23448" lon="5.6896">
        <ele>338.04</ele>
        <time>2018-04-21T13:00:10Z</time>
      </trkpt>
      <trkpt lat="47.23451" lon="5.68951">
        <ele>338.52</ele>
        <time>2018-04-21T13:00:14Z</time>
      </trkpt>
      <trkpt lat="47.23457" lon="5.68936">
        <ele>339</ele>
        <time>2018-04-21T13:00:20Z</time>
      </trkpt>
      <trkpt lat="47.2346" lon="5.68927">
        <ele>339</ele>
        <time>2018-04-21T13:00:24Z</time>
      </trkpt>
      <trkpt lat="47.23466" lon="5.68908">
        <ele>339</ele>
        <time>2018-04-21T13:00:32Z</time>
      </trkpt>
      <trkpt lat="47.23473" lon="5.68875">
        <ele>339.48</ele>
        <time>2018-04-21T13:00:44Z</time>
      </trkpt>
      <trkpt lat="47.23477" lon="5.68854">
        <ele>340.44</ele>
        <time>2018-04-21T13:00:51Z</time>
      </trkpt>
      <trkpt lat="47.23481" lon="5.68834">
        <ele>341.41</ele>
        <time>2018-04-21T13:00:58Z</time>
      </trkpt>
      <trkpt lat="47.23482" lon="5.68822">
        <ele>341.89</ele>
        <time>2018-04-21T13:01:02Z</time>
      </trkpt>
      <trkpt lat="47.23488" lon="5.68793">
        <ele>342.37</ele>
        <time>2018-04-21T13:01:14Z</time>
      </trkpt>
      <trkpt lat="47.2349" lon="5.68788">
        <ele>342.37</ele>
        <time>2018-04-21T13:01:16Z</time>
      </trkpt>
      <trkpt lat="47.23491" lon="5.68778">
        <ele>342.37</ele>
        <time>2018-04-21T13:01:20Z</time>
      </trkpt>
      <trkpt lat="47.23496" lon="5.6876">
        <ele>341.89</ele>
        <time>2018-04-21T13:01:27Z</time>
      </trkpt>
      <trkpt lat="47.23496" lon="5.6874">
        <ele>341.89</ele>
        <time>2018-04-21T13:01:34Z</time>
      </trkpt>
      <trkpt lat="47.23499" lon="5.6873">
        <ele>341.89</ele>
        <time>2018-04-21T13:01:38Z</time>
      </trkpt>
      <trkpt lat="47.23503" lon="5.68721">
        <ele>341.41</ele>
        <time>2018-04-21T13:01:41Z</time>
      </trkpt>
      <trkpt lat="47.23508" lon="5.68701">
        <ele>341.89</ele>
        <time>2018-04-21T13:01:47Z</time>
      </trkpt>
      <trkpt lat="47.23511" lon="5.68684">
        <ele>341.41</ele>
        <time>2018-04-21T13:01:53Z</time>
      </trkpt>
      <trkpt lat="47.23515" lon="5.68672">
        <ele>341.41</ele>
        <time>2018-04-21T13:01:57Z</time>
      </trkpt>
      <trkpt lat="47.23521" lon="5.68639">
        <ele>340.92</ele>
        <time>2018-04-21T13:02:07Z</time>
      </trkpt>
      <trkpt lat="47.23527" lon="5.68619">
        <ele>340.92</ele>
        <time>2018-04-21T13:02:12Z</time>
      </trkpt>
      <trkpt lat="47.23529" lon="5.68603">
        <ele>340.44</ele>
        <time>2018-04-21T13:02:25Z</time>
      </trkpt>
      <trkpt lat="47.23529" lon="5.68601">
        <ele>340.44</ele>
        <time>2018-04-21T13:02:47Z</time>
      </trkpt>
      <trkpt lat="47.2353" lon="5.68589">
        <ele>340.44</ele>
        <time>2018-04-21T13:02:51Z</time>
      </trkpt>
      <trkpt lat="47.23533" lon="5.6858">
        <ele>339.96</ele>
        <time>2018-04-21T13:02:54Z</time>
      </trkpt>
      <trkpt lat="47.23537" lon="5.68564">
        <ele>339.48</ele>
        <time>2018-04-21T13:02:58Z</time>
      </trkpt>
      <trkpt lat="47.23544" lon="5.68527">
        <ele>339</ele>
        <time>2018-04-21T13:03:08Z</time>
      </trkpt>
      <trkpt lat="47.23551" lon="5.68522">
        <ele>338.04</ele>
        <time>2018-04-21T13:03:15Z</time>
      </trkpt>
      <trkpt lat="47.23578" lon="5.68534">
        <ele>335.16</ele>
        <time>2018-04-21T13:03:27Z</time>
      </trkpt>
      <trkpt lat="47.23615" lon="5.68552">
        <ele>332.27</ele>
        <time>2018-04-21T13:03:37Z</time>
      </trkpt>
      <trkpt lat="47.23643" lon="5.68564">
        <ele>328.91</ele>
        <time>2018-04-21T13:03:44Z</time>
      </trkpt>
      <trkpt lat="47.23647" lon="5.68566">
        <ele>328.43</ele>
        <time>2018-04-21T13:03:45Z</time>
      </trkpt>
      <trkpt lat="47.23666" lon="5.68573">
        <ele>326.02</ele>
        <time>2018-04-21T13:03:49Z</time>
      </trkpt>
      <trkpt lat="47.2369" lon="5.68583">
        <ele>322.18</ele>
        <time>2018-04-21T13:03:55Z</time>
      </trkpt>
      <trkpt lat="47.23707" lon="5.68591">
        <ele>318.81</ele>
        <time>2018-04-21T13:04:02Z</time>
      </trkpt>
      <trkpt lat="47.2371" lon="5.68593">
        <ele>318.33</ele>
        <time>2018-04-21T13:04:03Z</time>
      </trkpt>
      <trkpt lat="47.23723" lon="5.68596">
        <ele>315.45</ele>
        <time>2018-04-21T13:04:07Z</time>
      </trkpt>
      <trkpt lat="47.23739" lon="5.68604">
        <ele>312.09</ele>
        <time>2018-04-21T13:04:11Z</time>
      </trkpt>
      <trkpt lat="47.23757" lon="5.68611">
        <ele>308.72</ele>
        <time>2018-04-21T13:04:16Z</time>
      </trkpt>
      <trkpt lat="47.23771" lon="5.68616">
        <ele>305.36</ele>
        <time>2018-04-21T13:04:22Z</time>
      </trkpt>
      <trkpt lat="47.23778" lon="5.68617">
        <ele>304.39</ele>
        <time>2018-04-21T13:04:36Z</time>
      </trkpt>
      <trkpt lat="47.23778" lon="5.68617">
        <ele>303.91</ele>
        <time>2018-04-21T13:04:42Z</time>
      </trkpt>
      <trkpt lat="47.23783" lon="5.68616">
        <ele>301.51</ele>
        <time>2018-04-21T13:04:46Z</time>
      </trkpt>
      <trkpt lat="47.23787" lon="5.68613">
        <ele>299.59</ele>
        <time>2018-04-21T13:04:50Z</time>
      </trkpt>
      <trkpt lat="47.23783" lon="5.68605">
        <ele>298.15</ele>
        <time>2018-04-21T13:04:54Z</time>
      </trkpt>
      <trkpt lat="47.23789" lon="5.68581">
        <ele>296.7</ele>
        <time>2018-04-21T13:05:00Z</time>
      </trkpt>
      <trkpt lat="47.23811" lon="5.68554">
        <ele>295.74</ele>
        <time>2018-04-21T13:05:05Z</time>
      </trkpt>
      <trkpt lat="47.23816" lon="5.68543">
        <ele>295.26</ele>
        <time>2018-04-21T13:05:07Z</time>
      </trkpt>
      <trkpt lat="47.23825" lon="5.6852">
        <ele>293.82</ele>
        <time>2018-04-21T13:05:11Z</time>
      </trkpt>
      <trkpt lat="47.23842" lon="5.68468">
        <ele>291.42</ele>
        <time>2018-04-21T13:05:20Z</time>
      </trkpt>
      <trkpt lat="47.23854" lon="5.68423">
        <ele>288.05</ele>
        <time>2018-04-21T13:05:28Z</time>
      </trkpt>
      <trkpt lat="47.23868" lon="5.68383">
        <ele>285.17</ele>
        <time>2018-04-21T13:05:37Z</time>
      </trkpt>
      <trkpt lat="47.23881" lon="5.6835">
        <ele>281.32</ele>
        <time>2018-04-21T13:05:44Z</time>
      </trkpt>
      <trkpt lat="47.2389" lon="5.68312">
        <ele>277.96</ele>
        <time>2018-04-21T13:05:52Z</time>
      </trkpt>
      <trkpt lat="47.23899" lon="5.68271">
        <ele>275.56</ele>
        <time>2018-04-21T13:06:00Z</time>
      </trkpt>
      <trkpt lat="47.23904" lon="5.68233">
        <ele>275.07</ele>
        <time>2018-04-21T13:06:06Z</time>
      </trkpt>
      <trkpt lat="47.23914" lon="5.68199">
        <ele>272.19</ele>
        <time>2018-04-21T13:06:12Z</time>
      </trkpt>
      <trkpt lat="47.23918" lon="5.68191">
        <ele>271.23</ele>
        <time>2018-04-21T13:06:14Z</time>
      </trkpt>
      <trkpt lat="47.23927" lon="5.68167">
        <ele>268.35</ele>
        <time>2018-04-21T13:06:20Z</time>
      </trkpt>
      <trkpt lat="47.23933" lon="5.68145">
        <ele>266.9</ele>
        <time>2018-04-21T13:06:30Z</time>
      </trkpt>
      <trkpt lat="47.23934" lon="5.68142">
        <ele>266.9</ele>
        <time>2018-04-21T13:06:50Z</time>
      </trkpt>
      <trkpt lat="47.23935" lon="5.68139">
        <ele>266.9</ele>
        <time>2018-04-21T13:07:09Z</time>
      </trkpt>
      <trkpt lat="47.23935" lon="5.68138">
        <ele>266.9</ele>
        <time>2018-04-21T13:07:22Z</time>
      </trkpt>
      <trkpt lat="47.23935" lon="5.68137">
        <ele>266.9</ele>
        <time>2018-04-21T13:07:46Z</time>
      </trkpt>
      <trkpt lat="47.23935" lon="5.68137">
        <ele>266.9</ele>
        <time>2018-04-21T13:07:57Z</time>
      </trkpt>
      <trkpt lat="47.23947" lon="5.68133">
        <ele>265.46</ele>
        <time>2018-04-21T13:08:02Z</time>
      </trkpt>
      <trkpt lat="47.23966" lon="5.68143">
        <ele>261.62</ele>
        <time>2018-04-21T13:08:09Z</time>
      </trkpt>
      <trkpt lat="47.23985" lon="5.68163">
        <ele>258.25</ele>
        <time>2018-04-21T13:08:14Z</time>
      </trkpt>
      <trkpt lat="47.23989" lon="5.68169">
        <ele>257.77</ele>
        <time>2018-04-21T13:08:15Z</time>
      </trkpt>
      <trkpt lat="47.24017" lon="5.6821">
        <ele>255.85</ele>
        <time>2018-04-21T13:08:22Z</time>
      </trkpt>
      <trkpt lat="47.24033" lon="5.68232">
        <ele>255.37</ele>
        <time>2018-04-21T13:08:26Z</time>
      </trkpt>
      <trkpt lat="47.24059" lon="5.68257">
        <ele>252.48</ele>
        <time>2018-04-21T13:08:32Z</time>
      </trkpt>
      <trkpt lat="47.24064" lon="5.68261">
        <ele>252.48</ele>
        <time>2018-04-21T13:08:33Z</time>
      </trkpt>
      <trkpt lat="47.24082" lon="5.68299">
        <ele>248.64</ele>
        <time>2018-04-21T13:08:38Z</time>
      </trkpt>
      <trkpt lat="47.24092" lon="5.68381">
        <ele>244.31</ele>
        <time>2018-04-21T13:08:45Z</time>
      </trkpt>
      <trkpt lat="47.24104" lon="5.68444">
        <ele>244.31</ele>
        <time>2018-04-21T13:08:51Z</time>
      </trkpt>
      <trkpt lat="47.24123" lon="5.68489">
        <ele>241.91</ele>
        <time>2018-04-21T13:08:56Z</time>
      </trkpt>
      <trkpt lat="47.24148" lon="5.68519">
        <ele>238.54</ele>
        <time>2018-04-21T13:09:00Z</time>
      </trkpt>
      <trkpt lat="47.24172" lon="5.68541">
        <ele>233.74</ele>
        <time>2018-04-21T13:09:03Z</time>
      </trkpt>
      <trkpt lat="47.24203" lon="5.68583">
        <ele>230.85</ele>
        <time>2018-04-21T13:09:07Z</time>
      </trkpt>
      <trkpt lat="47.24261" lon="5.68688">
        <ele>229.41</ele>
        <time>2018-04-21T13:09:17Z</time>
      </trkpt>
      <trkpt lat="47.24323" lon="5.68739">
        <ele>226.53</ele>
        <time>2018-04-21T13:09:26Z</time>
      </trkpt>
      <trkpt lat="47.24389" lon="5.68791">
        <ele>224.12</ele>
        <time>2018-04-21T13:09:37Z</time>
      </trkpt>
      <trkpt lat="47.24403" lon="5.68809">
        <ele>225.09</ele>
        <time>2018-04-21T13:09:46Z</time>
      </trkpt>
      <trkpt lat="47.24404" lon="5.6881">
        <ele>225.09</ele>
        <time>2018-04-21T13:09:47Z</time>
      </trkpt>
      <trkpt lat="47.24415" lon="5.68813">
        <ele>223.64</ele>
        <time>2018-04-21T13:09:52Z</time>
      </trkpt>
      <trkpt lat="47.24455" lon="5.68821">
        <ele>219.8</ele>
        <time>2018-04-21T13:10:01Z</time>
      </trkpt>
      <trkpt lat="47.2446" lon="5.68822">
        <ele>219.8</ele>
        <time>2018-04-21T13:10:02Z</time>
      </trkpt>
      <trkpt lat="47.24471" lon="5.68819">
        <ele>219.32</ele>
        <time>2018-04-21T13:10:04Z</time>
      </trkpt>
      <trkpt lat="47.24513" lon="5.68788">
        <ele>216.91</ele>
        <time>2018-04-21T13:10:14Z</time>
      </trkpt>
      <trkpt lat="47.24555" lon="5.68761">
        <ele>216.43</ele>
        <time>2018-04-21T13:10:27Z</time>
      </trkpt>
      <trkpt lat="47.24597" lon="5.68744">
        <ele>215.95</ele>
        <time>2018-04-21T13:10:38Z</time>
      </trkpt>
      <trkpt lat="47.24599" lon="5.68728">
        <ele>216.43</ele>
        <time>2018-04-21T13:10:44Z</time>
      </trkpt>
      <trkpt lat="47.24582" lon="5.6866">
        <ele>217.4</ele>
        <time>2018-04-21T13:10:59Z</time>
      </trkpt>
      <trkpt lat="47.24604" lon="5.68611">
        <ele>218.36</ele>
        <time>2018-04-21T13:11:11Z</time>
      </trkpt>
      <trkpt lat="47.24603" lon="5.68544">
        <ele>219.32</ele>
        <time>2018-04-21T13:11:25Z</time>
      </trkpt>
      <trkpt lat="47.24583" lon="5.68473">
        <ele>221.24</ele>
        <time>2018-04-21T13:11:41Z</time>
      </trkpt>
      <trkpt lat="47.24561" lon="5.68403">
        <ele>223.16</ele>
        <time>2018-04-21T13:11:57Z</time>
      </trkpt>
      <trkpt lat="47.24524" lon="5.68323">
        <ele>225.57</ele>
        <time>2018-04-21T13:12:15Z</time>
      </trkpt>
      <trkpt lat="47.24486" lon="5.68261">
        <ele>227.01</ele>
        <time>2018-04-21T13:12:29Z</time>
      </trkpt>
      <trkpt lat="47.24433" lon="5.68178">
        <ele>227.49</ele>
        <time>2018-04-21T13:12:47Z</time>
      </trkpt>
      <trkpt lat="47.24399" lon="5.68107">
        <ele>227.01</ele>
        <time>2018-04-21T13:13:04Z</time>
      </trkpt>
      <trkpt lat="47.24377" lon="5.68038">
        <ele>227.01</ele>
        <time>2018-04-21T13:13:21Z</time>
      </trkpt>
      <trkpt lat="47.24356" lon="5.67974">
        <ele>227.49</ele>
        <time>2018-04-21T13:13:36Z</time>
      </trkpt>
      <trkpt lat="47.24337" lon="5.67899">
        <ele>229.89</ele>
        <time>2018-04-21T13:13:52Z</time>
      </trkpt>
      <trkpt lat="47.24325" lon="5.67845">
        <ele>232.3</ele>
        <time>2018-04-21T13:14:05Z</time>
      </trkpt>
      <trkpt lat="47.24318" lon="5.6778">
        <ele>234.22</ele>
        <time>2018-04-21T13:14:20Z</time>
      </trkpt>
      <trkpt lat="47.24313" lon="5.67714">
        <ele>235.18</ele>
        <time>2018-04-21T13:14:35Z</time>
      </trkpt>
      <trkpt lat="47.24304" lon="5.67636">
        <ele>234.7</ele>
        <time>2018-04-21T13:14:50Z</time>
      </trkpt>
      <trkpt lat="47.2429" lon="5.67582">
        <ele>232.78</ele>
        <time>2018-04-21T13:14:58Z</time>
      </trkpt>
      <trkpt lat="47.24266" lon="5.67504">
        <ele>229.41</ele>
        <time>2018-04-21T13:15:08Z</time>
      </trkpt>
      <trkpt lat="47.24249" lon="5.67448">
        <ele>226.53</ele>
        <time>2018-04-21T13:15:14Z</time>
      </trkpt>
      <trkpt lat="47.24226" lon="5.67376">
        <ele>222.68</ele>
        <time>2018-04-21T13:15:21Z</time>
      </trkpt>
      <trkpt lat="47.24169" lon="5.67202">
        <ele>220.76</ele>
        <time>2018-04-21T13:15:39Z</time>
      </trkpt>
      <trkpt lat="47.24115" lon="5.67109">
        <ele>219.32</ele>
        <time>2018-04-21T13:15:52Z</time>
      </trkpt>
      <trkpt lat="47.24096" lon="5.67073">
        <ele>217.4</ele>
        <time>2018-04-21T13:15:57Z</time>
      </trkpt>
      <trkpt lat="47.24078" lon="5.66988">
        <ele>213.55</ele>
        <time>2018-04-21T13:16:06Z</time>
      </trkpt>
      <trkpt lat="47.24067" lon="5.6687">
        <ele>214.03</ele>
        <time>2018-04-21T13:16:20Z</time>
      </trkpt>
      <trkpt lat="47.24064" lon="5.66841">
        <ele>213.55</ele>
        <time>2018-04-21T13:16:24Z</time>
      </trkpt>
      <trkpt lat="47.24065" lon="5.6682">
        <ele>214.03</ele>
        <time>2018-04-21T13:16:27Z</time>
      </trkpt>
      <trkpt lat="47.24083" lon="5.6674">
        <ele>215.95</ele>
        <time>2018-04-21T13:16:41Z</time>
      </trkpt>
      <trkpt lat="47.2407" lon="5.66727">
        <ele>215.95</ele>
        <time>2018-04-21T13:16:46Z</time>
      </trkpt>
      <trkpt lat="47.24017" lon="5.66721">
        <ele>217.4</ele>
        <time>2018-04-21T13:17:02Z</time>
      </trkpt>
      <trkpt lat="47.23975" lon="5.66715">
        <ele>217.4</ele>
        <time>2018-04-21T13:17:16Z</time>
      </trkpt>
      <trkpt lat="47.23957" lon="5.66706">
        <ele>220.28</ele>
        <time>2018-04-21T13:17:26Z</time>
      </trkpt>
      <trkpt lat="47.23935" lon="5.66707">
        <ele>223.16</ele>
        <time>2018-04-21T13:17:36Z</time>
      </trkpt>
      <trkpt lat="47.23934" lon="5.66707">
        <ele>223.16</ele>
        <time>2018-04-21T13:17:37Z</time>
      </trkpt>
      <trkpt lat="47.23913" lon="5.66703">
        <ele>226.05</ele>
        <time>2018-04-21T13:17:48Z</time>
      </trkpt>
      <trkpt lat="47.23888" lon="5.66682">
        <ele>228.93</ele>
        <time>2018-04-21T13:18:04Z</time>
      </trkpt>
      <trkpt lat="47.23872" lon="5.6665">
        <ele>231.33</ele>
        <time>2018-04-21T13:18:18Z</time>
      </trkpt>
      <trkpt lat="47.23846" lon="5.66633">
        <ele>232.78</ele>
        <time>2018-04-21T13:18:33Z</time>
      </trkpt>
      <trkpt lat="47.23821" lon="5.66624">
        <ele>234.22</ele>
        <time>2018-04-21T13:18:47Z</time>
      </trkpt>
      <trkpt lat="47.23808" lon="5.66615">
        <ele>234.7</ele>
        <time>2018-04-21T13:18:58Z</time>
      </trkpt>
      <trkpt lat="47.23806" lon="5.66616">
        <ele>234.7</ele>
        <time>2018-04-21T13:19:01Z</time>
      </trkpt>
      <trkpt lat="47.23806" lon="5.66619">
        <ele>234.7</ele>
        <time>2018-04-21T13:19:03Z</time>
      </trkpt>
      <trkpt lat="47.23808" lon="5.66612">
        <ele>234.7</ele>
        <time>2018-04-21T13:19:08Z</time>
      </trkpt>
      <trkpt lat="47.23804" lon="5.66597">
        <ele>234.7</ele>
        <time>2018-04-21T13:19:15Z</time>
      </trkpt>
      <trkpt lat="47.23779" lon="5.6656">
        <ele>235.66</ele>
        <time>2018-04-21T13:19:30Z</time>
      </trkpt>
      <trkpt lat="47.23753" lon="5.66526">
        <ele>237.1</ele>
        <time>2018-04-21T13:19:44Z</time>
      </trkpt>
      <trkpt lat="47.23727" lon="5.66487">
        <ele>237.58</ele>
        <time>2018-04-21T13:19:58Z</time>
      </trkpt>
      <trkpt lat="47.23701" lon="5.66447">
        <ele>239.02</ele>
        <time>2018-04-21T13:20:12Z</time>
      </trkpt>
      <trkpt lat="47.23666" lon="5.66392">
        <ele>239.51</ele>
        <time>2018-04-21T13:20:30Z</time>
      </trkpt>
      <trkpt lat="47.23635" lon="5.66352">
        <ele>240.95</ele>
        <time>2018-04-21T13:20:46Z</time>
      </trkpt>
      <trkpt lat="47.23615" lon="5.66322">
        <ele>241.91</ele>
        <time>2018-04-21T13:20:59Z</time>
      </trkpt>
      <trkpt lat="47.23591" lon="5.66289">
        <ele>242.39</ele>
        <time>2018-04-21T13:21:12Z</time>
      </trkpt>
      <trkpt lat="47.23569" lon="5.6626">
        <ele>243.83</ele>
        <time>2018-04-21T13:21:24Z</time>
      </trkpt>
      <trkpt lat="47.23558" lon="5.66249">
        <ele>244.79</ele>
        <time>2018-04-21T13:21:29Z</time>
      </trkpt>
      <trkpt lat="47.23547" lon="5.66238">
        <ele>246.23</ele>
        <time>2018-04-21T13:21:35Z</time>
      </trkpt>
      <trkpt lat="47.2354" lon="5.66232">
        <ele>247.2</ele>
        <time>2018-04-21T13:21:39Z</time>
      </trkpt>
      <trkpt lat="47.23525" lon="5.66187">
        <ele>250.56</ele>
        <time>2018-04-21T13:21:53Z</time>
      </trkpt>
      <trkpt lat="47.23521" lon="5.66152">
        <ele>252.48</ele>
        <time>2018-04-21T13:22:05Z</time>
      </trkpt>
      <trkpt lat="47.23519" lon="5.66133">
        <ele>253.44</ele>
        <time>2018-04-21T13:22:12Z</time>
      </trkpt>
      <trkpt lat="47.23501" lon="5.66108">
        <ele>256.81</ele>
        <time>2018-04-21T13:22:27Z</time>
      </trkpt>
      <trkpt lat="47.23493" lon="5.66099">
        <ele>257.29</ele>
        <time>2018-04-21T13:22:33Z</time>
      </trkpt>
      <trkpt lat="47.23491" lon="5.66095">
        <ele>257.77</ele>
        <time>2018-04-21T13:22:35Z</time>
      </trkpt>
      <trkpt lat="47.23476" lon="5.66073">
        <ele>259.69</ele>
        <time>2018-04-21T13:22:50Z</time>
      </trkpt>
      <trkpt lat="47.23464" lon="5.66052">
        <ele>261.62</ele>
        <time>2018-04-21T13:23:02Z</time>
      </trkpt>
      <trkpt lat="47.23463" lon="5.66051">
        <ele>261.62</ele>
        <time>2018-04-21T13:23:03Z</time>
      </trkpt>
      <trkpt lat="47.23457" lon="5.66042">
        <ele>262.58</ele>
        <time>2018-04-21T13:23:09Z</time>
      </trkpt>
      <trkpt lat="47.23443" lon="5.66019">
        <ele>264.02</ele>
        <time>2018-04-21T13:23:22Z</time>
      </trkpt>
      <trkpt lat="47.23435" lon="5.66008">
        <ele>264.98</ele>
        <time>2018-04-21T13:23:34Z</time>
      </trkpt>
      <trkpt lat="47.23431" lon="5.66005">
        <ele>265.94</ele>
        <time>2018-04-21T13:23:45Z</time>
      </trkpt>
      <trkpt lat="47.2343" lon="5.66004">
        <ele>265.94</ele>
        <time>2018-04-21T13:23:48Z</time>
      </trkpt>
      <trkpt lat="47.23428" lon="5.66001">
        <ele>266.42</ele>
        <time>2018-04-21T13:23:50Z</time>
      </trkpt>
      <trkpt lat="47.23425" lon="5.65998">
        <ele>266.42</ele>
        <time>2018-04-21T13:23:53Z</time>
      </trkpt>
      <trkpt lat="47.23422" lon="5.65991">
        <ele>267.38</ele>
        <time>2018-04-21T13:23:58Z</time>
      </trkpt>
      <trkpt lat="47.23413" lon="5.6598">
        <ele>268.83</ele>
        <time>2018-04-21T13:24:06Z</time>
      </trkpt>
      <trkpt lat="47.23404" lon="5.65972">
        <ele>269.79</ele>
        <time>2018-04-21T13:24:12Z</time>
      </trkpt>
      <trkpt lat="47.234" lon="5.65964">
        <ele>270.27</ele>
        <time>2018-04-21T13:24:17Z</time>
      </trkpt>
      <trkpt lat="47.23388" lon="5.65955">
        <ele>271.71</ele>
        <time>2018-04-21T13:24:24Z</time>
      </trkpt>
      <trkpt lat="47.23376" lon="5.65942">
        <ele>272.67</ele>
        <time>2018-04-21T13:24:33Z</time>
      </trkpt>
      <trkpt lat="47.23372" lon="5.65942">
        <ele>273.15</ele>
        <time>2018-04-21T13:24:36Z</time>
      </trkpt>
      <trkpt lat="47.23358" lon="5.65929">
        <ele>275.07</ele>
        <time>2018-04-21T13:24:48Z</time>
      </trkpt>
      <trkpt lat="47.23344" lon="5.6592">
        <ele>276.52</ele>
        <time>2018-04-21T13:24:58Z</time>
      </trkpt>
      <trkpt lat="47.23331" lon="5.65909">
        <ele>277.96</ele>
        <time>2018-04-21T13:25:09Z</time>
      </trkpt>
      <trkpt lat="47.23316" lon="5.65902">
        <ele>279.88</ele>
        <time>2018-04-21T13:25:19Z</time>
      </trkpt>
      <trkpt lat="47.23312" lon="5.65901">
        <ele>279.88</ele>
        <time>2018-04-21T13:25:22Z</time>
      </trkpt>
      <trkpt lat="47.23307" lon="5.65899">
        <ele>280.84</ele>
        <time>2018-04-21T13:25:26Z</time>
      </trkpt>
      <trkpt lat="47.23296" lon="5.65893">
        <ele>282.28</ele>
        <time>2018-04-21T13:25:34Z</time>
      </trkpt>
      <trkpt lat="47.23293" lon="5.65892">
        <ele>282.77</ele>
        <time>2018-04-21T13:25:36Z</time>
      </trkpt>
      <trkpt lat="47.23287" lon="5.6589">
        <ele>283.73</ele>
        <time>2018-04-21T13:25:40Z</time>
      </trkpt>
      <trkpt lat="47.23281" lon="5.65887">
        <ele>284.69</ele>
        <time>2018-04-21T13:25:44Z</time>
      </trkpt>
      <trkpt lat="47.23277" lon="5.65887">
        <ele>285.17</ele>
        <time>2018-04-21T13:25:46Z</time>
      </trkpt>
      <trkpt lat="47.23262" lon="5.65879">
        <ele>287.09</ele>
        <time>2018-04-21T13:25:57Z</time>
      </trkpt>
      <trkpt lat="47.2325" lon="5.65874">
        <ele>288.05</ele>
        <time>2018-04-21T13:26:03Z</time>
      </trkpt>
      <trkpt lat="47.2324" lon="5.65869">
        <ele>288.53</ele>
        <time>2018-04-21T13:26:10Z</time>
      </trkpt>
      <trkpt lat="47.23231" lon="5.65862">
        <ele>289.49</ele>
        <time>2018-04-21T13:26:16Z</time>
      </trkpt>
      <trkpt lat="47.23225" lon="5.65859">
        <ele>289.97</ele>
        <time>2018-04-21T13:26:20Z</time>
      </trkpt>
      <trkpt lat="47.23214" lon="5.65852">
        <ele>291.42</ele>
        <time>2018-04-21T13:26:31Z</time>
      </trkpt>
      <trkpt lat="47.23212" lon="5.65851">
        <ele>291.9</ele>
        <time>2018-04-21T13:26:33Z</time>
      </trkpt>
      <trkpt lat="47.23209" lon="5.6585">
        <ele>292.38</ele>
        <time>2018-04-21T13:26:35Z</time>
      </trkpt>
      <trkpt lat="47.23206" lon="5.6585">
        <ele>292.38</ele>
        <time>2018-04-21T13:26:37Z</time>
      </trkpt>
      <trkpt lat="47.23203" lon="5.65849">
        <ele>292.86</ele>
        <time>2018-04-21T13:26:39Z</time>
      </trkpt>
      <trkpt lat="47.23194" lon="5.65849">
        <ele>293.34</ele>
        <time>2018-04-21T13:26:45Z</time>
      </trkpt>
      <trkpt lat="47.23185" lon="5.65847">
        <ele>294.3</ele>
        <time>2018-04-21T13:26:51Z</time>
      </trkpt>
      <trkpt lat="47.23179" lon="5.65845">
        <ele>294.78</ele>
        <time>2018-04-21T13:26:58Z</time>
      </trkpt>
      <trkpt lat="47.23169" lon="5.65846">
        <ele>295.74</ele>
        <time>2018-04-21T13:27:05Z</time>
      </trkpt>
      <trkpt lat="47.23147" lon="5.6584">
        <ele>296.7</ele>
        <time>2018-04-21T13:27:20Z</time>
      </trkpt>
      <trkpt lat="47.23133" lon="5.65833">
        <ele>298.63</ele>
        <time>2018-04-21T13:27:31Z</time>
      </trkpt>
      <trkpt lat="47.23128" lon="5.65829">
        <ele>299.59</ele>
        <time>2018-04-21T13:27:36Z</time>
      </trkpt>
      <trkpt lat="47.23124" lon="5.65828">
        <ele>300.07</ele>
        <time>2018-04-21T13:27:39Z</time>
      </trkpt>
      <trkpt lat="47.23109" lon="5.65825">
        <ele>301.51</ele>
        <time>2018-04-21T13:27:50Z</time>
      </trkpt>
      <trkpt lat="47.23094" lon="5.65819">
        <ele>302.95</ele>
        <time>2018-04-21T13:28:04Z</time>
      </trkpt>
      <trkpt lat="47.23077" lon="5.6582">
        <ele>304.39</ele>
        <time>2018-04-21T13:28:16Z</time>
      </trkpt>
      <trkpt lat="47.23062" lon="5.65816">
        <ele>305.84</ele>
        <time>2018-04-21T13:28:28Z</time>
      </trkpt>
      <trkpt lat="47.23054" lon="5.65816">
        <ele>306.8</ele>
        <time>2018-04-21T13:28:34Z</time>
      </trkpt>
      <trkpt lat="47.23045" lon="5.6581">
        <ele>307.76</ele>
        <time>2018-04-21T13:28:43Z</time>
      </trkpt>
      <trkpt lat="47.23044" lon="5.65809">
        <ele>307.76</ele>
        <time>2018-04-21T13:28:44Z</time>
      </trkpt>
      <trkpt lat="47.23037" lon="5.65808">
        <ele>308.24</ele>
        <time>2018-04-21T13:28:48Z</time>
      </trkpt>
      <trkpt lat="47.23029" lon="5.65806">
        <ele>308.72</ele>
        <time>2018-04-21T13:28:53Z</time>
      </trkpt>
      <trkpt lat="47.2301" lon="5.65798">
        <ele>309.68</ele>
        <time>2018-04-21T13:29:05Z</time>
      </trkpt>
      <trkpt lat="47.22993" lon="5.65791">
        <ele>310.64</ele>
        <time>2018-04-21T13:29:16Z</time>
      </trkpt>
      <trkpt lat="47.22985" lon="5.6579">
        <ele>311.12</ele>
        <time>2018-04-21T13:29:21Z</time>
      </trkpt>
      <trkpt lat="47.22975" lon="5.65784">
        <ele>313.53</ele>
        <time>2018-04-21T13:29:30Z</time>
      </trkpt>
      <trkpt lat="47.22965" lon="5.65781">
        <ele>314.01</ele>
        <time>2018-04-21T13:29:36Z</time>
      </trkpt>
      <trkpt lat="47.2296" lon="5.6578">
        <ele>314.49</ele>
        <time>2018-04-21T13:29:39Z</time>
      </trkpt>
      <trkpt lat="47.22949" lon="5.65778">
        <ele>314.97</ele>
        <time>2018-04-21T13:29:45Z</time>
      </trkpt>
      <trkpt lat="47.22926" lon="5.65771">
        <ele>316.89</ele>
        <time>2018-04-21T13:29:58Z</time>
      </trkpt>
      <trkpt lat="47.22923" lon="5.6577">
        <ele>317.37</ele>
        <time>2018-04-21T13:30:00Z</time>
      </trkpt>
      <trkpt lat="47.22906" lon="5.65767">
        <ele>318.33</ele>
        <time>2018-04-21T13:30:12Z</time>
      </trkpt>
      <trkpt lat="47.22899" lon="5.65764">
        <ele>318.81</ele>
        <time>2018-04-21T13:30:16Z</time>
      </trkpt>
      <trkpt lat="47.22878" lon="5.65758">
        <ele>319.78</ele>
        <time>2018-04-21T13:30:26Z</time>
      </trkpt>
      <trkpt lat="47.22854" lon="5.65756">
        <ele>320.74</ele>
        <time>2018-04-21T13:30:36Z</time>
      </trkpt>
      <trkpt lat="47.22836" lon="5.65753">
        <ele>320.74</ele>
        <time>2018-04-21T13:30:44Z</time>
      </trkpt>
      <trkpt lat="47.22822" lon="5.65757">
        <ele>321.7</ele>
        <time>2018-04-21T13:30:52Z</time>
      </trkpt>
      <trkpt lat="47.22794" lon="5.65762">
        <ele>321.7</ele>
        <time>2018-04-21T13:31:06Z</time>
      </trkpt>
      <trkpt lat="47.22779" lon="5.65769">
        <ele>321.22</ele>
        <time>2018-04-21T13:31:18Z</time>
      </trkpt>
      <trkpt lat="47.22779" lon="5.65773">
        <ele>320.74</ele>
        <time>2018-04-21T13:31:33Z</time>
      </trkpt>
      <trkpt lat="47.22778" lon="5.65772">
        <ele>320.26</ele>
        <time>2018-04-21T13:32:02Z</time>
      </trkpt>
      <trkpt lat="47.22778" lon="5.65772">
        <ele>320.74</ele>
        <time>2018-04-21T13:32:03Z</time>
      </trkpt>
      <trkpt lat="47.22778" lon="5.6577">
        <ele>321.22</ele>
        <time>2018-04-21T13:32:16Z</time>
      </trkpt>
      <trkpt lat="47.22778" lon="5.65768">
        <ele>321.22</ele>
        <time>2018-04-21T13:32:36Z</time>
      </trkpt>
      <trkpt lat="47.22778" lon="5.65769">
        <ele>321.22</ele>
        <time>2018-04-21T13:33:06Z</time>
      </trkpt>
      <trkpt lat="47.22779" lon="5.65769">
        <ele>321.22</ele>
        <time>2018-04-21T13:33:29Z</time>
      </trkpt>
      <trkpt lat="47.22778" lon="5.65768">
        <ele>321.7</ele>
        <time>2018-04-21T13:33:53Z</time>
      </trkpt>
      <trkpt lat="47.22778" lon="5.65767">
        <ele>321.7</ele>
        <time>2018-04-21T13:34:17Z</time>
      </trkpt>
      <trkpt lat="47.22779" lon="5.65767">
        <ele>321.7</ele>
        <time>2018-04-21T13:34:34Z</time>
      </trkpt>
      <trkpt lat="47.22779" lon="5.65768">
        <ele>321.7</ele>
        <time>2018-04-21T13:34:41Z</time>
      </trkpt>
      <trkpt lat="47.22774" lon="5.65779">
        <ele>322.18</ele>
        <time>2018-04-21T13:34:48Z</time>
      </trkpt>
      <trkpt lat="47.22757" lon="5.65814">
        <ele>322.18</ele>
        <time>2018-04-21T13:35:02Z</time>
      </trkpt>
      <trkpt lat="47.22741" lon="5.65852">
        <ele>322.66</ele>
        <time>2018-04-21T13:35:17Z</time>
      </trkpt>
      <trkpt lat="47.22722" lon="5.65876">
        <ele>322.66</ele>
        <time>2018-04-21T13:35:30Z</time>
      </trkpt>
      <trkpt lat="47.2272" lon="5.65877">
        <ele>322.66</ele>
        <time>2018-04-21T13:35:31Z</time>
      </trkpt>
      <trkpt lat="47.22704" lon="5.65866">
        <ele>320.74</ele>
        <time>2018-04-21T13:35:37Z</time>
      </trkpt>
      <trkpt lat="47.22697" lon="5.65859">
        <ele>320.26</ele>
        <time>2018-04-21T13:35:39Z</time>
      </trkpt>
      <trkpt lat="47.22677" lon="5.65842">
        <ele>318.33</ele>
        <time>2018-04-21T13:35:44Z</time>
      </trkpt>
      <trkpt lat="47.22667" lon="5.65834">
        <ele>317.37</ele>
        <time>2018-04-21T13:35:46Z</time>
      </trkpt>
      <trkpt lat="47.22662" lon="5.6583">
        <ele>316.41</ele>
        <time>2018-04-21T13:35:47Z</time>
      </trkpt>
      <trkpt lat="47.22652" lon="5.65821">
        <ele>315.45</ele>
        <time>2018-04-21T13:35:49Z</time>
      </trkpt>
      <trkpt lat="47.22637" lon="5.65808">
        <ele>314.49</ele>
        <time>2018-04-21T13:35:52Z</time>
      </trkpt>
      <trkpt lat="47.22602" lon="5.65779">
        <ele>311.6</ele>
        <time>2018-04-21T13:35:59Z</time>
      </trkpt>
      <trkpt lat="47.22554" lon="5.65741">
        <ele>308.72</ele>
        <time>2018-04-21T13:36:10Z</time>
      </trkpt>
      <trkpt lat="47.22542" lon="5.65731">
        <ele>308.24</ele>
        <time>2018-04-21T13:36:13Z</time>
      </trkpt>
      <trkpt lat="47.22526" lon="5.65718">
        <ele>306.8</ele>
        <time>2018-04-21T13:36:17Z</time>
      </trkpt>
      <trkpt lat="47.22512" lon="5.65707">
        <ele>305.84</ele>
        <time>2018-04-21T13:36:20Z</time>
      </trkpt>
      <trkpt lat="47.22469" lon="5.65669">
        <ele>303.91</ele>
        <time>2018-04-21T13:36:32Z</time>
      </trkpt>
      <trkpt lat="47.22449" lon="5.65653">
        <ele>303.43</ele>
        <time>2018-04-21T13:36:39Z</time>
      </trkpt>
      <trkpt lat="47.22439" lon="5.65671">
        <ele>305.36</ele>
        <time>2018-04-21T13:36:49Z</time>
      </trkpt>
      <trkpt lat="47.22426" lon="5.65697">
        <ele>307.28</ele>
        <time>2018-04-21T13:37:02Z</time>
      </trkpt>
      <trkpt lat="47.2241" lon="5.6572">
        <ele>309.2</ele>
        <time>2018-04-21T13:37:17Z</time>
      </trkpt>
      <trkpt lat="47.22394" lon="5.65749">
        <ele>311.6</ele>
        <time>2018-04-21T13:37:33Z</time>
      </trkpt>
      <trkpt lat="47.22382" lon="5.6577">
        <ele>314.01</ele>
        <time>2018-04-21T13:37:44Z</time>
      </trkpt>
      <trkpt lat="47.22377" lon="5.65774">
        <ele>314.49</ele>
        <time>2018-04-21T13:37:48Z</time>
      </trkpt>
      <trkpt lat="47.22363" lon="5.65768">
        <ele>314.49</ele>
        <time>2018-04-21T13:37:56Z</time>
      </trkpt>
      <trkpt lat="47.22345" lon="5.65753">
        <ele>313.53</ele>
        <time>2018-04-21T13:38:08Z</time>
      </trkpt>
      <trkpt lat="47.22325" lon="5.65732">
        <ele>312.09</ele>
        <time>2018-04-21T13:38:18Z</time>
      </trkpt>
      <trkpt lat="47.22299" lon="5.65703">
        <ele>309.68</ele>
        <time>2018-04-21T13:38:28Z</time>
      </trkpt>
      <trkpt lat="47.22277" lon="5.6568">
        <ele>308.24</ele>
        <time>2018-04-21T13:38:35Z</time>
      </trkpt>
      <trkpt lat="47.22263" lon="5.65672">
        <ele>306.8</ele>
        <time>2018-04-21T13:38:40Z</time>
      </trkpt>
      <trkpt lat="47.22239" lon="5.65668">
        <ele>304.88</ele>
        <time>2018-04-21T13:38:49Z</time>
      </trkpt>
      <trkpt lat="47.22236" lon="5.6567">
        <ele>304.88</ele>
        <time>2018-04-21T13:38:50Z</time>
      </trkpt>
      <trkpt lat="47.22203" lon="5.65675">
        <ele>302.47</ele>
        <time>2018-04-21T13:39:01Z</time>
      </trkpt>
      <trkpt lat="47.22176" lon="5.65657">
        <ele>299.11</ele>
        <time>2018-04-21T13:39:09Z</time>
      </trkpt>
      <trkpt lat="47.22163" lon="5.65653">
        <ele>298.15</ele>
        <time>2018-04-21T13:39:12Z</time>
      </trkpt>
      <trkpt lat="47.22149" lon="5.65648">
        <ele>295.74</ele>
        <time>2018-04-21T13:39:16Z</time>
      </trkpt>
      <trkpt lat="47.22129" lon="5.65634">
        <ele>292.38</ele>
        <time>2018-04-21T13:39:23Z</time>
      </trkpt>
      <trkpt lat="47.22127" lon="5.65629">
        <ele>292.38</ele>
        <time>2018-04-21T13:39:24Z</time>
      </trkpt>
      <trkpt lat="47.22115" lon="5.65606">
        <ele>288.53</ele>
        <time>2018-04-21T13:39:29Z</time>
      </trkpt>
      <trkpt lat="47.22113" lon="5.65601">
        <ele>288.53</ele>
        <time>2018-04-21T13:39:30Z</time>
      </trkpt>
      <trkpt lat="47.22092" lon="5.65562">
        <ele>285.65</ele>
        <time>2018-04-21T13:39:34Z</time>
      </trkpt>
      <trkpt lat="47.22077" lon="5.65534">
        <ele>283.25</ele>
        <time>2018-04-21T13:39:37Z</time>
      </trkpt>
      <trkpt lat="47.22061" lon="5.65506">
        <ele>281.32</ele>
        <time>2018-04-21T13:39:41Z</time>
      </trkpt>
      <trkpt lat="47.22054" lon="5.65468">
        <ele>278.44</ele>
        <time>2018-04-21T13:39:45Z</time>
      </trkpt>
      <trkpt lat="47.22082" lon="5.65394">
        <ele>277.48</ele>
        <time>2018-04-21T13:39:54Z</time>
      </trkpt>
      <trkpt lat="47.22112" lon="5.65316">
        <ele>279.88</ele>
        <time>2018-04-21T13:40:08Z</time>
      </trkpt>
      <trkpt lat="47.22137" lon="5.65255">
        <ele>278.92</ele>
        <time>2018-04-21T13:40:22Z</time>
      </trkpt>
      <trkpt lat="47.22138" lon="5.65244">
        <ele>278.44</ele>
        <time>2018-04-21T13:40:24Z</time>
      </trkpt>
      <trkpt lat="47.22128" lon="5.65226">
        <ele>277.48</ele>
        <time>2018-04-21T13:40:28Z</time>
      </trkpt>
      <trkpt lat="47.22098" lon="5.65199">
        <ele>275.07</ele>
        <time>2018-04-21T13:40:40Z</time>
      </trkpt>
      <trkpt lat="47.22091" lon="5.65194">
        <ele>274.59</ele>
        <time>2018-04-21T13:40:42Z</time>
      </trkpt>
      <trkpt lat="47.22052" lon="5.65161">
        <ele>271.23</ele>
        <time>2018-04-21T13:40:50Z</time>
      </trkpt>
      <trkpt lat="47.22039" lon="5.65152">
        <ele>270.27</ele>
        <time>2018-04-21T13:40:52Z</time>
      </trkpt>
      <trkpt lat="47.22017" lon="5.65131">
        <ele>267.86</ele>
        <time>2018-04-21T13:40:56Z</time>
      </trkpt>
      <trkpt lat="47.21987" lon="5.65054">
        <ele>264.02</ele>
        <time>2018-04-21T13:41:04Z</time>
      </trkpt>
      <trkpt lat="47.2196" lon="5.64999">
        <ele>262.58</ele>
        <time>2018-04-21T13:41:10Z</time>
      </trkpt>
      <trkpt lat="47.21945" lon="5.64932">
        <ele>260.65</ele>
        <time>2018-04-21T13:41:17Z</time>
      </trkpt>
      <trkpt lat="47.21938" lon="5.64881">
        <ele>256.33</ele>
        <time>2018-04-21T13:41:22Z</time>
      </trkpt>
      <trkpt lat="47.21939" lon="5.64845">
        <ele>254.89</ele>
        <time>2018-04-21T13:41:25Z</time>
      </trkpt>
      <trkpt lat="47.21939" lon="5.64821">
        <ele>253.93</ele>
        <time>2018-04-21T13:41:27Z</time>
      </trkpt>
      <trkpt lat="47.21929" lon="5.64766">
        <ele>253.44</ele>
        <time>2018-04-21T13:41:32Z</time>
      </trkpt>
      <trkpt lat="47.21933" lon="5.64725">
        <ele>253.44</ele>
        <time>2018-04-21T13:41:36Z</time>
      </trkpt>
      <trkpt lat="47.21986" lon="5.64641">
        <ele>253.93</ele>
        <time>2018-04-21T13:41:50Z</time>
      </trkpt>
      <trkpt lat="47.22024" lon="5.64599">
        <ele>255.37</ele>
        <time>2018-04-21T13:42:00Z</time>
      </trkpt>
      <trkpt lat="47.22041" lon="5.6458">
        <ele>255.37</ele>
        <time>2018-04-21T13:42:05Z</time>
      </trkpt>
      <trkpt lat="47.22085" lon="5.64533">
        <ele>253.93</ele>
        <time>2018-04-21T13:42:19Z</time>
      </trkpt>
      <trkpt lat="47.22126" lon="5.64497">
        <ele>253.93</ele>
        <time>2018-04-21T13:42:30Z</time>
      </trkpt>
      <trkpt lat="47.22139" lon="5.6448">
        <ele>254.89</ele>
        <time>2018-04-21T13:42:36Z</time>
      </trkpt>
      <trkpt lat="47.22156" lon="5.64496">
        <ele>256.33</ele>
        <time>2018-04-21T13:42:45Z</time>
      </trkpt>
      <trkpt lat="47.22178" lon="5.64527">
        <ele>257.77</ele>
        <time>2018-04-21T13:43:00Z</time>
      </trkpt>
      <trkpt lat="47.222" lon="5.64542">
        <ele>259.69</ele>
        <time>2018-04-21T13:43:12Z</time>
      </trkpt>
      <trkpt lat="47.22223" lon="5.64554">
        <ele>262.58</ele>
        <time>2018-04-21T13:43:26Z</time>
      </trkpt>
      <trkpt lat="47.2223" lon="5.64556">
        <ele>263.54</ele>
        <time>2018-04-21T13:43:31Z</time>
      </trkpt>
      <trkpt lat="47.22247" lon="5.64568">
        <ele>264.98</ele>
        <time>2018-04-21T13:43:43Z</time>
      </trkpt>
      <trkpt lat="47.22269" lon="5.64573">
        <ele>266.9</ele>
        <time>2018-04-21T13:43:56Z</time>
      </trkpt>
      <trkpt lat="47.22278" lon="5.64573">
        <ele>268.35</ele>
        <time>2018-04-21T13:44:01Z</time>
      </trkpt>
      <trkpt lat="47.22285" lon="5.64569">
        <ele>268.83</ele>
        <time>2018-04-21T13:44:05Z</time>
      </trkpt>
      <trkpt lat="47.22309" lon="5.64564">
        <ele>270.75</ele>
        <time>2018-04-21T13:44:18Z</time>
      </trkpt>
      <trkpt lat="47.22327" lon="5.6457">
        <ele>272.67</ele>
        <time>2018-04-21T13:44:29Z</time>
      </trkpt>
      <trkpt lat="47.22338" lon="5.64572">
        <ele>274.11</ele>
        <time>2018-04-21T13:44:40Z</time>
      </trkpt>
      <trkpt lat="47.22355" lon="5.64578">
        <ele>275.56</ele>
        <time>2018-04-21T13:44:54Z</time>
      </trkpt>
      <trkpt lat="47.22367" lon="5.64586">
        <ele>277.48</ele>
        <time>2018-04-21T13:45:05Z</time>
      </trkpt>
      <trkpt lat="47.2237" lon="5.64588">
        <ele>277.96</ele>
        <time>2018-04-21T13:45:08Z</time>
      </trkpt>
      <trkpt lat="47.22382" lon="5.64599">
        <ele>279.4</ele>
        <time>2018-04-21T13:45:19Z</time>
      </trkpt>
      <trkpt lat="47.22401" lon="5.64616">
        <ele>281.8</ele>
        <time>2018-04-21T13:45:36Z</time>
      </trkpt>
      <trkpt lat="47.2242" lon="5.64633">
        <ele>285.17</ele>
        <time>2018-04-21T13:45:55Z</time>
      </trkpt>
      <trkpt lat="47.22437" lon="5.64649">
        <ele>287.09</ele>
        <time>2018-04-21T13:46:11Z</time>
      </trkpt>
      <trkpt lat="47.22442" lon="5.64654">
        <ele>288.05</ele>
        <time>2018-04-21T13:46:16Z</time>
      </trkpt>
      <trkpt lat="47.22458" lon="5.64672">
        <ele>291.42</ele>
        <time>2018-04-21T13:46:31Z</time>
      </trkpt>
      <trkpt lat="47.22476" lon="5.64686">
        <ele>293.82</ele>
        <time>2018-04-21T13:46:46Z</time>
      </trkpt>
      <trkpt lat="47.22495" lon="5.64699">
        <ele>296.7</ele>
        <time>2018-04-21T13:47:02Z</time>
      </trkpt>
      <trkpt lat="47.22517" lon="5.64708">
        <ele>299.59</ele>
        <time>2018-04-21T13:47:18Z</time>
      </trkpt>
      <trkpt lat="47.22537" lon="5.64713">
        <ele>301.99</ele>
        <time>2018-04-21T13:47:32Z</time>
      </trkpt>
      <trkpt lat="47.22541" lon="5.64716">
        <ele>302.47</ele>
        <time>2018-04-21T13:47:35Z</time>
      </trkpt>
      <trkpt lat="47.22565" lon="5.64726">
        <ele>305.36</ele>
        <time>2018-04-21T13:47:52Z</time>
      </trkpt>
      <trkpt lat="47.2259" lon="5.64728">
        <ele>307.76</ele>
        <time>2018-04-21T13:48:07Z</time>
      </trkpt>
      <trkpt lat="47.22599" lon="5.64729">
        <ele>308.72</ele>
        <time>2018-04-21T13:48:13Z</time>
      </trkpt>
      <trkpt lat="47.22605" lon="5.64733">
        <ele>309.68</ele>
        <time>2018-04-21T13:48:17Z</time>
      </trkpt>
      <trkpt lat="47.22628" lon="5.64741">
        <ele>312.57</ele>
        <time>2018-04-21T13:48:32Z</time>
      </trkpt>
      <trkpt lat="47.22651" lon="5.64753">
        <ele>315.45</ele>
        <time>2018-04-21T13:48:47Z</time>
      </trkpt>
      <trkpt lat="47.22672" lon="5.64763">
        <ele>317.85</ele>
        <time>2018-04-21T13:49:01Z</time>
      </trkpt>
      <trkpt lat="47.22696" lon="5.64773">
        <ele>320.26</ele>
        <time>2018-04-21T13:49:18Z</time>
      </trkpt>
      <trkpt lat="47.22716" lon="5.64784">
        <ele>321.7</ele>
        <time>2018-04-21T13:49:32Z</time>
      </trkpt>
      <trkpt lat="47.22738" lon="5.64796">
        <ele>324.1</ele>
        <time>2018-04-21T13:49:47Z</time>
      </trkpt>
      <trkpt lat="47.22747" lon="5.64803">
        <ele>325.06</ele>
        <time>2018-04-21T13:49:54Z</time>
      </trkpt>
      <trkpt lat="47.22771" lon="5.64815">
        <ele>326.99</ele>
        <time>2018-04-21T13:50:11Z</time>
      </trkpt>
      <trkpt lat="47.22791" lon="5.64829">
        <ele>328.43</ele>
        <time>2018-04-21T13:50:25Z</time>
      </trkpt>
      <trkpt lat="47.22799" lon="5.64839">
        <ele>329.39</ele>
        <time>2018-04-21T13:50:33Z</time>
      </trkpt>
      <trkpt lat="47.22822" lon="5.64863">
        <ele>331.31</ele>
        <time>2018-04-21T13:50:51Z</time>
      </trkpt>
      <trkpt lat="47.22826" lon="5.64869">
        <ele>331.79</ele>
        <time>2018-04-21T13:50:55Z</time>
      </trkpt>
      <trkpt lat="47.22844" lon="5.64891">
        <ele>333.23</ele>
        <time>2018-04-21T13:51:11Z</time>
      </trkpt>
      <trkpt lat="47.22848" lon="5.64899">
        <ele>333.23</ele>
        <time>2018-04-21T13:51:16Z</time>
      </trkpt>
      <trkpt lat="47.2286" lon="5.64907">
        <ele>333.71</ele>
        <time>2018-04-21T13:51:32Z</time>
      </trkpt>
      <trkpt lat="47.22862" lon="5.64907">
        <ele>333.71</ele>
        <time>2018-04-21T13:51:54Z</time>
      </trkpt>
      <trkpt lat="47.22863" lon="5.64907">
        <ele>333.71</ele>
        <time>2018-04-21T13:52:20Z</time>
      </trkpt>
      <trkpt lat="47.22863" lon="5.64906">
        <ele>334.2</ele>
        <time>2018-04-21T13:52:41Z</time>
      </trkpt>
      <trkpt lat="47.22863" lon="5.64907">
        <ele>334.2</ele>
        <time>2018-04-21T13:53:08Z</time>
      </trkpt>
      <trkpt lat="47.22863" lon="5.64908">
        <ele>334.2</ele>
        <time>2018-04-21T13:53:41Z</time>
      </trkpt>
      <trkpt lat="47.22865" lon="5.64909">
        <ele>334.68</ele>
        <time>2018-04-21T13:53:59Z</time>
      </trkpt>
      <trkpt lat="47.22866" lon="5.6491">
        <ele>334.68</ele>
        <time>2018-04-21T13:54:00Z</time>
      </trkpt>
      <trkpt lat="47.22873" lon="5.64915">
        <ele>334.68</ele>
        <time>2018-04-21T13:54:07Z</time>
      </trkpt>
      <trkpt lat="47.22876" lon="5.64918">
        <ele>334.68</ele>
        <time>2018-04-21T13:54:10Z</time>
      </trkpt>
      <trkpt lat="47.22891" lon="5.64905">
        <ele>332.75</ele>
        <time>2018-04-21T13:54:19Z</time>
      </trkpt>
      <trkpt lat="47.22895" lon="5.649">
        <ele>332.27</ele>
        <time>2018-04-21T13:54:21Z</time>
      </trkpt>
      <trkpt lat="47.22902" lon="5.64888">
        <ele>329.87</ele>
        <time>2018-04-21T13:54:25Z</time>
      </trkpt>
      <trkpt lat="47.22907" lon="5.64882">
        <ele>328.43</ele>
        <time>2018-04-21T13:54:28Z</time>
      </trkpt>
      <trkpt lat="47.22917" lon="5.64861">
        <ele>326.5</ele>
        <time>2018-04-21T13:54:33Z</time>
      </trkpt>
      <trkpt lat="47.22925" lon="5.6484">
        <ele>323.14</ele>
        <time>2018-04-21T13:54:38Z</time>
      </trkpt>
      <trkpt lat="47.22937" lon="5.64834">
        <ele>322.18</ele>
        <time>2018-04-21T13:54:45Z</time>
      </trkpt>
      <trkpt lat="47.22942" lon="5.64838">
        <ele>322.18</ele>
        <time>2018-04-21T13:54:48Z</time>
      </trkpt>
      <trkpt lat="47.22955" lon="5.64838">
        <ele>322.18</ele>
        <time>2018-04-21T13:54:55Z</time>
      </trkpt>
      <trkpt lat="47.2297" lon="5.64833">
        <ele>320.26</ele>
        <time>2018-04-21T13:55:00Z</time>
      </trkpt>
      <trkpt lat="47.22976" lon="5.64834">
        <ele>320.26</ele>
        <time>2018-04-21T13:55:02Z</time>
      </trkpt>
      <trkpt lat="47.22991" lon="5.64853">
        <ele>321.7</ele>
        <time>2018-04-21T13:55:10Z</time>
      </trkpt>
      <trkpt lat="47.23002" lon="5.64873">
        <ele>323.14</ele>
        <time>2018-04-21T13:55:18Z</time>
      </trkpt>
      <trkpt lat="47.23007" lon="5.64893">
        <ele>324.58</ele>
        <time>2018-04-21T13:55:25Z</time>
      </trkpt>
      <trkpt lat="47.23007" lon="5.649">
        <ele>325.54</ele>
        <time>2018-04-21T13:55:27Z</time>
      </trkpt>
      <trkpt lat="47.2301" lon="5.64915">
        <ele>326.5</ele>
        <time>2018-04-21T13:55:31Z</time>
      </trkpt>
      <trkpt lat="47.23019" lon="5.64919">
        <ele>326.5</ele>
        <time>2018-04-21T13:55:35Z</time>
      </trkpt>
      <trkpt lat="47.23058" lon="5.64942">
        <ele>324.58</ele>
        <time>2018-04-21T13:55:46Z</time>
      </trkpt>
      <trkpt lat="47.2307" lon="5.64947">
        <ele>324.1</ele>
        <time>2018-04-21T13:55:49Z</time>
      </trkpt>
      <trkpt lat="47.23097" lon="5.64965">
        <ele>322.18</ele>
        <time>2018-04-21T13:55:55Z</time>
      </trkpt>
      <trkpt lat="47.23119" lon="5.64978">
        <ele>319.78</ele>
        <time>2018-04-21T13:56:00Z</time>
      </trkpt>
      <trkpt lat="47.2315" lon="5.65002">
        <ele>316.41</ele>
        <time>2018-04-21T13:56:10Z</time>
      </trkpt>
      <trkpt lat="47.23155" lon="5.65007">
        <ele>315.45</ele>
        <time>2018-04-21T13:56:12Z</time>
      </trkpt>
      <trkpt lat="47.23168" lon="5.65016">
        <ele>311.6</ele>
        <time>2018-04-21T13:56:16Z</time>
      </trkpt>
      <trkpt lat="47.2318" lon="5.65026">
        <ele>309.68</ele>
        <time>2018-04-21T13:56:20Z</time>
      </trkpt>
      <trkpt lat="47.23184" lon="5.6503">
        <ele>308.24</ele>
        <time>2018-04-21T13:56:23Z</time>
      </trkpt>
      <trkpt lat="47.23201" lon="5.65043">
        <ele>304.88</ele>
        <time>2018-04-21T13:56:29Z</time>
      </trkpt>
      <trkpt lat="47.23215" lon="5.65052">
        <ele>301.99</ele>
        <time>2018-04-21T13:56:34Z</time>
      </trkpt>
      <trkpt lat="47.23232" lon="5.65064">
        <ele>299.11</ele>
        <time>2018-04-21T13:56:40Z</time>
      </trkpt>
      <trkpt lat="47.23249" lon="5.6507">
        <ele>297.18</ele>
        <time>2018-04-21T13:56:44Z</time>
      </trkpt>
      <trkpt lat="47.23273" lon="5.65084">
        <ele>292.86</ele>
        <time>2018-04-21T13:56:50Z</time>
      </trkpt>
      <trkpt lat="47.23282" lon="5.65091">
        <ele>290.94</ele>
        <time>2018-04-21T13:56:53Z</time>
      </trkpt>
      <trkpt lat="47.233" lon="5.65106">
        <ele>286.13</ele>
        <time>2018-04-21T13:56:58Z</time>
      </trkpt>
      <trkpt lat="47.23305" lon="5.65109">
        <ele>285.17</ele>
        <time>2018-04-21T13:56:59Z</time>
      </trkpt>
      <trkpt lat="47.23329" lon="5.65123">
        <ele>278.92</ele>
        <time>2018-04-21T13:57:03Z</time>
      </trkpt>
      <trkpt lat="47.23334" lon="5.65127">
        <ele>277</ele>
        <time>2018-04-21T13:57:04Z</time>
      </trkpt>
      <trkpt lat="47.23363" lon="5.65144">
        <ele>274.11</ele>
        <time>2018-04-21T13:57:09Z</time>
      </trkpt>
      <trkpt lat="47.2338" lon="5.65153">
        <ele>270.27</ele>
        <time>2018-04-21T13:57:14Z</time>
      </trkpt>
      <trkpt lat="47.2339" lon="5.65162">
        <ele>267.38</ele>
        <time>2018-04-21T13:57:18Z</time>
      </trkpt>
      <trkpt lat="47.23405" lon="5.65173">
        <ele>264.5</ele>
        <time>2018-04-21T13:57:22Z</time>
      </trkpt>
      <trkpt lat="47.23421" lon="5.65184">
        <ele>262.1</ele>
        <time>2018-04-21T13:57:25Z</time>
      </trkpt>
      <trkpt lat="47.23461" lon="5.65209">
        <ele>258.73</ele>
        <time>2018-04-21T13:57:32Z</time>
      </trkpt>
      <trkpt lat="47.23474" lon="5.65218">
        <ele>258.25</ele>
        <time>2018-04-21T13:57:34Z</time>
      </trkpt>
      <trkpt lat="47.23497" lon="5.65233">
        <ele>257.29</ele>
        <time>2018-04-21T13:57:45Z</time>
      </trkpt>
      <trkpt lat="47.23502" lon="5.65239">
        <ele>257.29</ele>
        <time>2018-04-21T13:58:06Z</time>
      </trkpt>
      <trkpt lat="47.23503" lon="5.65239">
        <ele>257.77</ele>
        <time>2018-04-21T13:58:17Z</time>
      </trkpt>
      <trkpt lat="47.23512" lon="5.65235">
        <ele>255.85</ele>
        <time>2018-04-21T13:58:21Z</time>
      </trkpt>
      <trkpt lat="47.23525" lon="5.65222">
        <ele>253.44</ele>
        <time>2018-04-21T13:58:25Z</time>
      </trkpt>
      <trkpt lat="47.23552" lon="5.65207">
        <ele>252.48</ele>
        <time>2018-04-21T13:58:32Z</time>
      </trkpt>
      <trkpt lat="47.23572" lon="5.65236">
        <ele>251.04</ele>
        <time>2018-04-21T13:58:39Z</time>
      </trkpt>
      <trkpt lat="47.23609" lon="5.65295">
        <ele>247.68</ele>
        <time>2018-04-21T13:58:48Z</time>
      </trkpt>
      <trkpt lat="47.23647" lon="5.65331">
        <ele>245.27</ele>
        <time>2018-04-21T13:58:54Z</time>
      </trkpt>
      <trkpt lat="47.23692" lon="5.65357">
        <ele>246.23</ele>
        <time>2018-04-21T13:59:01Z</time>
      </trkpt>
      <trkpt lat="47.23713" lon="5.6538">
        <ele>246.72</ele>
        <time>2018-04-21T13:59:06Z</time>
      </trkpt>
      <trkpt lat="47.2372" lon="5.65391">
        <ele>246.23</ele>
        <time>2018-04-21T13:59:08Z</time>
      </trkpt>
      <trkpt lat="47.23729" lon="5.6541">
        <ele>245.75</ele>
        <time>2018-04-21T13:59:11Z</time>
      </trkpt>
      <trkpt lat="47.23766" lon="5.65545">
        <ele>243.83</ele>
        <time>2018-04-21T13:59:28Z</time>
      </trkpt>
      <trkpt lat="47.23781" lon="5.65669">
        <ele>240.47</ele>
        <time>2018-04-21T13:59:41Z</time>
      </trkpt>
      <trkpt lat="47.23789" lon="5.65768">
        <ele>237.58</ele>
        <time>2018-04-21T13:59:50Z</time>
      </trkpt>
      <trkpt lat="47.23824" lon="5.65929">
        <ele>234.7</ele>
        <time>2018-04-21T14:00:05Z</time>
      </trkpt>
      <trkpt lat="47.23882" lon="5.66087">
        <ele>231.81</ele>
        <time>2018-04-21T14:00:22Z</time>
      </trkpt>
      <trkpt lat="47.23924" lon="5.66183">
        <ele>232.78</ele>
        <time>2018-04-21T14:00:36Z</time>
      </trkpt>
      <trkpt lat="47.23935" lon="5.66208">
        <ele>232.3</ele>
        <time>2018-04-21T14:00:40Z</time>
      </trkpt>
      <trkpt lat="47.23946" lon="5.66234">
        <ele>232.3</ele>
        <time>2018-04-21T14:00:44Z</time>
      </trkpt>
      <trkpt lat="47.23961" lon="5.66266">
        <ele>232.78</ele>
        <time>2018-04-21T14:00:50Z</time>
      </trkpt>
      <trkpt lat="47.2398" lon="5.66311">
        <ele>232.3</ele>
        <time>2018-04-21T14:00:59Z</time>
      </trkpt>
      <trkpt lat="47.23988" lon="5.66326">
        <ele>232.3</ele>
        <time>2018-04-21T14:01:02Z</time>
      </trkpt>
      <trkpt lat="47.24025" lon="5.66383">
        <ele>228.93</ele>
        <time>2018-04-21T14:01:13Z</time>
      </trkpt>
      <trkpt lat="47.24034" lon="5.66394">
        <ele>227.97</ele>
        <time>2018-04-21T14:01:15Z</time>
      </trkpt>
      <trkpt lat="47.24086" lon="5.66454">
        <ele>225.09</ele>
        <time>2018-04-21T14:01:24Z</time>
      </trkpt>
      <trkpt lat="47.24139" lon="5.66514">
        <ele>222.2</ele>
        <time>2018-04-21T14:01:33Z</time>
      </trkpt>
      <trkpt lat="47.24151" lon="5.66557">
        <ele>221.72</ele>
        <time>2018-04-21T14:01:42Z</time>
      </trkpt>
      <trkpt lat="47.24169" lon="5.66539">
        <ele>219.8</ele>
        <time>2018-04-21T14:01:49Z</time>
      </trkpt>
      <trkpt lat="47.24177" lon="5.66512">
        <ele>219.32</ele>
        <time>2018-04-21T14:01:53Z</time>
      </trkpt>
      <trkpt lat="47.24189" lon="5.6647">
        <ele>220.28</ele>
        <time>2018-04-21T14:02:00Z</time>
      </trkpt>
      <trkpt lat="47.24196" lon="5.66447">
        <ele>220.76</ele>
        <time>2018-04-21T14:02:04Z</time>
      </trkpt>
      <trkpt lat="47.24215" lon="5.66381">
        <ele>222.68</ele>
        <time>2018-04-21T14:02:18Z</time>
      </trkpt>
      <trkpt lat="47.24227" lon="5.66327">
        <ele>225.09</ele>
        <time>2018-04-21T14:02:33Z</time>
      </trkpt>
      <trkpt lat="47.24236" lon="5.66269">
        <ele>226.05</ele>
        <time>2018-04-21T14:02:48Z</time>
      </trkpt>
      <trkpt lat="47.24243" lon="5.66202">
        <ele>226.05</ele>
        <time>2018-04-21T14:03:03Z</time>
      </trkpt>
      <trkpt lat="47.24251" lon="5.6614">
        <ele>226.53</ele>
        <time>2018-04-21T14:03:16Z</time>
      </trkpt>
      <trkpt lat="47.2426" lon="5.66068">
        <ele>228.45</ele>
        <time>2018-04-21T14:03:31Z</time>
      </trkpt>
      <trkpt lat="47.24269" lon="5.65995">
        <ele>229.41</ele>
        <time>2018-04-21T14:03:46Z</time>
      </trkpt>
      <trkpt lat="47.24281" lon="5.65906">
        <ele>230.37</ele>
        <time>2018-04-21T14:04:04Z</time>
      </trkpt>
      <trkpt lat="47.24292" lon="5.65835">
        <ele>231.81</ele>
        <time>2018-04-21T14:04:19Z</time>
      </trkpt>
      <trkpt lat="47.24295" lon="5.65814">
        <ele>232.78</ele>
        <time>2018-04-21T14:04:24Z</time>
      </trkpt>
      <trkpt lat="47.24289" lon="5.65807">
        <ele>233.74</ele>
        <time>2018-04-21T14:04:30Z</time>
      </trkpt>
      <trkpt lat="47.24288" lon="5.65791">
        <ele>234.22</ele>
        <time>2018-04-21T14:04:36Z</time>
      </trkpt>
      <trkpt lat="47.24293" lon="5.6574">
        <ele>236.14</ele>
        <time>2018-04-21T14:04:51Z</time>
      </trkpt>
      <trkpt lat="47.24291" lon="5.65689">
        <ele>238.06</ele>
        <time>2018-04-21T14:05:06Z</time>
      </trkpt>
      <trkpt lat="47.24288" lon="5.65646">
        <ele>239.02</ele>
        <time>2018-04-21T14:05:18Z</time>
      </trkpt>
      <trkpt lat="47.24286" lon="5.65609">
        <ele>240.95</ele>
        <time>2018-04-21T14:05:30Z</time>
      </trkpt>
      <trkpt lat="47.24285" lon="5.65602">
        <ele>241.43</ele>
        <time>2018-04-21T14:05:32Z</time>
      </trkpt>
      <trkpt lat="47.24286" lon="5.65542">
        <ele>243.35</ele>
        <time>2018-04-21T14:05:48Z</time>
      </trkpt>
      <trkpt lat="47.24294" lon="5.65477">
        <ele>244.31</ele>
        <time>2018-04-21T14:06:04Z</time>
      </trkpt>
      <trkpt lat="47.24305" lon="5.65402">
        <ele>242.87</ele>
        <time>2018-04-21T14:06:18Z</time>
      </trkpt>
      <trkpt lat="47.24323" lon="5.65297">
        <ele>241.43</ele>
        <time>2018-04-21T14:06:33Z</time>
      </trkpt>
      <trkpt lat="47.24326" lon="5.65277">
        <ele>241.43</ele>
        <time>2018-04-21T14:06:36Z</time>
      </trkpt>
      <trkpt lat="47.24332" lon="5.65196">
        <ele>240.95</ele>
        <time>2018-04-21T14:06:48Z</time>
      </trkpt>
      <trkpt lat="47.24331" lon="5.65177">
        <ele>240.95</ele>
        <time>2018-04-21T14:06:51Z</time>
      </trkpt>
      <trkpt lat="47.24317" lon="5.65064">
        <ele>238.54</ele>
        <time>2018-04-21T14:07:07Z</time>
      </trkpt>
      <trkpt lat="47.24315" lon="5.65047">
        <ele>238.06</ele>
        <time>2018-04-21T14:07:09Z</time>
      </trkpt>
      <trkpt lat="47.24319" lon="5.64918">
        <ele>234.7</ele>
        <time>2018-04-21T14:07:22Z</time>
      </trkpt>
      <trkpt lat="47.24337" lon="5.64848">
        <ele>232.78</ele>
        <time>2018-04-21T14:07:29Z</time>
      </trkpt>
      <trkpt lat="47.24391" lon="5.64741">
        <ele>229.89</ele>
        <time>2018-04-21T14:07:41Z</time>
      </trkpt>
      <trkpt lat="47.24432" lon="5.64679">
        <ele>226.05</ele>
        <time>2018-04-21T14:07:48Z</time>
      </trkpt>
      <trkpt lat="47.24464" lon="5.64615">
        <ele>222.2</ele>
        <time>2018-04-21T14:07:54Z</time>
      </trkpt>
      <trkpt lat="47.24473" lon="5.64594">
        <ele>221.72</ele>
        <time>2018-04-21T14:07:56Z</time>
      </trkpt>
      <trkpt lat="47.2448" lon="5.64575">
        <ele>221.72</ele>
        <time>2018-04-21T14:07:59Z</time>
      </trkpt>
      <trkpt lat="47.24496" lon="5.64582">
        <ele>219.8</ele>
        <time>2018-04-21T14:08:04Z</time>
      </trkpt>
      <trkpt lat="47.24492" lon="5.64601">
        <ele>220.28</ele>
        <time>2018-04-21T14:08:07Z</time>
      </trkpt>
      <trkpt lat="47.2448" lon="5.64623">
        <ele>220.76</ele>
        <time>2018-04-21T14:08:11Z</time>
      </trkpt>
      <trkpt lat="47.24458" lon="5.64681">
        <ele>224.12</ele>
        <time>2018-04-21T14:08:24Z</time>
      </trkpt>
      <trkpt lat="47.24458" lon="5.64727">
        <ele>225.57</ele>
        <time>2018-04-21T14:08:36Z</time>
      </trkpt>
      <trkpt lat="47.24474" lon="5.64772">
        <ele>227.49</ele>
        <time>2018-04-21T14:08:49Z</time>
      </trkpt>
      <trkpt lat="47.24495" lon="5.64833">
        <ele>228.45</ele>
        <time>2018-04-21T14:09:04Z</time>
      </trkpt>
      <trkpt lat="47.24513" lon="5.6489">
        <ele>229.89</ele>
        <time>2018-04-21T14:09:17Z</time>
      </trkpt>
      <trkpt lat="47.24537" lon="5.64977">
        <ele>230.85</ele>
        <time>2018-04-21T14:09:35Z</time>
      </trkpt>
      <trkpt lat="47.24551" lon="5.65045">
        <ele>232.3</ele>
        <time>2018-04-21T14:09:48Z</time>
      </trkpt>
      <trkpt lat="47.2457" lon="5.65136">
        <ele>230.37</ele>
        <time>2018-04-21T14:10:04Z</time>
      </trkpt>
      <trkpt lat="47.24577" lon="5.65197">
        <ele>226.53</ele>
        <time>2018-04-21T14:10:11Z</time>
      </trkpt>
      <trkpt lat="47.24579" lon="5.65207">
        <ele>226.53</ele>
        <time>2018-04-21T14:10:12Z</time>
      </trkpt>
      <trkpt lat="47.24589" lon="5.65256">
        <ele>227.49</ele>
        <time>2018-04-21T14:10:18Z</time>
      </trkpt>
      <trkpt lat="47.2461" lon="5.65344">
        <ele>226.05</ele>
        <time>2018-04-21T14:10:30Z</time>
      </trkpt>
      <trkpt lat="47.24625" lon="5.65448">
        <ele>222.68</ele>
        <time>2018-04-21T14:10:41Z</time>
      </trkpt>
      <trkpt lat="47.2463" lon="5.65481">
        <ele>220.28</ele>
        <time>2018-04-21T14:10:44Z</time>
      </trkpt>
      <trkpt lat="47.24646" lon="5.65526">
        <ele>216.91</ele>
        <time>2018-04-21T14:10:48Z</time>
      </trkpt>
      <trkpt lat="47.2465" lon="5.65536">
        <ele>216.43</ele>
        <time>2018-04-21T14:10:49Z</time>
      </trkpt>
      <trkpt lat="47.2468" lon="5.65547">
        <ele>216.43</ele>
        <time>2018-04-21T14:10:54Z</time>
      </trkpt>
      <trkpt lat="47.24695" lon="5.6554">
        <ele>216.91</ele>
        <time>2018-04-21T14:10:57Z</time>
      </trkpt>
      <trkpt lat="47.24724" lon="5.65521">
        <ele>216.91</ele>
        <time>2018-04-21T14:11:05Z</time>
      </trkpt>
      <trkpt lat="47.24738" lon="5.65507">
        <ele>215.95</ele>
        <time>2018-04-21T14:11:09Z</time>
      </trkpt>
      <trkpt lat="47.24782" lon="5.65435">
        <ele>213.55</ele>
        <time>2018-04-21T14:11:22Z</time>
      </trkpt>
      <trkpt lat="47.2479" lon="5.6542">
        <ele>213.07</ele>
        <time>2018-04-21T14:11:24Z</time>
      </trkpt>
      <trkpt lat="47.24809" lon="5.65398">
        <ele>212.59</ele>
        <time>2018-04-21T14:11:28Z</time>
      </trkpt>
      <trkpt lat="47.24825" lon="5.65357">
        <ele>212.59</ele>
        <time>2018-04-21T14:11:33Z</time>
      </trkpt>
      <trkpt lat="47.24842" lon="5.65322">
        <ele>212.59</ele>
        <time>2018-04-21T14:11:38Z</time>
      </trkpt>
      <trkpt lat="47.24857" lon="5.65291">
        <ele>213.55</ele>
        <time>2018-04-21T14:11:43Z</time>
      </trkpt>
      <trkpt lat="47.2487" lon="5.65261">
        <ele>214.03</ele>
        <time>2018-04-21T14:11:48Z</time>
      </trkpt>
      <trkpt lat="47.24894" lon="5.65212">
        <ele>214.99</ele>
        <time>2018-04-21T14:11:57Z</time>
      </trkpt>
      <trkpt lat="47.2492" lon="5.65169">
        <ele>214.51</ele>
        <time>2018-04-21T14:12:05Z</time>
      </trkpt>
      <trkpt lat="47.24945" lon="5.65126">
        <ele>214.03</ele>
        <time>2018-04-21T14:12:13Z</time>
      </trkpt>
      <trkpt lat="47.24962" lon="5.65096">
        <ele>214.03</ele>
        <time>2018-04-21T14:12:19Z</time>
      </trkpt>
      <trkpt lat="47.24993" lon="5.65043">
        <ele>211.63</ele>
        <time>2018-04-21T14:12:28Z</time>
      </trkpt>
      <trkpt lat="47.25027" lon="5.65009">
        <ele>209.7</ele>
        <time>2018-04-21T14:12:36Z</time>
      </trkpt>
      <trkpt lat="47.25097" lon="5.65018">
        <ele>206.82</ele>
        <time>2018-04-21T14:12:47Z</time>
      </trkpt>
      <trkpt lat="47.25119" lon="5.65036">
        <ele>205.86</ele>
        <time>2018-04-21T14:12:51Z</time>
      </trkpt>
      <trkpt lat="47.25132" lon="5.65059">
        <ele>204.42</ele>
        <time>2018-04-21T14:12:54Z</time>
      </trkpt>
      <trkpt lat="47.25139" lon="5.65076">
        <ele>203.94</ele>
        <time>2018-04-21T14:12:56Z</time>
      </trkpt>
      <trkpt lat="47.25153" lon="5.65128">
        <ele>203.94</ele>
        <time>2018-04-21T14:13:02Z</time>
      </trkpt>
      <trkpt lat="47.25182" lon="5.65197">
        <ele>206.82</ele>
        <time>2018-04-21T14:13:15Z</time>
      </trkpt>
      <trkpt lat="47.25212" lon="5.65237">
        <ele>209.22</ele>
        <time>2018-04-21T14:13:29Z</time>
      </trkpt>
      <trkpt lat="47.25251" lon="5.65291">
        <ele>206.34</ele>
        <time>2018-04-21T14:13:40Z</time>
      </trkpt>
      <trkpt lat="47.25292" lon="5.65353">
        <ele>205.86</ele>
        <time>2018-04-21T14:13:51Z</time>
      </trkpt>
      <trkpt lat="47.25311" lon="5.65402">
        <ele>205.38</ele>
        <time>2018-04-21T14:13:59Z</time>
      </trkpt>
      <trkpt lat="47.25321" lon="5.65418">
        <ele>205.38</ele>
        <time>2018-04-21T14:14:02Z</time>
      </trkpt>
      <trkpt lat="47.25341" lon="5.65436">
        <ele>205.38</ele>
        <time>2018-04-21T14:14:07Z</time>
      </trkpt>
      <trkpt lat="47.25373" lon="5.65446">
        <ele>205.38</ele>
        <time>2018-04-21T14:14:14Z</time>
      </trkpt>
      <trkpt lat="47.25437" lon="5.6546">
        <ele>204.42</ele>
        <time>2018-04-21T14:14:28Z</time>
      </trkpt>
      <trkpt lat="47.25463" lon="5.6547">
        <ele>204.42</ele>
        <time>2018-04-21T14:14:34Z</time>
      </trkpt>
      <trkpt lat="47.25525" lon="5.65535">
        <ele>204.9</ele>
        <time>2018-04-21T14:14:51Z</time>
      </trkpt>
      <trkpt lat="47.2557" lon="5.65575">
        <ele>204.9</ele>
        <time>2018-04-21T14:15:06Z</time>
      </trkpt>
      <trkpt lat="47.25621" lon="5.65586">
        <ele>204.9</ele>
        <time>2018-04-21T14:15:21Z</time>
      </trkpt>
      <trkpt lat="47.25679" lon="5.65619">
        <ele>205.86</ele>
        <time>2018-04-21T14:15:37Z</time>
      </trkpt>
      <trkpt lat="47.25725" lon="5.65664">
        <ele>206.34</ele>
        <time>2018-04-21T14:15:52Z</time>
      </trkpt>
      <trkpt lat="47.25758" lon="5.65721">
        <ele>207.3</ele>
        <time>2018-04-21T14:16:06Z</time>
      </trkpt>
      <trkpt lat="47.25789" lon="5.6576">
        <ele>207.78</ele>
        <time>2018-04-21T14:16:17Z</time>
      </trkpt>
      <trkpt lat="47.25825" lon="5.65744">
        <ele>208.26</ele>
        <time>2018-04-21T14:16:27Z</time>
      </trkpt>
      <trkpt lat="47.25873" lon="5.65712">
        <ele>210.19</ele>
        <time>2018-04-21T14:16:41Z</time>
      </trkpt>
      <trkpt lat="47.25917" lon="5.65679">
        <ele>211.63</ele>
        <time>2018-04-21T14:16:55Z</time>
      </trkpt>
      <trkpt lat="47.25968" lon="5.65642">
        <ele>213.07</ele>
        <time>2018-04-21T14:17:11Z</time>
      </trkpt>
      <trkpt lat="47.26009" lon="5.65614">
        <ele>212.59</ele>
        <time>2018-04-21T14:17:24Z</time>
      </trkpt>
      <trkpt lat="47.26019" lon="5.65624">
        <ele>212.59</ele>
        <time>2018-04-21T14:17:28Z</time>
      </trkpt>
      <trkpt lat="47.26027" lon="5.6564">
        <ele>212.59</ele>
        <time>2018-04-21T14:17:33Z</time>
      </trkpt>
      <trkpt lat="47.26033" lon="5.65637">
        <ele>212.59</ele>
        <time>2018-04-21T14:17:37Z</time>
      </trkpt>
      <trkpt lat="47.26046" lon="5.6556">
        <ele>209.22</ele>
        <time>2018-04-21T14:17:50Z</time>
      </trkpt>
      <trkpt lat="47.26051" lon="5.65534">
        <ele>207.3</ele>
        <time>2018-04-21T14:17:53Z</time>
      </trkpt>
      <trkpt lat="47.26056" lon="5.6552">
        <ele>206.82</ele>
        <time>2018-04-21T14:17:55Z</time>
      </trkpt>
      <trkpt lat="47.26076" lon="5.65523">
        <ele>206.34</ele>
        <time>2018-04-21T14:18:00Z</time>
      </trkpt>
      <trkpt lat="47.261" lon="5.65572">
        <ele>208.26</ele>
        <time>2018-04-21T14:18:12Z</time>
      </trkpt>
      <trkpt lat="47.26125" lon="5.65612">
        <ele>209.22</ele>
        <time>2018-04-21T14:18:26Z</time>
      </trkpt>
      <trkpt lat="47.26142" lon="5.65633">
        <ele>209.22</ele>
        <time>2018-04-21T14:18:36Z</time>
      </trkpt>
      <trkpt lat="47.26146" lon="5.65632">
        <ele>209.22</ele>
        <time>2018-04-21T14:18:40Z</time>
      </trkpt>
      <trkpt lat="47.26145" lon="5.65627">
        <ele>209.22</ele>
        <time>2018-04-21T14:18:51Z</time>
      </trkpt>
      <trkpt lat="47.26146" lon="5.65627">
        <ele>209.22</ele>
        <time>2018-04-21T14:19:11Z</time>
      </trkpt>
      <trkpt lat="47.26143" lon="5.65628">
        <ele>209.22</ele>
        <time>2018-04-21T14:19:44Z</time>
      </trkpt>
      <trkpt lat="47.26143" lon="5.65631">
        <ele>208.74</ele>
        <time>2018-04-21T14:20:24Z</time>
      </trkpt>
      <trkpt lat="47.26143" lon="5.65631">
        <ele>209.22</ele>
        <time>2018-04-21T14:20:53Z</time>
      </trkpt>
      <trkpt lat="47.26144" lon="5.65631">
        <ele>208.74</ele>
        <time>2018-04-21T14:21:21Z</time>
      </trkpt>
      <trkpt lat="47.26145" lon="5.65629">
        <ele>209.22</ele>
        <time>2018-04-21T14:21:54Z</time>
      </trkpt>
      <trkpt lat="47.26145" lon="5.65628">
        <ele>208.74</ele>
        <time>2018-04-21T14:22:20Z</time>
      </trkpt>
      <trkpt lat="47.26144" lon="5.65631">
        <ele>208.74</ele>
        <time>2018-04-21T14:22:48Z</time>
      </trkpt>
      <trkpt lat="47.26144" lon="5.65633">
        <ele>208.74</ele>
        <time>2018-04-21T14:23:16Z</time>
      </trkpt>
      <trkpt lat="47.26143" lon="5.65633">
        <ele>208.74</ele>
        <time>2018-04-21T14:23:49Z</time>
      </trkpt>
      <trkpt lat="47.26144" lon="5.65632">
        <ele>208.74</ele>
        <time>2018-04-21T14:24:08Z</time>
      </trkpt>
      <trkpt lat="47.26144" lon="5.65631">
        <ele>208.74</ele>
        <time>2018-04-21T14:24:32Z</time>
      </trkpt>
      <trkpt lat="47.26144" lon="5.65632">
        <ele>208.74</ele>
        <time>2018-04-21T14:24:50Z</time>
      </trkpt>
      <trkpt lat="47.26141" lon="5.65634">
        <ele>208.74</ele>
        <time>2018-04-21T14:25:04Z</time>
      </trkpt>
      <trkpt lat="47.2614" lon="5.65634">
        <ele>208.74</ele>
        <time>2018-04-21T14:25:22Z</time>
      </trkpt>
      <trkpt lat="47.26139" lon="5.65633">
        <ele>208.74</ele>
        <time>2018-04-21T14:25:49Z</time>
      </trkpt>
      <trkpt lat="47.2614" lon="5.65633">
        <ele>208.74</ele>
        <time>2018-04-21T14:26:17Z</time>
      </trkpt>
      <trkpt lat="47.26141" lon="5.65632">
        <ele>208.74</ele>
        <time>2018-04-21T14:26:43Z</time>
      </trkpt>
      <trkpt lat="47.2614" lon="5.65633">
        <ele>208.74</ele>
        <time>2018-04-21T14:27:07Z</time>
      </trkpt>
      <trkpt lat="47.2614" lon="5.65633">
        <ele>208.74</ele>
        <time>2018-04-21T14:27:32Z</time>
      </trkpt>
      <trkpt lat="47.26139" lon="5.65634">
        <ele>208.74</ele>
        <time>2018-04-21T14:27:57Z</time>
      </trkpt>
      <trkpt lat="47.26141" lon="5.65634">
        <ele>208.74</ele>
        <time>2018-04-21T14:28:22Z</time>
      </trkpt>
      <trkpt lat="47.26141" lon="5.65635">
        <ele>208.74</ele>
        <time>2018-04-21T14:28:43Z</time>
      </trkpt>
      <trkpt lat="47.26141" lon="5.65635">
        <ele>208.74</ele>
        <time>2018-04-21T14:28:48Z</time>
      </trkpt>
      <trkpt lat="47.26136" lon="5.65633">
        <ele>209.22</ele>
        <time>2018-04-21T14:28:53Z</time>
      </trkpt>
      <trkpt lat="47.26131" lon="5.65625">
        <ele>208.74</ele>
        <time>2018-04-21T14:28:57Z</time>
      </trkpt>
      <trkpt lat="47.2612" lon="5.65612">
        <ele>208.74</ele>
        <time>2018-04-21T14:29:03Z</time>
      </trkpt>
      <trkpt lat="47.26096" lon="5.65609">
        <ele>209.7</ele>
        <time>2018-04-21T14:29:13Z</time>
      </trkpt>
      <trkpt lat="47.26072" lon="5.65644">
        <ele>211.63</ele>
        <time>2018-04-21T14:29:26Z</time>
      </trkpt>
      <trkpt lat="47.26039" lon="5.6568">
        <ele>212.11</ele>
        <time>2018-04-21T14:29:42Z</time>
      </trkpt>
      <trkpt lat="47.26009" lon="5.65708">
        <ele>211.15</ele>
        <time>2018-04-21T14:29:54Z</time>
      </trkpt>
      <trkpt lat="47.25974" lon="5.65744">
        <ele>210.67</ele>
        <time>2018-04-21T14:30:08Z</time>
      </trkpt>
      <trkpt lat="47.25936" lon="5.65786">
        <ele>210.19</ele>
        <time>2018-04-21T14:30:23Z</time>
      </trkpt>
      <trkpt lat="47.25924" lon="5.65819">
        <ele>209.7</ele>
        <time>2018-04-21T14:30:30Z</time>
      </trkpt>
      <trkpt lat="47.25922" lon="5.65844">
        <ele>209.22</ele>
        <time>2018-04-21T14:30:34Z</time>
      </trkpt>
      <trkpt lat="47.25924" lon="5.65864">
        <ele>209.22</ele>
        <time>2018-04-21T14:30:38Z</time>
      </trkpt>
      <trkpt lat="47.25924" lon="5.65907">
        <ele>208.74</ele>
        <time>2018-04-21T14:30:45Z</time>
      </trkpt>
      <trkpt lat="47.25926" lon="5.65924">
        <ele>209.22</ele>
        <time>2018-04-21T14:30:48Z</time>
      </trkpt>
      <trkpt lat="47.25933" lon="5.6597">
        <ele>209.7</ele>
        <time>2018-04-21T14:30:56Z</time>
      </trkpt>
      <trkpt lat="47.25934" lon="5.65987">
        <ele>209.7</ele>
        <time>2018-04-21T14:30:59Z</time>
      </trkpt>
      <trkpt lat="47.25937" lon="5.66041">
        <ele>210.67</ele>
        <time>2018-04-21T14:31:09Z</time>
      </trkpt>
      <trkpt lat="47.25938" lon="5.6607">
        <ele>210.67</ele>
        <time>2018-04-21T14:31:14Z</time>
      </trkpt>
      <trkpt lat="47.25946" lon="5.66092">
        <ele>210.19</ele>
        <time>2018-04-21T14:31:18Z</time>
      </trkpt>
      <trkpt lat="47.25948" lon="5.66104">
        <ele>209.7</ele>
        <time>2018-04-21T14:31:20Z</time>
      </trkpt>
      <trkpt lat="47.25954" lon="5.66186">
        <ele>206.34</ele>
        <time>2018-04-21T14:31:29Z</time>
      </trkpt>
      <trkpt lat="47.25956" lon="5.66213">
        <ele>206.34</ele>
        <time>2018-04-21T14:31:32Z</time>
      </trkpt>
      <trkpt lat="47.25962" lon="5.66271">
        <ele>205.86</ele>
        <time>2018-04-21T14:31:39Z</time>
      </trkpt>
      <trkpt lat="47.25963" lon="5.66279">
        <ele>205.86</ele>
        <time>2018-04-21T14:31:40Z</time>
      </trkpt>
      <trkpt lat="47.25976" lon="5.66349">
        <ele>205.38</ele>
        <time>2018-04-21T14:31:50Z</time>
      </trkpt>
      <trkpt lat="47.25982" lon="5.66362">
        <ele>205.38</ele>
        <time>2018-04-21T14:31:52Z</time>
      </trkpt>
      <trkpt lat="47.25984" lon="5.66376">
        <ele>204.9</ele>
        <time>2018-04-21T14:31:54Z</time>
      </trkpt>
      <trkpt lat="47.25986" lon="5.66391">
        <ele>204.9</ele>
        <time>2018-04-21T14:31:56Z</time>
      </trkpt>
      <trkpt lat="47.25991" lon="5.66412">
        <ele>204.9</ele>
        <time>2018-04-21T14:31:59Z</time>
      </trkpt>
      <trkpt lat="47.25991" lon="5.66445">
        <ele>204.9</ele>
        <time>2018-04-21T14:32:03Z</time>
      </trkpt>
      <trkpt lat="47.2599" lon="5.66473">
        <ele>205.38</ele>
        <time>2018-04-21T14:32:07Z</time>
      </trkpt>
      <trkpt lat="47.25999" lon="5.66599">
        <ele>204.9</ele>
        <time>2018-04-21T14:32:25Z</time>
      </trkpt>
      <trkpt lat="47.26004" lon="5.66637">
        <ele>205.38</ele>
        <time>2018-04-21T14:32:30Z</time>
      </trkpt>
      <trkpt lat="47.2601" lon="5.66692">
        <ele>205.86</ele>
        <time>2018-04-21T14:32:38Z</time>
      </trkpt>
      <trkpt lat="47.26014" lon="5.66734">
        <ele>205.86</ele>
        <time>2018-04-21T14:32:44Z</time>
      </trkpt>
      <trkpt lat="47.26024" lon="5.66829">
        <ele>207.3</ele>
        <time>2018-04-21T14:32:58Z</time>
      </trkpt>
      <trkpt lat="47.26029" lon="5.66865">
        <ele>207.78</ele>
        <time>2018-04-21T14:33:04Z</time>
      </trkpt>
      <trkpt lat="47.26038" lon="5.6695">
        <ele>210.19</ele>
        <time>2018-04-21T14:33:20Z</time>
      </trkpt>
      <trkpt lat="47.2604" lon="5.66987">
        <ele>212.11</ele>
        <time>2018-04-21T14:33:30Z</time>
      </trkpt>
      <trkpt lat="47.2604" lon="5.66993">
        <ele>212.59</ele>
        <time>2018-04-21T14:33:32Z</time>
      </trkpt>
      <trkpt lat="47.26044" lon="5.67018">
        <ele>214.99</ele>
        <time>2018-04-21T14:33:40Z</time>
      </trkpt>
      <trkpt lat="47.26045" lon="5.67034">
        <ele>216.43</ele>
        <time>2018-04-21T14:33:46Z</time>
      </trkpt>
      <trkpt lat="47.26051" lon="5.67068">
        <ele>219.32</ele>
        <time>2018-04-21T14:33:57Z</time>
      </trkpt>
      <trkpt lat="47.26055" lon="5.67091">
        <ele>220.76</ele>
        <time>2018-04-21T14:34:04Z</time>
      </trkpt>
      <trkpt lat="47.2606" lon="5.67101">
        <ele>221.24</ele>
        <time>2018-04-21T14:34:08Z</time>
      </trkpt>
      <trkpt lat="47.26061" lon="5.67106">
        <ele>221.24</ele>
        <time>2018-04-21T14:34:10Z</time>
      </trkpt>
      <trkpt lat="47.26064" lon="5.67113">
        <ele>221.24</ele>
        <time>2018-04-21T14:34:12Z</time>
      </trkpt>
      <trkpt lat="47.26061" lon="5.67137">
        <ele>220.76</ele>
        <time>2018-04-21T14:34:19Z</time>
      </trkpt>
      <trkpt lat="47.26077" lon="5.67182">
        <ele>220.76</ele>
        <time>2018-04-21T14:34:30Z</time>
      </trkpt>
      <trkpt lat="47.26083" lon="5.67253">
        <ele>220.28</ele>
        <time>2018-04-21T14:34:44Z</time>
      </trkpt>
      <trkpt lat="47.26086" lon="5.67294">
        <ele>219.32</ele>
        <time>2018-04-21T14:34:52Z</time>
      </trkpt>
      <trkpt lat="47.2609" lon="5.6732">
        <ele>218.36</ele>
        <time>2018-04-21T14:34:56Z</time>
      </trkpt>
      <trkpt lat="47.26093" lon="5.67342">
        <ele>217.88</ele>
        <time>2018-04-21T14:34:59Z</time>
      </trkpt>
      <trkpt lat="47.26096" lon="5.67385">
        <ele>216.43</ele>
        <time>2018-04-21T14:35:04Z</time>
      </trkpt>
      <trkpt lat="47.26106" lon="5.6748">
        <ele>213.07</ele>
        <time>2018-04-21T14:35:14Z</time>
      </trkpt>
      <trkpt lat="47.26111" lon="5.67532">
        <ele>211.15</ele>
        <time>2018-04-21T14:35:19Z</time>
      </trkpt>
      <trkpt lat="47.26113" lon="5.67553">
        <ele>210.19</ele>
        <time>2018-04-21T14:35:21Z</time>
      </trkpt>
      <trkpt lat="47.26117" lon="5.67596">
        <ele>209.22</ele>
        <time>2018-04-21T14:35:25Z</time>
      </trkpt>
      <trkpt lat="47.26118" lon="5.67649">
        <ele>207.78</ele>
        <time>2018-04-21T14:35:30Z</time>
      </trkpt>
      <trkpt lat="47.26122" lon="5.67679">
        <ele>207.3</ele>
        <time>2018-04-21T14:35:33Z</time>
      </trkpt>
      <trkpt lat="47.26127" lon="5.67727">
        <ele>207.78</ele>
        <time>2018-04-21T14:35:38Z</time>
      </trkpt>
      <trkpt lat="47.26128" lon="5.6775">
        <ele>208.74</ele>
        <time>2018-04-21T14:35:41Z</time>
      </trkpt>
      <trkpt lat="47.26131" lon="5.67786">
        <ele>209.7</ele>
        <time>2018-04-21T14:35:46Z</time>
      </trkpt>
      <trkpt lat="47.2614" lon="5.67828">
        <ele>210.67</ele>
        <time>2018-04-21T14:35:52Z</time>
      </trkpt>
      <trkpt lat="47.26144" lon="5.67855">
        <ele>211.63</ele>
        <time>2018-04-21T14:35:56Z</time>
      </trkpt>
      <trkpt lat="47.26155" lon="5.67921">
        <ele>212.59</ele>
        <time>2018-04-21T14:36:06Z</time>
      </trkpt>
      <trkpt lat="47.2616" lon="5.67947">
        <ele>212.11</ele>
        <time>2018-04-21T14:36:10Z</time>
      </trkpt>
      <trkpt lat="47.26165" lon="5.67974">
        <ele>212.11</ele>
        <time>2018-04-21T14:36:14Z</time>
      </trkpt>
      <trkpt lat="47.26169" lon="5.68007">
        <ele>211.63</ele>
        <time>2018-04-21T14:36:19Z</time>
      </trkpt>
      <trkpt lat="47.26173" lon="5.68034">
        <ele>211.15</ele>
        <time>2018-04-21T14:36:23Z</time>
      </trkpt>
      <trkpt lat="47.26187" lon="5.6812">
        <ele>208.26</ele>
        <time>2018-04-21T14:36:34Z</time>
      </trkpt>
      <trkpt lat="47.26188" lon="5.68128">
        <ele>208.26</ele>
        <time>2018-04-21T14:36:35Z</time>
      </trkpt>
      <trkpt lat="47.26199" lon="5.68223">
        <ele>206.82</ele>
        <time>2018-04-21T14:36:46Z</time>
      </trkpt>
      <trkpt lat="47.26209" lon="5.68329">
        <ele>205.38</ele>
        <time>2018-04-21T14:36:59Z</time>
      </trkpt>
      <trkpt lat="47.26209" lon="5.68338">
        <ele>205.38</ele>
        <time>2018-04-21T14:37:00Z</time>
      </trkpt>
      <trkpt lat="47.26214" lon="5.68363">
        <ele>204.9</ele>
        <time>2018-04-21T14:37:03Z</time>
      </trkpt>
      <trkpt lat="47.26221" lon="5.68391">
        <ele>204.9</ele>
        <time>2018-04-21T14:37:07Z</time>
      </trkpt>
      <trkpt lat="47.26223" lon="5.68404">
        <ele>204.9</ele>
        <time>2018-04-21T14:37:09Z</time>
      </trkpt>
      <trkpt lat="47.26213" lon="5.68428">
        <ele>205.38</ele>
        <time>2018-04-21T14:37:15Z</time>
      </trkpt>
      <trkpt lat="47.26181" lon="5.68449">
        <ele>205.38</ele>
        <time>2018-04-21T14:37:25Z</time>
      </trkpt>
      <trkpt lat="47.26122" lon="5.68497">
        <ele>203.94</ele>
        <time>2018-04-21T14:37:39Z</time>
      </trkpt>
      <trkpt lat="47.26069" lon="5.68538">
        <ele>204.42</ele>
        <time>2018-04-21T14:37:55Z</time>
      </trkpt>
      <trkpt lat="47.26031" lon="5.6855">
        <ele>204.42</ele>
        <time>2018-04-21T14:38:06Z</time>
      </trkpt>
      <trkpt lat="47.2601" lon="5.68558">
        <ele>204.42</ele>
        <time>2018-04-21T14:38:11Z</time>
      </trkpt>
      <trkpt lat="47.25981" lon="5.68566">
        <ele>205.38</ele>
        <time>2018-04-21T14:38:18Z</time>
      </trkpt>
      <trkpt lat="47.25927" lon="5.68582">
        <ele>206.82</ele>
        <time>2018-04-21T14:38:33Z</time>
      </trkpt>
      <trkpt lat="47.25885" lon="5.68595">
        <ele>209.22</ele>
        <time>2018-04-21T14:38:47Z</time>
      </trkpt>
      <trkpt lat="47.25848" lon="5.68592">
        <ele>211.15</ele>
        <time>2018-04-21T14:39:00Z</time>
      </trkpt>
      <trkpt lat="47.25808" lon="5.68584">
        <ele>213.55</ele>
        <time>2018-04-21T14:39:13Z</time>
      </trkpt>
      <trkpt lat="47.25779" lon="5.68579">
        <ele>214.99</ele>
        <time>2018-04-21T14:39:24Z</time>
      </trkpt>
      <trkpt lat="47.25757" lon="5.68573">
        <ele>215.95</ele>
        <time>2018-04-21T14:39:35Z</time>
      </trkpt>
      <trkpt lat="47.25751" lon="5.68572">
        <ele>216.43</ele>
        <time>2018-04-21T14:39:39Z</time>
      </trkpt>
      <trkpt lat="47.25718" lon="5.6856">
        <ele>217.4</ele>
        <time>2018-04-21T14:39:52Z</time>
      </trkpt>
      <trkpt lat="47.25672" lon="5.68543">
        <ele>218.36</ele>
        <time>2018-04-21T14:40:07Z</time>
      </trkpt>
      <trkpt lat="47.25625" lon="5.68524">
        <ele>220.76</ele>
        <time>2018-04-21T14:40:22Z</time>
      </trkpt>
      <trkpt lat="47.25587" lon="5.68512">
        <ele>222.2</ele>
        <time>2018-04-21T14:40:34Z</time>
      </trkpt>
      <trkpt lat="47.25539" lon="5.68503">
        <ele>223.64</ele>
        <time>2018-04-21T14:40:49Z</time>
      </trkpt>
      <trkpt lat="47.25493" lon="5.68503">
        <ele>225.09</ele>
        <time>2018-04-21T14:41:03Z</time>
      </trkpt>
      <trkpt lat="47.25452" lon="5.68494">
        <ele>225.57</ele>
        <time>2018-04-21T14:41:17Z</time>
      </trkpt>
      <trkpt lat="47.25415" lon="5.68486">
        <ele>225.57</ele>
        <time>2018-04-21T14:41:32Z</time>
      </trkpt>
      <trkpt lat="47.25391" lon="5.68489">
        <ele>225.57</ele>
        <time>2018-04-21T14:41:45Z</time>
      </trkpt>
      <trkpt lat="47.25359" lon="5.68506">
        <ele>224.12</ele>
        <time>2018-04-21T14:41:57Z</time>
      </trkpt>
      <trkpt lat="47.25356" lon="5.68508">
        <ele>224.12</ele>
        <time>2018-04-21T14:41:58Z</time>
      </trkpt>
      <trkpt lat="47.25328" lon="5.68523">
        <ele>223.16</ele>
        <time>2018-04-21T14:42:05Z</time>
      </trkpt>
      <trkpt lat="47.253" lon="5.68535">
        <ele>222.68</ele>
        <time>2018-04-21T14:42:11Z</time>
      </trkpt>
      <trkpt lat="47.25268" lon="5.68523">
        <ele>222.2</ele>
        <time>2018-04-21T14:42:18Z</time>
      </trkpt>
      <trkpt lat="47.2523" lon="5.68461">
        <ele>222.68</ele>
        <time>2018-04-21T14:42:32Z</time>
      </trkpt>
      <trkpt lat="47.2518" lon="5.6842">
        <ele>221.72</ele>
        <time>2018-04-21T14:42:46Z</time>
      </trkpt>
      <trkpt lat="47.25105" lon="5.68393">
        <ele>220.28</ele>
        <time>2018-04-21T14:43:04Z</time>
      </trkpt>
      <trkpt lat="47.25033" lon="5.68376">
        <ele>219.8</ele>
        <time>2018-04-21T14:43:20Z</time>
      </trkpt>
      <trkpt lat="47.24975" lon="5.68368">
        <ele>219.32</ele>
        <time>2018-04-21T14:43:35Z</time>
      </trkpt>
      <trkpt lat="47.24911" lon="5.68333">
        <ele>219.32</ele>
        <time>2018-04-21T14:43:53Z</time>
      </trkpt>
      <trkpt lat="47.24861" lon="5.68313">
        <ele>219.32</ele>
        <time>2018-04-21T14:44:08Z</time>
      </trkpt>
      <trkpt lat="47.24825" lon="5.6835">
        <ele>219.32</ele>
        <time>2018-04-21T14:44:21Z</time>
      </trkpt>
      <trkpt lat="47.24807" lon="5.68378">
        <ele>218.84</ele>
        <time>2018-04-21T14:44:28Z</time>
      </trkpt>
      <trkpt lat="47.24796" lon="5.68397">
        <ele>218.36</ele>
        <time>2018-04-21T14:44:32Z</time>
      </trkpt>
      <trkpt lat="47.24744" lon="5.68466">
        <ele>215.47</ele>
        <time>2018-04-21T14:44:46Z</time>
      </trkpt>
      <trkpt lat="47.24728" lon="5.68479">
        <ele>214.99</ele>
        <time>2018-04-21T14:44:50Z</time>
      </trkpt>
      <trkpt lat="47.24679" lon="5.68543">
        <ele>213.55</ele>
        <time>2018-04-21T14:45:02Z</time>
      </trkpt>
      <trkpt lat="47.24664" lon="5.68561">
        <ele>213.55</ele>
        <time>2018-04-21T14:45:06Z</time>
      </trkpt>
      <trkpt lat="47.24631" lon="5.68595">
        <ele>214.03</ele>
        <time>2018-04-21T14:45:15Z</time>
      </trkpt>
      <trkpt lat="47.24592" lon="5.68627">
        <ele>215.47</ele>
        <time>2018-04-21T14:45:28Z</time>
      </trkpt>
      <trkpt lat="47.24577" lon="5.68663">
        <ele>214.51</ele>
        <time>2018-04-21T14:45:37Z</time>
      </trkpt>
      <trkpt lat="47.24594" lon="5.68722">
        <ele>212.11</ele>
        <time>2018-04-21T14:45:46Z</time>
      </trkpt>
      <trkpt lat="47.24587" lon="5.68743">
        <ele>212.59</ele>
        <time>2018-04-21T14:45:50Z</time>
      </trkpt>
      <trkpt lat="47.24552" lon="5.68757">
        <ele>212.59</ele>
        <time>2018-04-21T14:45:59Z</time>
      </trkpt>
      <trkpt lat="47.24519" lon="5.68777">
        <ele>213.07</ele>
        <time>2018-04-21T14:46:09Z</time>
      </trkpt>
      <trkpt lat="47.24522" lon="5.68822">
        <ele>213.55</ele>
        <time>2018-04-21T14:46:18Z</time>
      </trkpt>
      <trkpt lat="47.24524" lon="5.68838">
        <ele>213.55</ele>
        <time>2018-04-21T14:46:21Z</time>
      </trkpt>
      <trkpt lat="47.24537" lon="5.68865">
        <ele>214.51</ele>
        <time>2018-04-21T14:46:31Z</time>
      </trkpt>
      <trkpt lat="47.24533" lon="5.68854">
        <ele>213.55</ele>
        <time>2018-04-21T14:46:39Z</time>
      </trkpt>
      <trkpt lat="47.2453" lon="5.68857">
        <ele>213.55</ele>
        <time>2018-04-21T14:46:40Z</time>
      </trkpt>
      <trkpt lat="47.24497" lon="5.6891">
        <ele>214.03</ele>
        <time>2018-04-21T14:46:53Z</time>
      </trkpt>
      <trkpt lat="47.24448" lon="5.68943">
        <ele>214.51</ele>
        <time>2018-04-21T14:47:07Z</time>
      </trkpt>
      <trkpt lat="47.24392" lon="5.68956">
        <ele>216.43</ele>
        <time>2018-04-21T14:47:23Z</time>
      </trkpt>
      <trkpt lat="47.24355" lon="5.68981">
        <ele>216.91</ele>
        <time>2018-04-21T14:47:36Z</time>
      </trkpt>
      <trkpt lat="47.24322" lon="5.69014">
        <ele>218.84</ele>
        <time>2018-04-21T14:47:49Z</time>
      </trkpt>
      <trkpt lat="47.24281" lon="5.69047">
        <ele>219.8</ele>
        <time>2018-04-21T14:48:04Z</time>
      </trkpt>
      <trkpt lat="47.24265" lon="5.69066">
        <ele>222.2</ele>
        <time>2018-04-21T14:48:11Z</time>
      </trkpt>
      <trkpt lat="47.24269" lon="5.69087">
        <ele>224.61</ele>
        <time>2018-04-21T14:48:19Z</time>
      </trkpt>
      <trkpt lat="47.24267" lon="5.69092">
        <ele>225.09</ele>
        <time>2018-04-21T14:48:21Z</time>
      </trkpt>
      <trkpt lat="47.24268" lon="5.69104">
        <ele>226.05</ele>
        <time>2018-04-21T14:48:25Z</time>
      </trkpt>
      <trkpt lat="47.24269" lon="5.69114">
        <ele>227.01</ele>
        <time>2018-04-21T14:48:29Z</time>
      </trkpt>
      <trkpt lat="47.24269" lon="5.69122">
        <ele>227.97</ele>
        <time>2018-04-21T14:48:32Z</time>
      </trkpt>
      <trkpt lat="47.24264" lon="5.69138">
        <ele>228.93</ele>
        <time>2018-04-21T14:48:38Z</time>
      </trkpt>
      <trkpt lat="47.24262" lon="5.69143">
        <ele>229.41</ele>
        <time>2018-04-21T14:48:40Z</time>
      </trkpt>
      <trkpt lat="47.24261" lon="5.69153">
        <ele>229.41</ele>
        <time>2018-04-21T14:48:44Z</time>
      </trkpt>
      <trkpt lat="47.24254" lon="5.69179">
        <ele>229.89</ele>
        <time>2018-04-21T14:48:53Z</time>
      </trkpt>
      <trkpt lat="47.2425" lon="5.69197">
        <ele>230.37</ele>
        <time>2018-04-21T14:49:01Z</time>
      </trkpt>
      <trkpt lat="47.2425" lon="5.69202">
        <ele>230.85</ele>
        <time>2018-04-21T14:49:04Z</time>
      </trkpt>
      <trkpt lat="47.24249" lon="5.6921">
        <ele>230.85</ele>
        <time>2018-04-21T14:49:12Z</time>
      </trkpt>
      <trkpt lat="47.24248" lon="5.69213">
        <ele>230.85</ele>
        <time>2018-04-21T14:49:14Z</time>
      </trkpt>
      <trkpt lat="47.24246" lon="5.69214">
        <ele>231.33</ele>
        <time>2018-04-21T14:49:16Z</time>
      </trkpt>
      <trkpt lat="47.24242" lon="5.69217">
        <ele>231.33</ele>
        <time>2018-04-21T14:49:27Z</time>
      </trkpt>
      <trkpt lat="47.24243" lon="5.69217">
        <ele>231.33</ele>
        <time>2018-04-21T14:49:46Z</time>
      </trkpt>
      <trkpt lat="47.24243" lon="5.69218">
        <ele>231.33</ele>
        <time>2018-04-21T14:50:09Z</time>
      </trkpt>
      <trkpt lat="47.24242" lon="5.69217">
        <ele>231.33</ele>
        <time>2018-04-21T14:50:31Z</time>
      </trkpt>
      <trkpt lat="47.24242" lon="5.69217">
        <ele>231.33</ele>
        <time>2018-04-21T14:50:36Z</time>
      </trkpt>
      <trkpt lat="47.24243" lon="5.69218">
        <ele>231.33</ele>
        <time>2018-04-21T14:50:38Z</time>
      </trkpt>
      <trkpt lat="47.24247" lon="5.69216">
        <ele>231.33</ele>
        <time>2018-04-21T14:50:48Z</time>
      </trkpt>
      <trkpt lat="47.24247" lon="5.69215">
        <ele>231.33</ele>
        <time>2018-04-21T14:51:05Z</time>
      </trkpt>
      <trkpt lat="47.24247" lon="5.69214">
        <ele>231.33</ele>
        <time>2018-04-21T14:51:33Z</time>
      </trkpt>
      <trkpt lat="47.24246" lon="5.69216">
        <ele>231.33</ele>
        <time>2018-04-21T14:51:54Z</time>
      </trkpt>
      <trkpt lat="47.24245" lon="5.69216">
        <ele>231.33</ele>
        <time>2018-04-21T14:51:56Z</time>
      </trkpt>
      <trkpt lat="47.24243" lon="5.69213">
        <ele>231.33</ele>
        <time>2018-04-21T14:52:00Z</time>
      </trkpt>
      <trkpt lat="47.2424" lon="5.69206">
        <ele>231.33</ele>
        <time>2018-04-21T14:52:05Z</time>
      </trkpt>
      <trkpt lat="47.24227" lon="5.69202">
        <ele>231.81</ele>
        <time>2018-04-21T14:52:16Z</time>
      </trkpt>
      <trkpt lat="47.24217" lon="5.69201">
        <ele>232.78</ele>
        <time>2018-04-21T14:52:23Z</time>
      </trkpt>
      <trkpt lat="47.24216" lon="5.69201">
        <ele>232.78</ele>
        <time>2018-04-21T14:52:24Z</time>
      </trkpt>
      <trkpt lat="47.24202" lon="5.69203">
        <ele>233.74</ele>
        <time>2018-04-21T14:52:33Z</time>
      </trkpt>
      <trkpt lat="47.24188" lon="5.69202">
        <ele>235.66</ele>
        <time>2018-04-21T14:52:42Z</time>
      </trkpt>
      <trkpt lat="47.24185" lon="5.692">
        <ele>235.66</ele>
        <time>2018-04-21T14:52:44Z</time>
      </trkpt>
      <trkpt lat="47.24178" lon="5.69198">
        <ele>236.62</ele>
        <time>2018-04-21T14:52:48Z</time>
      </trkpt>
      <trkpt lat="47.24164" lon="5.69198">
        <ele>238.06</ele>
        <time>2018-04-21T14:53:00Z</time>
      </trkpt>
      <trkpt lat="47.24161" lon="5.69198">
        <ele>239.02</ele>
        <time>2018-04-21T14:53:04Z</time>
      </trkpt>
      <trkpt lat="47.24157" lon="5.69201">
        <ele>239.99</ele>
        <time>2018-04-21T14:53:08Z</time>
      </trkpt>
      <trkpt lat="47.24152" lon="5.69204">
        <ele>240.95</ele>
        <time>2018-04-21T14:53:15Z</time>
      </trkpt>
      <trkpt lat="47.24153" lon="5.69212">
        <ele>242.39</ele>
        <time>2018-04-21T14:53:25Z</time>
      </trkpt>
      <trkpt lat="47.24155" lon="5.69214">
        <ele>243.35</ele>
        <time>2018-04-21T14:53:28Z</time>
      </trkpt>
      <trkpt lat="47.24153" lon="5.69218">
        <ele>243.83</ele>
        <time>2018-04-21T14:53:36Z</time>
      </trkpt>
      <trkpt lat="47.24148" lon="5.69217">
        <ele>244.31</ele>
        <time>2018-04-21T14:53:38Z</time>
      </trkpt>
      <trkpt lat="47.24126" lon="5.69217">
        <ele>245.27</ele>
        <time>2018-04-21T14:53:49Z</time>
      </trkpt>
      <trkpt lat="47.24064" lon="5.69217">
        <ele>246.23</ele>
        <time>2018-04-21T14:53:53Z</time>
      </trkpt>
      <trkpt lat="47.24059" lon="5.69218">
        <ele>247.2</ele>
        <time>2018-04-21T14:53:57Z</time>
      </trkpt>
      <trkpt lat="47.24052" lon="5.6922">
        <ele>248.16</ele>
        <time>2018-04-21T14:54:04Z</time>
      </trkpt>
      <trkpt lat="47.24047" lon="5.69218">
        <ele>249.12</ele>
        <time>2018-04-21T14:54:09Z</time>
      </trkpt>
      <trkpt lat="47.24045" lon="5.69217">
        <ele>250.08</ele>
        <time>2018-04-21T14:54:11Z</time>
      </trkpt>
      <trkpt lat="47.24039" lon="5.69215">
        <ele>251.04</ele>
        <time>2018-04-21T14:54:17Z</time>
      </trkpt>
      <trkpt lat="47.24033" lon="5.69212">
        <ele>252</ele>
        <time>2018-04-21T14:54:23Z</time>
      </trkpt>
      <trkpt lat="47.24015" lon="5.6921">
        <ele>253.44</ele>
        <time>2018-04-21T14:54:36Z</time>
      </trkpt>
      <trkpt lat="47.24004" lon="5.69208">
        <ele>255.85</ele>
        <time>2018-04-21T14:54:48Z</time>
      </trkpt>
      <trkpt lat="47.24002" lon="5.69208">
        <ele>255.85</ele>
        <time>2018-04-21T14:54:50Z</time>
      </trkpt>
      <trkpt lat="47.23984" lon="5.69217">
        <ele>258.25</ele>
        <time>2018-04-21T14:55:02Z</time>
      </trkpt>
      <trkpt lat="47.23975" lon="5.69231">
        <ele>261.14</ele>
        <time>2018-04-21T14:55:15Z</time>
      </trkpt>
      <trkpt lat="47.23969" lon="5.69238">
        <ele>264.02</ele>
        <time>2018-04-21T14:55:29Z</time>
      </trkpt>
      <trkpt lat="47.2396" lon="5.69251">
        <ele>267.38</ele>
        <time>2018-04-21T14:55:42Z</time>
      </trkpt>
      <trkpt lat="47.23956" lon="5.69259">
        <ele>269.31</ele>
        <time>2018-04-21T14:55:51Z</time>
      </trkpt>
      <trkpt lat="47.23954" lon="5.69263">
        <ele>270.27</ele>
        <time>2018-04-21T14:55:54Z</time>
      </trkpt>
      <trkpt lat="47.23944" lon="5.69269">
        <ele>273.15</ele>
        <time>2018-04-21T14:56:07Z</time>
      </trkpt>
      <trkpt lat="47.23934" lon="5.6927">
        <ele>274.11</ele>
        <time>2018-04-21T14:56:11Z</time>
      </trkpt>
      <trkpt lat="47.23926" lon="5.69269">
        <ele>274.11</ele>
        <time>2018-04-21T14:56:13Z</time>
      </trkpt>
      <trkpt lat="47.23907" lon="5.69267">
        <ele>275.07</ele>
        <time>2018-04-21T14:56:19Z</time>
      </trkpt>
      <trkpt lat="47.2388" lon="5.69263">
        <ele>277</ele>
        <time>2018-04-21T14:56:31Z</time>
      </trkpt>
      <trkpt lat="47.23867" lon="5.69262">
        <ele>277.48</ele>
        <time>2018-04-21T14:56:45Z</time>
      </trkpt>
      <trkpt lat="47.23862" lon="5.69259">
        <ele>277.48</ele>
        <time>2018-04-21T14:57:08Z</time>
      </trkpt>
      <trkpt lat="47.23862" lon="5.6926">
        <ele>277.96</ele>
        <time>2018-04-21T14:57:26Z</time>
      </trkpt>
      <trkpt lat="47.23856" lon="5.69265">
        <ele>280.84</ele>
        <time>2018-04-21T14:57:36Z</time>
      </trkpt>
      <trkpt lat="47.23853" lon="5.69268">
        <ele>281.32</ele>
        <time>2018-04-21T14:57:46Z</time>
      </trkpt>
      <trkpt lat="47.23846" lon="5.69276">
        <ele>282.77</ele>
        <time>2018-04-21T14:57:55Z</time>
      </trkpt>
      <trkpt lat="47.23842" lon="5.69286">
        <ele>283.73</ele>
        <time>2018-04-21T14:58:07Z</time>
      </trkpt>
      <trkpt lat="47.2384" lon="5.69285">
        <ele>283.73</ele>
        <time>2018-04-21T14:58:17Z</time>
      </trkpt>
      <trkpt lat="47.23841" lon="5.69288">
        <ele>283.25</ele>
        <time>2018-04-21T14:58:20Z</time>
      </trkpt>
      <trkpt lat="47.23846" lon="5.69295">
        <ele>282.77</ele>
        <time>2018-04-21T14:58:24Z</time>
      </trkpt>
      <trkpt lat="47.23862" lon="5.69328">
        <ele>282.28</ele>
        <time>2018-04-21T14:58:34Z</time>
      </trkpt>
      <trkpt lat="47.23876" lon="5.69364">
        <ele>280.84</ele>
        <time>2018-04-21T14:58:45Z</time>
      </trkpt>
      <trkpt lat="47.23884" lon="5.69369">
        <ele>280.36</ele>
        <time>2018-04-21T14:58:47Z</time>
      </trkpt>
      <trkpt lat="47.23904" lon="5.69392">
        <ele>278.44</ele>
        <time>2018-04-21T14:58:52Z</time>
      </trkpt>
      <trkpt lat="47.23927" lon="5.69423">
        <ele>277.48</ele>
        <time>2018-04-21T14:58:59Z</time>
      </trkpt>
      <trkpt lat="47.23933" lon="5.6944">
        <ele>277.48</ele>
        <time>2018-04-21T14:59:02Z</time>
      </trkpt>
      <trkpt lat="47.23962" lon="5.69486">
        <ele>273.63</ele>
        <time>2018-04-21T14:59:12Z</time>
      </trkpt>
      <trkpt lat="47.23972" lon="5.69499">
        <ele>273.15</ele>
        <time>2018-04-21T14:59:14Z</time>
      </trkpt>
      <trkpt lat="47.23982" lon="5.69518">
        <ele>271.71</ele>
        <time>2018-04-21T14:59:17Z</time>
      </trkpt>
      <trkpt lat="47.23991" lon="5.69535">
        <ele>271.71</ele>
        <time>2018-04-21T14:59:20Z</time>
      </trkpt>
      <trkpt lat="47.24008" lon="5.69564">
        <ele>271.23</ele>
        <time>2018-04-21T14:59:25Z</time>
      </trkpt>
      <trkpt lat="47.24017" lon="5.69576">
        <ele>270.27</ele>
        <time>2018-04-21T14:59:27Z</time>
      </trkpt>
      <trkpt lat="47.24039" lon="5.69603">
        <ele>266.9</ele>
        <time>2018-04-21T14:59:32Z</time>
      </trkpt>
      <trkpt lat="47.2408" lon="5.69659">
        <ele>265.46</ele>
        <time>2018-04-21T14:59:41Z</time>
      </trkpt>
      <trkpt lat="47.24116" lon="5.69698">
        <ele>265.46</ele>
        <time>2018-04-21T14:59:50Z</time>
      </trkpt>
      <trkpt lat="47.24129" lon="5.69714">
        <ele>265.46</ele>
        <time>2018-04-21T14:59:54Z</time>
      </trkpt>
      <trkpt lat="47.24174" lon="5.69756">
        <ele>264.98</ele>
        <time>2018-04-21T15:00:06Z</time>
      </trkpt>
      <trkpt lat="47.24212" lon="5.69784">
        <ele>264.5</ele>
        <time>2018-04-21T15:00:16Z</time>
      </trkpt>
      <trkpt lat="47.24223" lon="5.6979">
        <ele>264.02</ele>
        <time>2018-04-21T15:00:19Z</time>
      </trkpt>
      <trkpt lat="47.24231" lon="5.69797">
        <ele>263.54</ele>
        <time>2018-04-21T15:00:22Z</time>
      </trkpt>
      <trkpt lat="47.24243" lon="5.698">
        <ele>263.54</ele>
        <time>2018-04-21T15:00:27Z</time>
      </trkpt>
      <trkpt lat="47.24253" lon="5.69804">
        <ele>263.06</ele>
        <time>2018-04-21T15:00:31Z</time>
      </trkpt>
      <trkpt lat="47.24269" lon="5.69811">
        <ele>263.06</ele>
        <time>2018-04-21T15:00:43Z</time>
      </trkpt>
      <trkpt lat="47.24274" lon="5.69811">
        <ele>263.06</ele>
        <time>2018-04-21T15:01:03Z</time>
      </trkpt>
      <trkpt lat="47.24275" lon="5.69808">
        <ele>262.58</ele>
        <time>2018-04-21T15:01:05Z</time>
      </trkpt>
      <trkpt lat="47.24272" lon="5.6981">
        <ele>263.06</ele>
        <time>2018-04-21T15:01:08Z</time>
      </trkpt>
      <trkpt lat="47.24249" lon="5.69819">
        <ele>264.5</ele>
        <time>2018-04-21T15:01:19Z</time>
      </trkpt>
      <trkpt lat="47.24248" lon="5.69821">
        <ele>264.98</ele>
        <time>2018-04-21T15:01:20Z</time>
      </trkpt>
      <trkpt lat="47.2425" lon="5.69835">
        <ele>265.46</ele>
        <time>2018-04-21T15:01:25Z</time>
      </trkpt>
      <trkpt lat="47.24289" lon="5.69875">
        <ele>264.5</ele>
        <time>2018-04-21T15:01:39Z</time>
      </trkpt>
      <trkpt lat="47.24292" lon="5.69879">
        <ele>264.02</ele>
        <time>2018-04-21T15:01:40Z</time>
      </trkpt>
      <trkpt lat="47.24327" lon="5.69919">
        <ele>261.14</ele>
        <time>2018-04-21T15:01:49Z</time>
      </trkpt>
      <trkpt lat="47.2436" lon="5.6996">
        <ele>257.29</ele>
        <time>2018-04-21T15:01:57Z</time>
      </trkpt>
      <trkpt lat="47.24375" lon="5.69977">
        <ele>255.37</ele>
        <time>2018-04-21T15:02:01Z</time>
      </trkpt>
      <trkpt lat="47.24391" lon="5.69995">
        <ele>252.96</ele>
        <time>2018-04-21T15:02:06Z</time>
      </trkpt>
      <trkpt lat="47.24399" lon="5.7">
        <ele>251.52</ele>
        <time>2018-04-21T15:02:08Z</time>
      </trkpt>
      <trkpt lat="47.24427" lon="5.70021">
        <ele>245.75</ele>
        <time>2018-04-21T15:02:14Z</time>
      </trkpt>
      <trkpt lat="47.24469" lon="5.7006">
        <ele>244.79</ele>
        <time>2018-04-21T15:02:25Z</time>
      </trkpt>
      <trkpt lat="47.24473" lon="5.70065">
        <ele>244.79</ele>
        <time>2018-04-21T15:02:28Z</time>
      </trkpt>
      <trkpt lat="47.24474" lon="5.70068">
        <ele>244.31</ele>
        <time>2018-04-21T15:02:31Z</time>
      </trkpt>
      <trkpt lat="47.24479" lon="5.70075">
        <ele>244.31</ele>
        <time>2018-04-21T15:02:37Z</time>
      </trkpt>
      <trkpt lat="47.245" lon="5.7009">
        <ele>242.87</ele>
        <time>2018-04-21T15:02:45Z</time>
      </trkpt>
      <trkpt lat="47.24514" lon="5.70106">
        <ele>241.43</ele>
        <time>2018-04-21T15:02:53Z</time>
      </trkpt>
      <trkpt lat="47.24512" lon="5.70108">
        <ele>241.43</ele>
        <time>2018-04-21T15:03:03Z</time>
      </trkpt>
      <trkpt lat="47.24526" lon="5.70114">
        <ele>240.47</ele>
        <time>2018-04-21T15:03:09Z</time>
      </trkpt>
      <trkpt lat="47.24542" lon="5.70124">
        <ele>238.54</ele>
        <time>2018-04-21T15:03:13Z</time>
      </trkpt>
      <trkpt lat="47.24554" lon="5.70137">
        <ele>237.58</ele>
        <time>2018-04-21T15:03:16Z</time>
      </trkpt>
      <trkpt lat="47.24584" lon="5.70185">
        <ele>233.74</ele>
        <time>2018-04-21T15:03:23Z</time>
      </trkpt>
      <trkpt lat="47.24607" lon="5.70221">
        <ele>230.37</ele>
        <time>2018-04-21T15:03:27Z</time>
      </trkpt>
      <trkpt lat="47.2463" lon="5.70245">
        <ele>227.01</ele>
        <time>2018-04-21T15:03:30Z</time>
      </trkpt>
      <trkpt lat="47.24676" lon="5.70276">
        <ele>223.16</ele>
        <time>2018-04-21T15:03:35Z</time>
      </trkpt>
      <trkpt lat="47.24705" lon="5.70293">
        <ele>222.2</ele>
        <time>2018-04-21T15:03:38Z</time>
      </trkpt>
      <trkpt lat="47.24736" lon="5.70328">
        <ele>221.24</ele>
        <time>2018-04-21T15:03:42Z</time>
      </trkpt>
      <trkpt lat="47.24768" lon="5.70382">
        <ele>220.76</ele>
        <time>2018-04-21T15:03:48Z</time>
      </trkpt>
      <trkpt lat="47.24815" lon="5.70407">
        <ele>220.28</ele>
        <time>2018-04-21T15:03:56Z</time>
      </trkpt>
      <trkpt lat="47.24819" lon="5.7042">
        <ele>220.76</ele>
        <time>2018-04-21T15:03:59Z</time>
      </trkpt>
      <trkpt lat="47.24795" lon="5.70479">
        <ele>222.68</ele>
        <time>2018-04-21T15:04:14Z</time>
      </trkpt>
      <trkpt lat="47.24764" lon="5.70521">
        <ele>224.12</ele>
        <time>2018-04-21T15:04:30Z</time>
      </trkpt>
      <trkpt lat="47.24767" lon="5.70542">
        <ele>224.61</ele>
        <time>2018-04-21T15:04:36Z</time>
      </trkpt>
      <trkpt lat="47.24783" lon="5.70593">
        <ele>226.05</ele>
        <time>2018-04-21T15:04:51Z</time>
      </trkpt>
      <trkpt lat="47.24785" lon="5.70597">
        <ele>226.53</ele>
        <time>2018-04-21T15:04:52Z</time>
      </trkpt>
      <trkpt lat="47.24792" lon="5.70615">
        <ele>227.01</ele>
        <time>2018-04-21T15:04:58Z</time>
      </trkpt>
      <trkpt lat="47.2479" lon="5.70624">
        <ele>227.01</ele>
        <time>2018-04-21T15:05:02Z</time>
      </trkpt>
      <trkpt lat="47.24795" lon="5.70644">
        <ele>227.97</ele>
        <time>2018-04-21T15:05:08Z</time>
      </trkpt>
      <trkpt lat="47.24808" lon="5.70674">
        <ele>229.41</ele>
        <time>2018-04-21T15:05:16Z</time>
      </trkpt>
      <trkpt lat="47.24814" lon="5.7069">
        <ele>229.89</ele>
        <time>2018-04-21T15:05:22Z</time>
      </trkpt>
      <trkpt lat="47.24833" lon="5.7072">
        <ele>230.85</ele>
        <time>2018-04-21T15:05:33Z</time>
      </trkpt>
      <trkpt lat="47.24835" lon="5.70728">
        <ele>230.85</ele>
        <time>2018-04-21T15:05:35Z</time>
      </trkpt>
      <trkpt lat="47.24834" lon="5.7074">
        <ele>231.33</ele>
        <time>2018-04-21T15:05:39Z</time>
      </trkpt>
      <trkpt lat="47.24836" lon="5.70759">
        <ele>232.3</ele>
        <time>2018-04-21T15:05:45Z</time>
      </trkpt>
      <trkpt lat="47.24841" lon="5.70794">
        <ele>233.74</ele>
        <time>2018-04-21T15:05:55Z</time>
      </trkpt>
      <trkpt lat="47.24836" lon="5.70816">
        <ele>235.66</ele>
        <time>2018-04-21T15:06:02Z</time>
      </trkpt>
      <trkpt lat="47.24843" lon="5.70844">
        <ele>237.58</ele>
        <time>2018-04-21T15:06:12Z</time>
      </trkpt>
      <trkpt lat="47.24857" lon="5.7087">
        <ele>239.02</ele>
        <time>2018-04-21T15:06:22Z</time>
      </trkpt>
      <trkpt lat="47.24859" lon="5.70872">
        <ele>239.02</ele>
        <time>2018-04-21T15:06:23Z</time>
      </trkpt>
      <trkpt lat="47.24874" lon="5.70903">
        <ele>239.51</ele>
        <time>2018-04-21T15:06:34Z</time>
      </trkpt>
      <trkpt lat="47.24885" lon="5.7092">
        <ele>239.99</ele>
        <time>2018-04-21T15:06:42Z</time>
      </trkpt>
      <trkpt lat="47.24893" lon="5.7093">
        <ele>239.99</ele>
        <time>2018-04-21T15:06:46Z</time>
      </trkpt>
      <trkpt lat="47.24902" lon="5.70939">
        <ele>239.99</ele>
        <time>2018-04-21T15:06:50Z</time>
      </trkpt>
      <trkpt lat="47.24911" lon="5.7095">
        <ele>239.51</ele>
        <time>2018-04-21T15:06:54Z</time>
      </trkpt>
      <trkpt lat="47.24919" lon="5.70958">
        <ele>239.51</ele>
        <time>2018-04-21T15:06:57Z</time>
      </trkpt>
      <trkpt lat="47.24925" lon="5.70969">
        <ele>239.51</ele>
        <time>2018-04-21T15:07:01Z</time>
      </trkpt>
      <trkpt lat="47.24935" lon="5.71007">
        <ele>238.54</ele>
        <time>2018-04-21T15:07:12Z</time>
      </trkpt>
      <trkpt lat="47.2495" lon="5.71045">
        <ele>236.62</ele>
        <time>2018-04-21T15:07:21Z</time>
      </trkpt>
      <trkpt lat="47.24962" lon="5.71086">
        <ele>236.14</ele>
        <time>2018-04-21T15:07:31Z</time>
      </trkpt>
      <trkpt lat="47.24962" lon="5.71095">
        <ele>236.62</ele>
        <time>2018-04-21T15:07:34Z</time>
      </trkpt>
      <trkpt lat="47.24964" lon="5.71111">
        <ele>236.62</ele>
        <time>2018-04-21T15:07:39Z</time>
      </trkpt>
      <trkpt lat="47.24964" lon="5.71124">
        <ele>236.14</ele>
        <time>2018-04-21T15:07:42Z</time>
      </trkpt>
      <trkpt lat="47.24978" lon="5.71153">
        <ele>234.22</ele>
        <time>2018-04-21T15:07:49Z</time>
      </trkpt>
      <trkpt lat="47.24986" lon="5.71164">
        <ele>232.78</ele>
        <time>2018-04-21T15:07:51Z</time>
      </trkpt>
      <trkpt lat="47.24993" lon="5.71212">
        <ele>230.37</ele>
        <time>2018-04-21T15:08:00Z</time>
      </trkpt>
      <trkpt lat="47.24998" lon="5.71245">
        <ele>227.01</ele>
        <time>2018-04-21T15:08:07Z</time>
      </trkpt>
      <trkpt lat="47.25" lon="5.71259">
        <ele>226.53</ele>
        <time>2018-04-21T15:08:09Z</time>
      </trkpt>
      <trkpt lat="47.25012" lon="5.71306">
        <ele>226.53</ele>
        <time>2018-04-21T15:08:19Z</time>
      </trkpt>
      <trkpt lat="47.25013" lon="5.71308">
        <ele>226.05</ele>
        <time>2018-04-21T15:08:21Z</time>
      </trkpt>
      <trkpt lat="47.25014" lon="5.71322">
        <ele>227.01</ele>
        <time>2018-04-21T15:08:26Z</time>
      </trkpt>
      <trkpt lat="47.25018" lon="5.71333">
        <ele>227.01</ele>
        <time>2018-04-21T15:08:34Z</time>
      </trkpt>
      <trkpt lat="47.25027" lon="5.71342">
        <ele>227.49</ele>
        <time>2018-04-21T15:08:43Z</time>
      </trkpt>
      <trkpt lat="47.25034" lon="5.71356">
        <ele>227.97</ele>
        <time>2018-04-21T15:08:54Z</time>
      </trkpt>
      <trkpt lat="47.25036" lon="5.71358">
        <ele>227.97</ele>
        <time>2018-04-21T15:08:55Z</time>
      </trkpt>
      <trkpt lat="47.25046" lon="5.71376">
        <ele>228.45</ele>
        <time>2018-04-21T15:09:05Z</time>
      </trkpt>
      <trkpt lat="47.25065" lon="5.71402">
        <ele>229.41</ele>
        <time>2018-04-21T15:09:18Z</time>
      </trkpt>
      <trkpt lat="47.25087" lon="5.71424">
        <ele>231.33</ele>
        <time>2018-04-21T15:09:31Z</time>
      </trkpt>
      <trkpt lat="47.25109" lon="5.71461">
        <ele>233.74</ele>
        <time>2018-04-21T15:09:47Z</time>
      </trkpt>
      <trkpt lat="47.25124" lon="5.71506">
        <ele>235.66</ele>
        <time>2018-04-21T15:10:02Z</time>
      </trkpt>
      <trkpt lat="47.25128" lon="5.71526">
        <ele>236.62</ele>
        <time>2018-04-21T15:10:08Z</time>
      </trkpt>
      <trkpt lat="47.25134" lon="5.71561">
        <ele>237.58</ele>
        <time>2018-04-21T15:10:19Z</time>
      </trkpt>
      <trkpt lat="47.25144" lon="5.71603">
        <ele>238.54</ele>
        <time>2018-04-21T15:10:32Z</time>
      </trkpt>
      <trkpt lat="47.25146" lon="5.71619">
        <ele>239.02</ele>
        <time>2018-04-21T15:10:37Z</time>
      </trkpt>
      <trkpt lat="47.25141" lon="5.71631">
        <ele>239.51</ele>
        <time>2018-04-21T15:10:42Z</time>
      </trkpt>
      <trkpt lat="47.25135" lon="5.71674">
        <ele>241.43</ele>
        <time>2018-04-21T15:10:55Z</time>
      </trkpt>
      <trkpt lat="47.25143" lon="5.71716">
        <ele>242.87</ele>
        <time>2018-04-21T15:11:07Z</time>
      </trkpt>
      <trkpt lat="47.25149" lon="5.71748">
        <ele>243.83</ele>
        <time>2018-04-21T15:11:18Z</time>
      </trkpt>
      <trkpt lat="47.25159" lon="5.718">
        <ele>244.79</ele>
        <time>2018-04-21T15:11:31Z</time>
      </trkpt>
      <trkpt lat="47.25169" lon="5.71851">
        <ele>245.27</ele>
        <time>2018-04-21T15:11:44Z</time>
      </trkpt>
      <trkpt lat="47.25179" lon="5.71905">
        <ele>245.27</ele>
        <time>2018-04-21T15:11:57Z</time>
      </trkpt>
      <trkpt lat="47.25204" lon="5.71937">
        <ele>244.31</ele>
        <time>2018-04-21T15:12:09Z</time>
      </trkpt>
      <trkpt lat="47.25207" lon="5.71953">
        <ele>244.31</ele>
        <time>2018-04-21T15:12:13Z</time>
      </trkpt>
      <trkpt lat="47.25197" lon="5.72003">
        <ele>244.31</ele>
        <time>2018-04-21T15:12:25Z</time>
      </trkpt>
      <trkpt lat="47.25179" lon="5.72072">
        <ele>243.83</ele>
        <time>2018-04-21T15:12:40Z</time>
      </trkpt>
      <trkpt lat="47.2516" lon="5.72152">
        <ele>244.31</ele>
        <time>2018-04-21T15:12:56Z</time>
      </trkpt>
      <trkpt lat="47.25147" lon="5.72199">
        <ele>246.72</ele>
        <time>2018-04-21T15:13:09Z</time>
      </trkpt>
      <trkpt lat="47.25134" lon="5.72239">
        <ele>248.16</ele>
        <time>2018-04-21T15:13:21Z</time>
      </trkpt>
      <trkpt lat="47.2512" lon="5.72274">
        <ele>249.6</ele>
        <time>2018-04-21T15:13:32Z</time>
      </trkpt>
      <trkpt lat="47.25109" lon="5.72288">
        <ele>251.04</ele>
        <time>2018-04-21T15:13:39Z</time>
      </trkpt>
      <trkpt lat="47.25101" lon="5.72297">
        <ele>252</ele>
        <time>2018-04-21T15:13:45Z</time>
      </trkpt>
      <trkpt lat="47.25077" lon="5.72325">
        <ele>253.93</ele>
        <time>2018-04-21T15:13:59Z</time>
      </trkpt>
      <trkpt lat="47.25042" lon="5.72372">
        <ele>252.96</ele>
        <time>2018-04-21T15:14:12Z</time>
      </trkpt>
      <trkpt lat="47.25015" lon="5.72421">
        <ele>255.37</ele>
        <time>2018-04-21T15:14:26Z</time>
      </trkpt>
      <trkpt lat="47.24993" lon="5.72456">
        <ele>258.25</ele>
        <time>2018-04-21T15:14:39Z</time>
      </trkpt>
      <trkpt lat="47.24969" lon="5.72485">
        <ele>261.14</ele>
        <time>2018-04-21T15:14:51Z</time>
      </trkpt>
      <trkpt lat="47.24946" lon="5.72512">
        <ele>263.54</ele>
        <time>2018-04-21T15:15:01Z</time>
      </trkpt>
      <trkpt lat="47.24941" lon="5.72516">
        <ele>265.46</ele>
        <time>2018-04-21T15:15:04Z</time>
      </trkpt>
      <trkpt lat="47.24929" lon="5.72532">
        <ele>266.42</ele>
        <time>2018-04-21T15:15:16Z</time>
      </trkpt>
      <trkpt lat="47.24906" lon="5.72554">
        <ele>264.5</ele>
        <time>2018-04-21T15:15:27Z</time>
      </trkpt>
      <trkpt lat="47.2489" lon="5.72567">
        <ele>261.62</ele>
        <time>2018-04-21T15:15:31Z</time>
      </trkpt>
      <trkpt lat="47.24869" lon="5.72583">
        <ele>258.73</ele>
        <time>2018-04-21T15:15:36Z</time>
      </trkpt>
      <trkpt lat="47.24847" lon="5.7259">
        <ele>256.81</ele>
        <time>2018-04-21T15:15:40Z</time>
      </trkpt>
      <trkpt lat="47.24803" lon="5.72592">
        <ele>252.48</ele>
        <time>2018-04-21T15:15:46Z</time>
      </trkpt>
      <trkpt lat="47.24752" lon="5.72617">
        <ele>253.44</ele>
        <time>2018-04-21T15:15:54Z</time>
      </trkpt>
      <trkpt lat="47.24712" lon="5.72637">
        <ele>253.93</ele>
        <time>2018-04-21T15:16:05Z</time>
      </trkpt>
      <trkpt lat="47.24699" lon="5.72642">
        <ele>253.44</ele>
        <time>2018-04-21T15:16:08Z</time>
      </trkpt>
      <trkpt lat="47.24684" lon="5.72652">
        <ele>252.48</ele>
        <time>2018-04-21T15:16:11Z</time>
      </trkpt>
      <trkpt lat="47.24646" lon="5.72687">
        <ele>252.48</ele>
        <time>2018-04-21T15:16:21Z</time>
      </trkpt>
      <trkpt lat="47.24614" lon="5.72707">
        <ele>253.93</ele>
        <time>2018-04-21T15:16:32Z</time>
      </trkpt>
      <trkpt lat="47.24599" lon="5.72726">
        <ele>255.85</ele>
        <time>2018-04-21T15:16:43Z</time>
      </trkpt>
      <trkpt lat="47.2458" lon="5.72728">
        <ele>257.77</ele>
        <time>2018-04-21T15:16:55Z</time>
      </trkpt>
      <trkpt lat="47.24555" lon="5.72728">
        <ele>259.69</ele>
        <time>2018-04-21T15:17:07Z</time>
      </trkpt>
      <trkpt lat="47.24542" lon="5.72725">
        <ele>260.65</ele>
        <time>2018-04-21T15:17:13Z</time>
      </trkpt>
      <trkpt lat="47.24519" lon="5.72724">
        <ele>263.06</ele>
        <time>2018-04-21T15:17:24Z</time>
      </trkpt>
      <trkpt lat="47.24497" lon="5.72726">
        <ele>266.42</ele>
        <time>2018-04-21T15:17:35Z</time>
      </trkpt>
      <trkpt lat="47.24478" lon="5.72726">
        <ele>268.83</ele>
        <time>2018-04-21T15:17:45Z</time>
      </trkpt>
      <trkpt lat="47.2447" lon="5.72725">
        <ele>269.79</ele>
        <time>2018-04-21T15:17:48Z</time>
      </trkpt>
      <trkpt lat="47.24453" lon="5.72729">
        <ele>272.19</ele>
        <time>2018-04-21T15:17:55Z</time>
      </trkpt>
      <trkpt lat="47.24451" lon="5.7273">
        <ele>272.67</ele>
        <time>2018-04-21T15:17:56Z</time>
      </trkpt>
      <trkpt lat="47.24437" lon="5.72734">
        <ele>274.59</ele>
        <time>2018-04-21T15:18:05Z</time>
      </trkpt>
      <trkpt lat="47.24434" lon="5.72735">
        <ele>274.59</ele>
        <time>2018-04-21T15:18:07Z</time>
      </trkpt>
      <trkpt lat="47.24427" lon="5.7274">
        <ele>275.56</ele>
        <time>2018-04-21T15:18:14Z</time>
      </trkpt>
      <trkpt lat="47.24408" lon="5.72738">
        <ele>277.48</ele>
        <time>2018-04-21T15:18:28Z</time>
      </trkpt>
      <trkpt lat="47.2438" lon="5.72742">
        <ele>279.88</ele>
        <time>2018-04-21T15:18:44Z</time>
      </trkpt>
      <trkpt lat="47.24362" lon="5.72748">
        <ele>281.8</ele>
        <time>2018-04-21T15:18:54Z</time>
      </trkpt>
      <trkpt lat="47.2436" lon="5.72748">
        <ele>281.8</ele>
        <time>2018-04-21T15:18:55Z</time>
      </trkpt>
      <trkpt lat="47.24351" lon="5.7275">
        <ele>282.77</ele>
        <time>2018-04-21T15:19:02Z</time>
      </trkpt>
      <trkpt lat="47.24347" lon="5.7275">
        <ele>282.77</ele>
        <time>2018-04-21T15:19:05Z</time>
      </trkpt>
      <trkpt lat="47.24324" lon="5.72762">
        <ele>284.69</ele>
        <time>2018-04-21T15:19:18Z</time>
      </trkpt>
      <trkpt lat="47.24299" lon="5.72784">
        <ele>285.65</ele>
        <time>2018-04-21T15:19:32Z</time>
      </trkpt>
      <trkpt lat="47.24279" lon="5.728">
        <ele>286.13</ele>
        <time>2018-04-21T15:19:45Z</time>
      </trkpt>
      <trkpt lat="47.24257" lon="5.72818">
        <ele>287.09</ele>
        <time>2018-04-21T15:19:59Z</time>
      </trkpt>
      <trkpt lat="47.24236" lon="5.72824">
        <ele>288.53</ele>
        <time>2018-04-21T15:20:11Z</time>
      </trkpt>
      <trkpt lat="47.24234" lon="5.72825">
        <ele>289.01</ele>
        <time>2018-04-21T15:20:13Z</time>
      </trkpt>
      <trkpt lat="47.24231" lon="5.72828">
        <ele>289.01</ele>
        <time>2018-04-21T15:20:17Z</time>
      </trkpt>
      <trkpt lat="47.24214" lon="5.72829">
        <ele>291.42</ele>
        <time>2018-04-21T15:20:32Z</time>
      </trkpt>
      <trkpt lat="47.24196" lon="5.72836">
        <ele>292.86</ele>
        <time>2018-04-21T15:20:46Z</time>
      </trkpt>
      <trkpt lat="47.24181" lon="5.72845">
        <ele>294.78</ele>
        <time>2018-04-21T15:20:59Z</time>
      </trkpt>
      <trkpt lat="47.24175" lon="5.72849">
        <ele>295.74</ele>
        <time>2018-04-21T15:21:03Z</time>
      </trkpt>
      <trkpt lat="47.24158" lon="5.72865">
        <ele>297.67</ele>
        <time>2018-04-21T15:21:15Z</time>
      </trkpt>
      <trkpt lat="47.24154" lon="5.7287">
        <ele>297.67</ele>
        <time>2018-04-21T15:21:18Z</time>
      </trkpt>
      <trkpt lat="47.24146" lon="5.72883">
        <ele>298.63</ele>
        <time>2018-04-21T15:21:30Z</time>
      </trkpt>
      <trkpt lat="47.24145" lon="5.72884">
        <ele>298.63</ele>
        <time>2018-04-21T15:21:52Z</time>
      </trkpt>
      <trkpt lat="47.24145" lon="5.72884">
        <ele>298.63</ele>
        <time>2018-04-21T15:22:14Z</time>
      </trkpt>
      <trkpt lat="47.24146" lon="5.72885">
        <ele>298.63</ele>
        <time>2018-04-21T15:22:37Z</time>
      </trkpt>
      <trkpt lat="47.24147" lon="5.72886">
        <ele>298.63</ele>
        <time>2018-04-21T15:23:02Z</time>
      </trkpt>
      <trkpt lat="47.24147" lon="5.72886">
        <ele>299.11</ele>
        <time>2018-04-21T15:23:29Z</time>
      </trkpt>
      <trkpt lat="47.24147" lon="5.72886">
        <ele>298.63</ele>
        <time>2018-04-21T15:23:53Z</time>
      </trkpt>
      <trkpt lat="47.24147" lon="5.72886">
        <ele>298.63</ele>
        <time>2018-04-21T15:24:16Z</time>
      </trkpt>
      <trkpt lat="47.24147" lon="5.72886">
        <ele>299.11</ele>
        <time>2018-04-21T15:24:27Z</time>
      </trkpt>
      <trkpt lat="47.24152" lon="5.729">
        <ele>300.55</ele>
        <time>2018-04-21T15:24:35Z</time>
      </trkpt>
      <trkpt lat="47.24156" lon="5.72908">
        <ele>301.03</ele>
        <time>2018-04-21T15:24:39Z</time>
      </trkpt>
      <trkpt lat="47.24162" lon="5.72925">
        <ele>302.47</ele>
        <time>2018-04-21T15:24:47Z</time>
      </trkpt>
      <trkpt lat="47.24166" lon="5.72934">
        <ele>303.43</ele>
        <time>2018-04-21T15:24:51Z</time>
      </trkpt>
      <trkpt lat="47.24168" lon="5.72938">
        <ele>303.43</ele>
        <time>2018-04-21T15:24:53Z</time>
      </trkpt>
      <trkpt lat="47.24178" lon="5.72969">
        <ele>306.32</ele>
        <time>2018-04-21T15:25:06Z</time>
      </trkpt>
      <trkpt lat="47.24181" lon="5.7298">
        <ele>307.28</ele>
        <time>2018-04-21T15:25:11Z</time>
      </trkpt>
      <trkpt lat="47.24175" lon="5.72989">
        <ele>307.76</ele>
        <time>2018-04-21T15:25:16Z</time>
      </trkpt>
      <trkpt lat="47.24159" lon="5.73006">
        <ele>309.68</ele>
        <time>2018-04-21T15:25:27Z</time>
      </trkpt>
      <trkpt lat="47.24141" lon="5.73037">
        <ele>311.12</ele>
        <time>2018-04-21T15:25:39Z</time>
      </trkpt>
      <trkpt lat="47.24134" lon="5.7307">
        <ele>313.53</ele>
        <time>2018-04-21T15:25:50Z</time>
      </trkpt>
      <trkpt lat="47.24119" lon="5.73077">
        <ele>313.05</ele>
        <time>2018-04-21T15:25:59Z</time>
      </trkpt>
      <trkpt lat="47.24118" lon="5.73074">
        <ele>313.05</ele>
        <time>2018-04-21T15:26:01Z</time>
      </trkpt>
      <trkpt lat="47.24118" lon="5.73079">
        <ele>312.57</ele>
        <time>2018-04-21T15:26:05Z</time>
      </trkpt>
      <trkpt lat="47.24149" lon="5.73082">
        <ele>314.49</ele>
        <time>2018-04-21T15:26:17Z</time>
      </trkpt>
      <trkpt lat="47.24182" lon="5.73102">
        <ele>316.89</ele>
        <time>2018-04-21T15:26:30Z</time>
      </trkpt>
      <trkpt lat="47.24201" lon="5.7313">
        <ele>319.3</ele>
        <time>2018-04-21T15:26:41Z</time>
      </trkpt>
      <trkpt lat="47.24205" lon="5.73142">
        <ele>320.26</ele>
        <time>2018-04-21T15:26:45Z</time>
      </trkpt>
      <trkpt lat="47.24198" lon="5.73155">
        <ele>320.74</ele>
        <time>2018-04-21T15:26:50Z</time>
      </trkpt>
      <trkpt lat="47.24139" lon="5.73173">
        <ele>317.37</ele>
        <time>2018-04-21T15:27:06Z</time>
      </trkpt>
      <trkpt lat="47.24115" lon="5.73178">
        <ele>315.45</ele>
        <time>2018-04-21T15:27:12Z</time>
      </trkpt>
      <trkpt lat="47.24088" lon="5.73179">
        <ele>312.57</ele>
        <time>2018-04-21T15:27:17Z</time>
      </trkpt>
      <trkpt lat="47.24057" lon="5.73195">
        <ele>308.72</ele>
        <time>2018-04-21T15:27:21Z</time>
      </trkpt>
      <trkpt lat="47.24032" lon="5.7322">
        <ele>305.36</ele>
        <time>2018-04-21T15:27:24Z</time>
      </trkpt>
      <trkpt lat="47.23988" lon="5.73241">
        <ele>300.07</ele>
        <time>2018-04-21T15:27:28Z</time>
      </trkpt>
      <trkpt lat="47.23962" lon="5.73242">
        <ele>296.7</ele>
        <time>2018-04-21T15:27:30Z</time>
      </trkpt>
      <trkpt lat="47.23897" lon="5.73293">
        <ele>293.34</ele>
        <time>2018-04-21T15:27:36Z</time>
      </trkpt>
      <trkpt lat="47.23862" lon="5.7328">
        <ele>291.9</ele>
        <time>2018-04-21T15:27:40Z</time>
      </trkpt>
      <trkpt lat="47.23856" lon="5.73269">
        <ele>291.42</ele>
        <time>2018-04-21T15:27:41Z</time>
      </trkpt>
      <trkpt lat="47.23827" lon="5.73192">
        <ele>288.05</ele>
        <time>2018-04-21T15:27:47Z</time>
      </trkpt>
      <trkpt lat="47.23797" lon="5.73112">
        <ele>284.69</ele>
        <time>2018-04-21T15:27:53Z</time>
      </trkpt>
      <trkpt lat="47.23786" lon="5.73084">
        <ele>283.73</ele>
        <time>2018-04-21T15:27:55Z</time>
      </trkpt>
      <trkpt lat="47.23765" lon="5.73028">
        <ele>280.36</ele>
        <time>2018-04-21T15:27:59Z</time>
      </trkpt>
      <trkpt lat="47.23723" lon="5.73003">
        <ele>278.92</ele>
        <time>2018-04-21T15:28:05Z</time>
      </trkpt>
      <trkpt lat="47.23716" lon="5.73008">
        <ele>278.92</ele>
        <time>2018-04-21T15:28:06Z</time>
      </trkpt>
      <trkpt lat="47.23694" lon="5.7306">
        <ele>276.52</ele>
        <time>2018-04-21T15:28:11Z</time>
      </trkpt>
      <trkpt lat="47.23696" lon="5.731">
        <ele>275.07</ele>
        <time>2018-04-21T15:28:14Z</time>
      </trkpt>
      <trkpt lat="47.237" lon="5.73141">
        <ele>273.63</ele>
        <time>2018-04-21T15:28:17Z</time>
      </trkpt>
      <trkpt lat="47.23684" lon="5.73189">
        <ele>271.71</ele>
        <time>2018-04-21T15:28:21Z</time>
      </trkpt>
      <trkpt lat="47.23656" lon="5.73222">
        <ele>270.27</ele>
        <time>2018-04-21T15:28:25Z</time>
      </trkpt>
      <trkpt lat="47.23645" lon="5.73237">
        <ele>269.31</ele>
        <time>2018-04-21T15:28:27Z</time>
      </trkpt>
      <trkpt lat="47.23639" lon="5.73298">
        <ele>266.9</ele>
        <time>2018-04-21T15:28:33Z</time>
      </trkpt>
      <trkpt lat="47.2365" lon="5.73343">
        <ele>264.98</ele>
        <time>2018-04-21T15:28:37Z</time>
      </trkpt>
      <trkpt lat="47.23635" lon="5.73412">
        <ele>260.65</ele>
        <time>2018-04-21T15:28:43Z</time>
      </trkpt>
      <trkpt lat="47.23623" lon="5.73446">
        <ele>258.25</ele>
        <time>2018-04-21T15:28:46Z</time>
      </trkpt>
      <trkpt lat="47.23628" lon="5.73487">
        <ele>256.33</ele>
        <time>2018-04-21T15:28:49Z</time>
      </trkpt>
      <trkpt lat="47.23637" lon="5.7354">
        <ele>253.93</ele>
        <time>2018-04-21T15:28:53Z</time>
      </trkpt>
      <trkpt lat="47.23647" lon="5.73594">
        <ele>251.52</ele>
        <time>2018-04-21T15:28:57Z</time>
      </trkpt>
      <trkpt lat="47.2363" lon="5.73662">
        <ele>248.16</ele>
        <time>2018-04-21T15:29:02Z</time>
      </trkpt>
      <trkpt lat="47.23571" lon="5.73743">
        <ele>249.6</ele>
        <time>2018-04-21T15:29:10Z</time>
      </trkpt>
      <trkpt lat="47.23536" lon="5.73788">
        <ele>252.96</ele>
        <time>2018-04-21T15:29:15Z</time>
      </trkpt>
      <trkpt lat="47.23529" lon="5.73796">
        <ele>253.44</ele>
        <time>2018-04-21T15:29:16Z</time>
      </trkpt>
      <trkpt lat="47.23454" lon="5.73852">
        <ele>255.85</ele>
        <time>2018-04-21T15:29:27Z</time>
      </trkpt>
      <trkpt lat="47.23374" lon="5.73911">
        <ele>257.77</ele>
        <time>2018-04-21T15:29:43Z</time>
      </trkpt>
      <trkpt lat="47.23308" lon="5.73964">
        <ele>258.73</ele>
        <time>2018-04-21T15:29:59Z</time>
      </trkpt>
      <trkpt lat="47.23292" lon="5.73982">
        <ele>258.73</ele>
        <time>2018-04-21T15:30:04Z</time>
      </trkpt>
      <trkpt lat="47.2328" lon="5.74001">
        <ele>258.73</ele>
        <time>2018-04-21T15:30:08Z</time>
      </trkpt>
      <trkpt lat="47.23265" lon="5.73992">
        <ele>258.73</ele>
        <time>2018-04-21T15:30:13Z</time>
      </trkpt>
      <trkpt lat="47.23234" lon="5.7394">
        <ele>259.69</ele>
        <time>2018-04-21T15:30:24Z</time>
      </trkpt>
      <trkpt lat="47.23222" lon="5.73925">
        <ele>260.17</ele>
        <time>2018-04-21T15:30:28Z</time>
      </trkpt>
      <trkpt lat="47.2317" lon="5.73873">
        <ele>263.54</ele>
        <time>2018-04-21T15:30:44Z</time>
      </trkpt>
      <trkpt lat="47.2312" lon="5.73803">
        <ele>265.46</ele>
        <time>2018-04-21T15:31:01Z</time>
      </trkpt>
      <trkpt lat="47.23103" lon="5.73775">
        <ele>265.94</ele>
        <time>2018-04-21T15:31:07Z</time>
      </trkpt>
      <trkpt lat="47.23096" lon="5.73759">
        <ele>265.94</ele>
        <time>2018-04-21T15:31:10Z</time>
      </trkpt>
      <trkpt lat="47.23088" lon="5.73734">
        <ele>265.94</ele>
        <time>2018-04-21T15:31:14Z</time>
      </trkpt>
      <trkpt lat="47.23082" lon="5.73683">
        <ele>265.94</ele>
        <time>2018-04-21T15:31:21Z</time>
      </trkpt>
      <trkpt lat="47.23074" lon="5.73657">
        <ele>265.94</ele>
        <time>2018-04-21T15:31:25Z</time>
      </trkpt>
      <trkpt lat="47.23068" lon="5.73645">
        <ele>266.42</ele>
        <time>2018-04-21T15:31:27Z</time>
      </trkpt>
      <trkpt lat="47.23056" lon="5.73629">
        <ele>266.42</ele>
        <time>2018-04-21T15:31:30Z</time>
      </trkpt>
      <trkpt lat="47.23042" lon="5.73616">
        <ele>266.42</ele>
        <time>2018-04-21T15:31:33Z</time>
      </trkpt>
      <trkpt lat="47.22987" lon="5.73573">
        <ele>264.98</ele>
        <time>2018-04-21T15:31:43Z</time>
      </trkpt>
      <trkpt lat="47.22971" lon="5.73556">
        <ele>264.5</ele>
        <time>2018-04-21T15:31:46Z</time>
      </trkpt>
      <trkpt lat="47.2295" lon="5.73512">
        <ele>264.02</ele>
        <time>2018-04-21T15:31:52Z</time>
      </trkpt>
      <trkpt lat="47.22948" lon="5.73496">
        <ele>264.02</ele>
        <time>2018-04-21T15:31:54Z</time>
      </trkpt>
      <trkpt lat="47.22945" lon="5.73481">
        <ele>264.02</ele>
        <time>2018-04-21T15:31:56Z</time>
      </trkpt>
      <trkpt lat="47.22941" lon="5.73458">
        <ele>264.02</ele>
        <time>2018-04-21T15:31:59Z</time>
      </trkpt>
      <trkpt lat="47.22917" lon="5.73352">
        <ele>261.62</ele>
        <time>2018-04-21T15:32:12Z</time>
      </trkpt>
      <trkpt lat="47.22915" lon="5.73332">
        <ele>261.14</ele>
        <time>2018-04-21T15:32:14Z</time>
      </trkpt>
      <trkpt lat="47.22896" lon="5.73207">
        <ele>261.14</ele>
        <time>2018-04-21T15:32:26Z</time>
      </trkpt>
      <trkpt lat="47.22894" lon="5.73196">
        <ele>261.14</ele>
        <time>2018-04-21T15:32:27Z</time>
      </trkpt>
      <trkpt lat="47.22882" lon="5.73123">
        <ele>263.54</ele>
        <time>2018-04-21T15:32:33Z</time>
      </trkpt>
      <trkpt lat="47.22872" lon="5.73029">
        <ele>265.46</ele>
        <time>2018-04-21T15:32:41Z</time>
      </trkpt>
      <trkpt lat="47.22852" lon="5.72952">
        <ele>264.5</ele>
        <time>2018-04-21T15:32:48Z</time>
      </trkpt>
      <trkpt lat="47.22805" lon="5.72825">
        <ele>261.62</ele>
        <time>2018-04-21T15:33:01Z</time>
      </trkpt>
      <trkpt lat="47.22778" lon="5.72722">
        <ele>260.65</ele>
        <time>2018-04-21T15:33:13Z</time>
      </trkpt>
      <trkpt lat="47.22748" lon="5.72651">
        <ele>260.17</ele>
        <time>2018-04-21T15:33:23Z</time>
      </trkpt>
      <trkpt lat="47.22724" lon="5.72554">
        <ele>256.81</ele>
        <time>2018-04-21T15:33:35Z</time>
      </trkpt>
      <trkpt lat="47.22701" lon="5.72466">
        <ele>253.44</ele>
        <time>2018-04-21T15:33:44Z</time>
      </trkpt>
      <trkpt lat="47.22689" lon="5.72409">
        <ele>250.08</ele>
        <time>2018-04-21T15:33:49Z</time>
      </trkpt>
      <trkpt lat="47.22676" lon="5.72344">
        <ele>246.23</ele>
        <time>2018-04-21T15:33:54Z</time>
      </trkpt>
      <trkpt lat="47.2267" lon="5.72317">
        <ele>244.79</ele>
        <time>2018-04-21T15:33:56Z</time>
      </trkpt>
      <trkpt lat="47.22665" lon="5.7229">
        <ele>243.83</ele>
        <time>2018-04-21T15:33:58Z</time>
      </trkpt>
      <trkpt lat="47.22628" lon="5.72151">
        <ele>244.31</ele>
        <time>2018-04-21T15:34:11Z</time>
      </trkpt>
      <trkpt lat="47.22604" lon="5.72062">
        <ele>245.27</ele>
        <time>2018-04-21T15:34:24Z</time>
      </trkpt>
      <trkpt lat="47.22595" lon="5.72038">
        <ele>245.27</ele>
        <time>2018-04-21T15:34:31Z</time>
      </trkpt>
      <trkpt lat="47.22594" lon="5.71996">
        <ele>245.75</ele>
        <time>2018-04-21T15:34:38Z</time>
      </trkpt>
      <trkpt lat="47.22597" lon="5.71915">
        <ele>245.75</ele>
        <time>2018-04-21T15:34:53Z</time>
      </trkpt>
      <trkpt lat="47.22597" lon="5.71903">
        <ele>245.75</ele>
        <time>2018-04-21T15:34:55Z</time>
      </trkpt>
      <trkpt lat="47.22599" lon="5.71882">
        <ele>244.31</ele>
        <time>2018-04-21T15:34:58Z</time>
      </trkpt>
      <trkpt lat="47.226" lon="5.71874">
        <ele>243.83</ele>
        <time>2018-04-21T15:34:59Z</time>
      </trkpt>
      <trkpt lat="47.22607" lon="5.71733">
        <ele>241.91</ele>
        <time>2018-04-21T15:35:15Z</time>
      </trkpt>
      <trkpt lat="47.22608" lon="5.71684">
        <ele>242.87</ele>
        <time>2018-04-21T15:35:21Z</time>
      </trkpt>
      <trkpt lat="47.22609" lon="5.71547">
        <ele>241.91</ele>
        <time>2018-04-21T15:35:37Z</time>
      </trkpt>
      <trkpt lat="47.22604" lon="5.71376">
        <ele>243.83</ele>
        <time>2018-04-21T15:35:55Z</time>
      </trkpt>
      <trkpt lat="47.22601" lon="5.71253">
        <ele>244.79</ele>
        <time>2018-04-21T15:36:09Z</time>
      </trkpt>
      <trkpt lat="47.22599" lon="5.71211">
        <ele>245.75</ele>
        <time>2018-04-21T15:36:14Z</time>
      </trkpt>
      <trkpt lat="47.22596" lon="5.71143">
        <ele>247.2</ele>
        <time>2018-04-21T15:36:22Z</time>
      </trkpt>
      <trkpt lat="47.2259" lon="5.71012">
        <ele>247.68</ele>
        <time>2018-04-21T15:36:38Z</time>
      </trkpt>
      <trkpt lat="47.22585" lon="5.70965">
        <ele>246.23</ele>
        <time>2018-04-21T15:36:43Z</time>
      </trkpt>
      <trkpt lat="47.22574" lon="5.70804">
        <ele>244.31</ele>
        <time>2018-04-21T15:36:58Z</time>
      </trkpt>
      <trkpt lat="47.22561" lon="5.70669">
        <ele>247.2</ele>
        <time>2018-04-21T15:37:12Z</time>
      </trkpt>
      <trkpt lat="47.22556" lon="5.70612">
        <ele>249.12</ele>
        <time>2018-04-21T15:37:18Z</time>
      </trkpt>
      <trkpt lat="47.22537" lon="5.70438">
        <ele>246.72</ele>
        <time>2018-04-21T15:37:36Z</time>
      </trkpt>
      <trkpt lat="47.22522" lon="5.70314">
        <ele>247.2</ele>
        <time>2018-04-21T15:37:50Z</time>
      </trkpt>
      <trkpt lat="47.22518" lon="5.70286">
        <ele>245.75</ele>
        <time>2018-04-21T15:37:53Z</time>
      </trkpt>
      <trkpt lat="47.22509" lon="5.70235">
        <ele>244.31</ele>
        <time>2018-04-21T15:37:58Z</time>
      </trkpt>
      <trkpt lat="47.22473" lon="5.70081">
        <ele>244.79</ele>
        <time>2018-04-21T15:38:15Z</time>
      </trkpt>
      <trkpt lat="47.22442" lon="5.6996">
        <ele>242.39</ele>
        <time>2018-04-21T15:38:31Z</time>
      </trkpt>
      <trkpt lat="47.22402" lon="5.69813">
        <ele>242.87</ele>
        <time>2018-04-21T15:38:48Z</time>
      </trkpt>
      <trkpt lat="47.22371" lon="5.69686">
        <ele>242.39</ele>
        <time>2018-04-21T15:39:04Z</time>
      </trkpt>
      <trkpt lat="47.22345" lon="5.69537">
        <ele>240.47</ele>
        <time>2018-04-21T15:39:21Z</time>
      </trkpt>
      <trkpt lat="47.22336" lon="5.69468">
        <ele>239.99</ele>
        <time>2018-04-21T15:39:28Z</time>
      </trkpt>
      <trkpt lat="47.22333" lon="5.6945">
        <ele>239.99</ele>
        <time>2018-04-21T15:39:30Z</time>
      </trkpt>
      <trkpt lat="47.22314" lon="5.69307">
        <ele>240.47</ele>
        <time>2018-04-21T15:39:48Z</time>
      </trkpt>
      <trkpt lat="47.22291" lon="5.69147">
        <ele>239.99</ele>
        <time>2018-04-21T15:40:06Z</time>
      </trkpt>
      <trkpt lat="47.22276" lon="5.69031">
        <ele>239.99</ele>
        <time>2018-04-21T15:40:19Z</time>
      </trkpt>
      <trkpt lat="47.22273" lon="5.69007">
        <ele>239.99</ele>
        <time>2018-04-21T15:40:21Z</time>
      </trkpt>
      <trkpt lat="47.22269" lon="5.68887">
        <ele>240.95</ele>
        <time>2018-04-21T15:40:32Z</time>
      </trkpt>
      <trkpt lat="47.22267" lon="5.68847">
        <ele>241.43</ele>
        <time>2018-04-21T15:40:37Z</time>
      </trkpt>
      <trkpt lat="47.22279" lon="5.68762">
        <ele>243.35</ele>
        <time>2018-04-21T15:40:51Z</time>
      </trkpt>
      <trkpt lat="47.22299" lon="5.68697">
        <ele>244.79</ele>
        <time>2018-04-21T15:41:02Z</time>
      </trkpt>
      <trkpt lat="47.22316" lon="5.68661">
        <ele>247.2</ele>
        <time>2018-04-21T15:41:08Z</time>
      </trkpt>
      <trkpt lat="47.22324" lon="5.68647">
        <ele>248.64</ele>
        <time>2018-04-21T15:41:11Z</time>
      </trkpt>
      <trkpt lat="47.2234" lon="5.68593">
        <ele>248.64</ele>
        <time>2018-04-21T15:41:22Z</time>
      </trkpt>
      <trkpt lat="47.22347" lon="5.6854">
        <ele>245.75</ele>
        <time>2018-04-21T15:41:29Z</time>
      </trkpt>
      <trkpt lat="47.22351" lon="5.68515">
        <ele>245.27</ele>
        <time>2018-04-21T15:41:32Z</time>
      </trkpt>
      <trkpt lat="47.22358" lon="5.68386">
        <ele>245.75</ele>
        <time>2018-04-21T15:41:48Z</time>
      </trkpt>
      <trkpt lat="47.22358" lon="5.68341">
        <ele>246.23</ele>
        <time>2018-04-21T15:41:55Z</time>
      </trkpt>
      <trkpt lat="47.22359" lon="5.68329">
        <ele>246.23</ele>
        <time>2018-04-21T15:41:57Z</time>
      </trkpt>
      <trkpt lat="47.22366" lon="5.68254">
        <ele>245.75</ele>
        <time>2018-04-21T15:42:10Z</time>
      </trkpt>
      <trkpt lat="47.22378" lon="5.68198">
        <ele>244.79</ele>
        <time>2018-04-21T15:42:20Z</time>
      </trkpt>
      <trkpt lat="47.22384" lon="5.68152">
        <ele>241.91</ele>
        <time>2018-04-21T15:42:26Z</time>
      </trkpt>
      <trkpt lat="47.2239" lon="5.68101">
        <ele>239.51</ele>
        <time>2018-04-21T15:42:35Z</time>
      </trkpt>
      <trkpt lat="47.22385" lon="5.6808">
        <ele>238.06</ele>
        <time>2018-04-21T15:42:40Z</time>
      </trkpt>
      <trkpt lat="47.22379" lon="5.68061">
        <ele>236.62</ele>
        <time>2018-04-21T15:42:43Z</time>
      </trkpt>
      <trkpt lat="47.22363" lon="5.6804">
        <ele>234.7</ele>
        <time>2018-04-21T15:42:47Z</time>
      </trkpt>
      <trkpt lat="47.22354" lon="5.6802">
        <ele>232.3</ele>
        <time>2018-04-21T15:42:50Z</time>
      </trkpt>
      <trkpt lat="47.22354" lon="5.68003">
        <ele>229.89</ele>
        <time>2018-04-21T15:42:52Z</time>
      </trkpt>
      <trkpt lat="47.22357" lon="5.67953">
        <ele>222.68</ele>
        <time>2018-04-21T15:42:56Z</time>
      </trkpt>
      <trkpt lat="47.22362" lon="5.67883">
        <ele>221.24</ele>
        <time>2018-04-21T15:43:01Z</time>
      </trkpt>
      <trkpt lat="47.22363" lon="5.6786">
        <ele>222.2</ele>
        <time>2018-04-21T15:43:03Z</time>
      </trkpt>
      <trkpt lat="47.22366" lon="5.67816">
        <ele>222.2</ele>
        <time>2018-04-21T15:43:07Z</time>
      </trkpt>
      <trkpt lat="47.22363" lon="5.67781">
        <ele>226.05</ele>
        <time>2018-04-21T15:43:12Z</time>
      </trkpt>
      <trkpt lat="47.2236" lon="5.67754">
        <ele>228.93</ele>
        <time>2018-04-21T15:43:18Z</time>
      </trkpt>
      <trkpt lat="47.2237" lon="5.67744">
        <ele>230.37</ele>
        <time>2018-04-21T15:43:23Z</time>
      </trkpt>
      <trkpt lat="47.22399" lon="5.67747">
        <ele>234.22</ele>
        <time>2018-04-21T15:43:35Z</time>
      </trkpt>
      <trkpt lat="47.22443" lon="5.67728">
        <ele>235.18</ele>
        <time>2018-04-21T15:43:49Z</time>
      </trkpt>
      <trkpt lat="47.22446" lon="5.67726">
        <ele>235.66</ele>
        <time>2018-04-21T15:43:50Z</time>
      </trkpt>
      <trkpt lat="47.22448" lon="5.67711">
        <ele>236.14</ele>
        <time>2018-04-21T15:43:54Z</time>
      </trkpt>
      <trkpt lat="47.22441" lon="5.67669">
        <ele>239.51</ele>
        <time>2018-04-21T15:44:05Z</time>
      </trkpt>
      <trkpt lat="47.2244" lon="5.67659">
        <ele>240.47</ele>
        <time>2018-04-21T15:44:08Z</time>
      </trkpt>
      <trkpt lat="47.22453" lon="5.67643">
        <ele>239.02</ele>
        <time>2018-04-21T15:44:19Z</time>
      </trkpt>
      <trkpt lat="47.22453" lon="5.67643">
        <ele>239.02</ele>
        <time>2018-04-21T15:44:29Z</time>
      </trkpt>
    </trkseg>
  </trk>
</gpx>